Darstellungsparameter: Aktuell verwendete Einstellungen:
Skalierung der Graphiken ... ?
xyx+y,   Skalierungsfaktor:      Skalierung: Modus: x, Faktor: 1
Darstellungszeitraum ... ?
Vom - - bis: - -   Zeitraum: 06.04.2014 - 06.05.2014
Min/Max/Avg-Anzeige ... ?
Zeige MMA aktuell
Zeige MMA Monat
Zeige MMA alles
Zeige --A aktuell
Zeige --A Monat
Zeige --A alles
Keine MMA-Anzeige
MMA:
Average (ber die Originaldaten)
MMA-Basis: 06.04.2014 - 06.05.2014
Quicknavigation für Darstellung... ?
Tage:      1T, 2T, 3T, 5T -1T -2T -3T -5T +1T +2T +3T +5T
Wochen: 1W, 2W, 3W -1W -2W -3W +1W +2W +3W
Monate: 1M, 3M, 6M -1M -3M -6M +1M +3M +6M
Jahre:    1J, 3J, 5J, 10J -1J -3J -5J -10J +1J +3J +5J +10J
Nutze für die Darstellung ... ?
Originaldaten oder Mittelwerte auf ...
Stundenbasis Tagesbasis Wochenbasis
Monatsbasis Jahresbasis      Datenbasis: Original-Daten
Darstellen als:
Statistik (Auto) Statistik J:M      Darstellung:
Zur Graphik,    zurück zur Übersicht aller Sensoren.
 
Tabellarische Datenbersicht: ?
 
Sensor: Nr:Datum:Temp:Abs-Feuchte:Windchill:Wind:
Aussen-T/F 1 06-04-2014 00:00:00 10.6 C 8.78 g/m*3 10.6 C 0 km/h
2 06-04-2014 00:05:00 10.4 C 8.77 g/m*3 10.4 C 3.2 km/h
3 06-04-2014 00:10:00 10.4 C 8.77 g/m*3 10.4 C 0 km/h
4 06-04-2014 00:15:00 10.3 C 8.71 g/m*3 10.3 C 0 km/h
5 06-04-2014 00:20:00 10.2 C 8.66 g/m*3 10.2 C 3.2 km/h
6 06-04-2014 00:25:00 10.1 C 8.61 g/m*3 10.1 C 0 km/h
7 06-04-2014 00:30:00 10 C 8.55 g/m*3 10 C 0 km/h
8 06-04-2014 00:35:00 9.9 C 8.5 g/m*3 9.9 C 0 km/h
9 06-04-2014 00:40:00 9.8 C 8.54 g/m*3 9.8 C 1.6 km/h
10 06-04-2014 00:45:00 9.8 C 8.63 g/m*3 9.8 C 3.2 km/h
11 06-04-2014 00:50:00 9.8 C 8.54 g/m*3 9.8 C 0 km/h
12 06-04-2014 00:55:00 9.7 C 8.48 g/m*3 9.7 C 0 km/h
13 06-04-2014 01:00:00 9.6 C 8.43 g/m*3 9.6 C 0 km/h
14 06-04-2014 01:05:00 9.5 C 8.37 g/m*3 9.5 C 0 km/h
15 06-04-2014 01:10:00 9.4 C 8.41 g/m*3 9.4 C 1.6 km/h
16 06-04-2014 01:15:00 9.4 C 8.41 g/m*3 9.4 C 0 km/h
17 06-04-2014 01:20:00 9.3 C 8.36 g/m*3 9.3 C 0 km/h
18 06-04-2014 01:25:00 9.3 C 8.36 g/m*3 9.3 C 0 km/h
19 06-04-2014 01:30:00 9.2 C 8.3 g/m*3 9.2 C 0 km/h
20 06-04-2014 01:35:00 9.2 C 8.3 g/m*3 9.2 C 0 km/h
21 06-04-2014 01:40:00 9.1 C 8.25 g/m*3 9.1 C 0 km/h
22 06-04-2014 01:45:00 8.9 C 8.15 g/m*3 8.9 C 0 km/h
23 06-04-2014 01:50:00 8.8 C 8.09 g/m*3 8.8 C 0 km/h
24 06-04-2014 01:55:00 8.7 C 8.13 g/m*3 8.7 C 0 km/h
25 06-04-2014 02:00:00 8.7 C 8.13 g/m*3 8.7 C 0 km/h
Sensor: Nr:Datum:Temp:Abs-Feuchte:Windchill:Wind:
Aussen-T/F 26 06-04-2014 02:05:00 8.7 C 8.13 g/m*3 8.7 C 0 km/h
27 06-04-2014 02:10:00 8.7 C 8.13 g/m*3 8.7 C 0 km/h
28 06-04-2014 02:15:00 8.6 C 8.08 g/m*3 8.6 C 0 km/h
29 06-04-2014 02:20:00 8.5 C 8.03 g/m*3 8.5 C 0 km/h
30 06-04-2014 02:25:00 8.4 C 7.97 g/m*3 8.4 C 0 km/h
31 06-04-2014 02:30:00 8.3 C 7.92 g/m*3 8.3 C 0 km/h
32 06-04-2014 02:35:00 8.3 C 8.01 g/m*3 8.3 C 0 km/h
33 06-04-2014 02:40:00 8.3 C 8.01 g/m*3 8.3 C 0 km/h
34 06-04-2014 02:45:00 8.3 C 8.01 g/m*3 8.3 C 1.6 km/h
35 06-04-2014 02:50:00 8.3 C 8.01 g/m*3 8.3 C 0 km/h
36 06-04-2014 02:55:00 8.3 C 8.01 g/m*3 8.3 C 0 km/h
37 06-04-2014 03:00:00 8.2 C 7.96 g/m*3 8.2 C 0 km/h
38 06-04-2014 03:05:00 8.2 C 7.96 g/m*3 8.2 C 0 km/h
39 06-04-2014 03:10:00 8.1 C 7.9 g/m*3 8.1 C 0 km/h
40 06-04-2014 03:15:00 8 C 7.85 g/m*3 8 C 0 km/h
41 06-04-2014 03:20:00 7.9 C 7.8 g/m*3 7.9 C 3.2 km/h
42 06-04-2014 03:25:00 7.8 C 7.75 g/m*3 7.8 C 0 km/h
43 06-04-2014 03:30:00 7.9 C 7.8 g/m*3 7.9 C 0 km/h
44 06-04-2014 03:35:00 7.9 C 7.8 g/m*3 7.9 C 0 km/h
45 06-04-2014 03:40:00 7.8 C 7.75 g/m*3 7.8 C 0 km/h
46 06-04-2014 03:45:00 7.7 C 7.7 g/m*3 7.7 C 0 km/h
47 06-04-2014 03:50:00 7.7 C 7.7 g/m*3 7.7 C 0 km/h
48 06-04-2014 03:55:00 7.6 C 7.65 g/m*3 7.6 C 0 km/h
49 06-04-2014 04:00:00 7.5 C 7.6 g/m*3 7.5 C 0 km/h
50 06-04-2014 04:05:00 7.4 C 7.55 g/m*3 7.4 C 0 km/h
Sensor: Nr:Datum:Temp:Abs-Feuchte:Windchill:Wind:
Aussen-T/F 51 06-04-2014 04:10:00 7.3 C 7.51 g/m*3 7.3 C 0 km/h
52 06-04-2014 04:15:00 7.3 C 7.51 g/m*3 7.3 C 0 km/h
53 06-04-2014 04:20:00 7.2 C 7.46 g/m*3 7.2 C 0 km/h
54 06-04-2014 04:25:00 7.2 C 7.46 g/m*3 7.2 C 0 km/h
55 06-04-2014 04:30:00 7.1 C 7.49 g/m*3 7.1 C 0 km/h
56 06-04-2014 04:35:00 7.1 C 7.41 g/m*3 7.1 C 0 km/h
57 06-04-2014 04:40:00 7.1 C 7.49 g/m*3 7.1 C 0 km/h
58 06-04-2014 04:45:00 7.1 C 7.49 g/m*3 7.1 C 0 km/h
59 06-04-2014 04:50:00 7 C 7.44 g/m*3 7 C 0 km/h
60 06-04-2014 04:55:00 7 C 7.44 g/m*3 7 C 0 km/h
61 06-04-2014 05:00:00 6.9 C 7.39 g/m*3 6.9 C 0 km/h
62 06-04-2014 05:05:00 7 C 7.44 g/m*3 7 C 0 km/h
63 06-04-2014 05:10:00 7 C 7.44 g/m*3 7 C 0 km/h
64 06-04-2014 05:15:00 6.9 C 7.39 g/m*3 6.9 C 0 km/h
65 06-04-2014 05:20:00 6.8 C 7.34 g/m*3 6.8 C 0 km/h
66 06-04-2014 05:25:00 6.9 C 7.39 g/m*3 6.9 C 0 km/h
67 06-04-2014 05:30:00 6.9 C 7.39 g/m*3 6.9 C 0 km/h
68 06-04-2014 05:35:00 6.9 C 7.39 g/m*3 6.9 C 0 km/h
69 06-04-2014 05:40:00 7.1 C 7.57 g/m*3 7.1 C 0 km/h
70 06-04-2014 05:45:00 7.2 C 7.54 g/m*3 7.2 C 0 km/h
71 06-04-2014 05:50:00 7.2 C 7.54 g/m*3 7.2 C 0 km/h
72 06-04-2014 05:55:00 7.3 C 7.66 g/m*3 7.3 C 0 km/h
73 06-04-2014 06:00:00 7.3 C 7.66 g/m*3 7.3 C 0 km/h
74 06-04-2014 06:05:00 7.3 C 7.58 g/m*3 7.3 C 1.6 km/h
75 06-04-2014 06:10:00 7.3 C 7.58 g/m*3 7.3 C 3.2 km/h
Sensor: Nr:Datum:Temp:Abs-Feuchte:Windchill:Wind:
Aussen-T/F 76 06-04-2014 06:15:00 7.3 C 7.58 g/m*3 7.3 C 0 km/h
77 06-04-2014 06:20:00 7.3 C 7.66 g/m*3 7.3 C 1.6 km/h
78 06-04-2014 06:25:00 7.2 C 7.54 g/m*3 7.2 C 0 km/h
79 06-04-2014 06:30:00 7.2 C 7.61 g/m*3 7.2 C 3.2 km/h
80 06-04-2014 06:35:00 7.1 C 7.57 g/m*3 7.1 C 4.8 km/h
81 06-04-2014 06:40:00 7.1 C 7.57 g/m*3 7.1 C 0 km/h
82 06-04-2014 06:45:00 7.1 C 7.57 g/m*3 7.1 C 0 km/h
83 06-04-2014 06:50:00 7.1 C 7.57 g/m*3 7.1 C 0 km/h
84 06-04-2014 06:55:00 7.1 C 7.57 g/m*3 7.1 C 0 km/h
85 06-04-2014 07:00:00 7.1 C 7.57 g/m*3 7.1 C 1.6 km/h
86 06-04-2014 07:05:00 7.1 C 7.57 g/m*3 7.1 C 0 km/h
87 06-04-2014 07:10:00 7.1 C 7.57 g/m*3 7.1 C 1.6 km/h
88 06-04-2014 07:15:00 7.1 C 7.57 g/m*3 7.1 C 1.6 km/h
89 06-04-2014 07:20:00 7.2 C 7.61 g/m*3 7.2 C 0 km/h
90 06-04-2014 07:25:00 7.2 C 7.61 g/m*3 7.2 C 0 km/h
91 06-04-2014 07:30:00 7.3 C 7.66 g/m*3 7.3 C 3.2 km/h
92 06-04-2014 07:35:00 7.3 C 7.66 g/m*3 7.3 C 0 km/h
93 06-04-2014 07:40:00 7.3 C 7.66 g/m*3 7.3 C 0 km/h
94 06-04-2014 07:45:00 7.3 C 7.66 g/m*3 7.3 C 0 km/h
95 06-04-2014 07:50:00 7.3 C 7.66 g/m*3 7.3 C 0 km/h
96 06-04-2014 07:55:00 7.3 C 7.66 g/m*3 7.3 C 0 km/h
97 06-04-2014 08:00:00 7.4 C 7.71 g/m*3 7.4 C 0 km/h
98 06-04-2014 08:05:00 7.4 C 7.71 g/m*3 7.4 C 0 km/h
99 06-04-2014 08:10:00 7.4 C 7.71 g/m*3 7.4 C 0 km/h
100 06-04-2014 08:15:00 7.5 C 7.76 g/m*3 7.5 C 0 km/h
Sensor: Nr:Datum:Temp:Abs-Feuchte:Windchill:Wind:
Aussen-T/F 101 06-04-2014 08:20:00 7.6 C 7.81 g/m*3 7.6 C 0 km/h
102 06-04-2014 08:25:00 7.8 C 7.92 g/m*3 7.8 C 0 km/h
103 06-04-2014 08:30:00 7.9 C 7.97 g/m*3 7.9 C 0 km/h
104 06-04-2014 08:35:00 8 C 8.02 g/m*3 8 C 0 km/h
105 06-04-2014 08:40:00 7.9 C 7.97 g/m*3 7.9 C 0 km/h
106 06-04-2014 08:45:00 7.9 C 7.97 g/m*3 7.9 C 0 km/h
107 06-04-2014 08:50:00 7.9 C 7.97 g/m*3 7.9 C 0 km/h
108 06-04-2014 08:55:00 7.9 C 7.97 g/m*3 7.9 C 0 km/h
109 06-04-2014 09:00:00 7.9 C 7.97 g/m*3 7.9 C 0 km/h
110 06-04-2014 09:05:00 7.9 C 7.97 g/m*3 7.9 C 1.6 km/h
111 06-04-2014 09:10:00 7.9 C 7.97 g/m*3 7.9 C 1.6 km/h
112 06-04-2014 09:15:00 8 C 8.02 g/m*3 8 C 0 km/h
113 06-04-2014 09:20:00 8.1 C 8.07 g/m*3 8.1 C 0 km/h
114 06-04-2014 09:25:00 8.1 C 8.07 g/m*3 8.1 C 0 km/h
115 06-04-2014 09:30:00 8.2 C 8.12 g/m*3 8.2 C 0 km/h
116 06-04-2014 09:35:00 8.2 C 8.12 g/m*3 8.2 C 0 km/h
117 06-04-2014 09:40:00 8.3 C 8.18 g/m*3 8.3 C 0 km/h
118 06-04-2014 09:45:00 8.4 C 8.23 g/m*3 8.4 C 1.6 km/h
119 06-04-2014 09:50:00 8.6 C 8.34 g/m*3 8.6 C 0 km/h
120 06-04-2014 09:55:00 8.7 C 8.39 g/m*3 8.7 C 3.2 km/h
121 06-04-2014 10:00:00 8.8 C 8.44 g/m*3 8.8 C 1.6 km/h
122 06-04-2014 10:05:00 9 C 8.55 g/m*3 9 C 0 km/h
123 06-04-2014 10:10:00 9.2 C 8.66 g/m*3 9.2 C 0 km/h
124 06-04-2014 10:15:00 9.4 C 8.77 g/m*3 9.4 C 1.6 km/h
125 06-04-2014 10:20:00 9.6 C 8.89 g/m*3 9.6 C 3.2 km/h
Sensor: Nr:Datum:Temp:Abs-Feuchte:Windchill:Wind:
Aussen-T/F 126 06-04-2014 10:25:00 9.9 C 9.06 g/m*3 9.9 C 4.8 km/h
127 06-04-2014 10:30:00 10.2 C 9.14 g/m*3 10.2 C 3.2 km/h
128 06-04-2014 10:35:00 10.6 C 9.17 g/m*3 10.6 C 3.2 km/h
129 06-04-2014 10:40:00 11 C 9.21 g/m*3 11 C 3.2 km/h
130 06-04-2014 10:45:00 11.3 C 9.28 g/m*3 11.3 C 3.2 km/h
131 06-04-2014 10:50:00 11.7 C 9.2 g/m*3 11.7 C 6.4 km/h
132 06-04-2014 10:55:00 12.1 C 9.12 g/m*3 12.1 C 4.8 km/h
133 06-04-2014 11:00:00 12.6 C 9.18 g/m*3 12.6 C 6.4 km/h
134 06-04-2014 11:05:00 12.9 C 9.13 g/m*3 12.9 C 4.8 km/h
135 06-04-2014 11:10:00 13.3 C 9.13 g/m*3 13.3 C 8.1 km/h
136 06-04-2014 11:15:00 13.7 C 9.24 g/m*3 13.7 C 11.3 km/h
137 06-04-2014 11:20:00 14 C 9.05 g/m*3 14 C 11.3 km/h
138 06-04-2014 11:25:00 14.2 C 9.04 g/m*3 14.2 C 9.7 km/h
139 06-04-2014 11:30:00 14.3 C 9.09 g/m*3 14.3 C 9.7 km/h
140 06-04-2014 11:35:00 14.3 C 9.09 g/m*3 14.3 C 11.3 km/h
141 06-04-2014 11:55:00 15.6 C 8.91 g/m*3 15.6 C 16.1 km/h
142 06-04-2014 12:00:00 15.9 C 8.94 g/m*3 15.9 C 14.5 km/h
143 06-04-2014 12:05:00 16.1 C 8.77 g/m*3 16.1 C 14.5 km/h
144 06-04-2014 12:10:00 16.2 C 8.83 g/m*3 16.2 C 14.5 km/h
145 06-04-2014 12:15:00 16.2 C 8.83 g/m*3 16.2 C 8.1 km/h
146 06-04-2014 12:20:00 16.2 C 8.69 g/m*3 16.2 C 12.9 km/h
147 06-04-2014 12:25:00 16.3 C 8.74 g/m*3 16.3 C 14.5 km/h
148 06-04-2014 12:30:00 16.4 C 8.65 g/m*3 16.4 C 11.3 km/h
149 06-04-2014 12:35:00 16.7 C 8.53 g/m*3 16.7 C 14.5 km/h
150 06-04-2014 12:40:00 16.8 C 8.58 g/m*3 16.8 C 12.9 km/h
Sensor: Nr:Datum:Temp:Abs-Feuchte:Windchill:Wind:
Aussen-T/F 151 06-04-2014 12:45:00 16.9 C 8.77 g/m*3 16.9 C 19.3 km/h
152 06-04-2014 12:50:00 17.1 C 8.73 g/m*3 17.1 C 19.3 km/h
153 06-04-2014 12:55:00 17.3 C 8.84 g/m*3 17.3 C 11.3 km/h
154 06-04-2014 13:00:00 17.6 C 8.85 g/m*3 17.6 C 12.9 km/h
155 06-04-2014 13:05:00 17.7 C 9.2 g/m*3 17.7 C 12.9 km/h
156 06-04-2014 13:10:00 17.7 C 9.2 g/m*3 17.7 C 14.5 km/h
157 06-04-2014 13:30:00 18.7 C 8.97 g/m*3 18.7 C 12.9 km/h
158 06-04-2014 13:35:00 18.7 C 8.65 g/m*3 18.7 C 9.7 km/h
159 06-04-2014 13:40:00 18.9 C 9.07 g/m*3 18.9 C 12.9 km/h
160 06-04-2014 13:45:00 19 C 9.13 g/m*3 19 C 12.9 km/h
161 06-04-2014 13:50:00 19.2 C 9.23 g/m*3 19.2 C 8.1 km/h
162 06-04-2014 13:55:00 19.3 C 9.45 g/m*3 19.3 C 4.8 km/h
163 06-04-2014 14:00:00 19.7 C 9 g/m*3 19.7 C 11.3 km/h
164 06-04-2014 14:05:00 19.6 C 8.78 g/m*3 19.6 C 8.1 km/h
165 06-04-2014 14:10:00 19.4 C 9.01 g/m*3 19.4 C 14.5 km/h
166 06-04-2014 14:15:00 19.3 C 8.96 g/m*3 19.3 C 12.9 km/h
167 06-04-2014 14:20:00 19.1 C 9.02 g/m*3 19.1 C 9.7 km/h
168 06-04-2014 14:25:00 19.3 C 8.96 g/m*3 19.3 C 20.9 km/h
169 06-04-2014 14:30:00 19.5 C 9.06 g/m*3 19.5 C 12.9 km/h
170 06-04-2014 14:35:00 19.5 C 9.06 g/m*3 19.5 C 11.3 km/h
171 06-04-2014 14:40:00 19.5 C 9.06 g/m*3 19.5 C 11.3 km/h
172 06-04-2014 14:45:00 19.5 C 9.06 g/m*3 19.5 C 17.7 km/h
173 06-04-2014 15:25:00 19.3 C 9.12 g/m*3 19.3 C 11.3 km/h
174 06-04-2014 15:30:00 19.3 C 9.12 g/m*3 19.3 C 11.3 km/h
175 06-04-2014 15:35:00 19.2 C 8.9 g/m*3 19.2 C 11.3 km/h
Sensor: Nr:Datum:Temp:Abs-Feuchte:Windchill:Wind:
Aussen-T/F 176 06-04-2014 15:40:00 19.1 C 9.02 g/m*3 19.1 C 11.3 km/h
177 06-04-2014 15:45:00 18.9 C 9.07 g/m*3 18.9 C 11.3 km/h
178 06-04-2014 15:50:00 18.9 C 9.07 g/m*3 18.9 C 9.7 km/h
179 06-04-2014 15:55:00 18.9 C 9.07 g/m*3 18.9 C 12.9 km/h
180 06-04-2014 16:00:00 18.9 C 9.07 g/m*3 18.9 C 14.5 km/h
181 06-04-2014 17:20:00 18.3 C 9.07 g/m*3 18.3 C 12.9 km/h
182 06-04-2014 17:25:00 18.3 C 9.07 g/m*3 18.3 C 9.7 km/h
183 06-04-2014 17:30:00 18.3 C 9.07 g/m*3 18.3 C 6.4 km/h
184 06-04-2014 17:35:00 18.3 C 9.07 g/m*3 18.3 C 8.1 km/h
185 06-04-2014 17:40:00 18.3 C 9.07 g/m*3 18.3 C 14.5 km/h
186 06-04-2014 19:30:00 16.6 C 9.46 g/m*3 16.6 C 8.1 km/h
187 06-04-2014 19:35:00 16.6 C 9.46 g/m*3 16.6 C 1.6 km/h
188 06-04-2014 19:40:00 16.6 C 9.46 g/m*3 16.6 C 3.2 km/h
189 06-04-2014 19:45:00 16.4 C 9.63 g/m*3 16.4 C 3.2 km/h
190 06-04-2014 19:50:00 16.4 C 9.63 g/m*3 16.4 C 1.6 km/h
191 06-04-2014 19:55:00 16.1 C 9.18 g/m*3 16.1 C 3.2 km/h
192 06-04-2014 20:00:00 16 C 9.54 g/m*3 16 C 4.8 km/h
193 06-04-2014 20:05:00 15.7 C 9.37 g/m*3 15.7 C 3.2 km/h
194 06-04-2014 20:10:00 15.3 C 9.27 g/m*3 15.3 C 3.2 km/h
195 06-04-2014 20:15:00 15.1 C 9.29 g/m*3 15.1 C 3.2 km/h
196 06-04-2014 20:20:00 14.9 C 9.18 g/m*3 14.9 C 3.2 km/h
197 06-04-2014 20:25:00 14.8 C 9.25 g/m*3 14.8 C 3.2 km/h
198 06-04-2014 20:30:00 14.7 C 9.32 g/m*3 14.7 C 4.8 km/h
199 06-04-2014 20:35:00 14.6 C 9.26 g/m*3 14.6 C 3.2 km/h
200 06-04-2014 20:40:00 14.6 C 9.26 g/m*3 14.6 C 3.2 km/h
Sensor: Nr:Datum:Temp:Abs-Feuchte:Windchill:Wind:
Aussen-T/F 201 06-04-2014 20:45:00 14.5 C 9.2 g/m*3 14.5 C 3.2 km/h
202 06-04-2014 20:50:00 14.4 C 9.15 g/m*3 14.4 C 1.6 km/h
203 06-04-2014 20:55:00 14.2 C 9.28 g/m*3 14.2 C 4.8 km/h
204 06-04-2014 21:00:00 14.1 C 9.1 g/m*3 14.1 C 3.2 km/h
205 06-04-2014 21:05:00 14 C 9.17 g/m*3 14 C 3.2 km/h
206 06-04-2014 21:10:00 13.8 C 9.17 g/m*3 13.8 C 4.8 km/h
207 06-04-2014 21:15:00 13.7 C 9.12 g/m*3 13.7 C 3.2 km/h
208 06-04-2014 21:20:00 13.6 C 9.18 g/m*3 13.6 C 3.2 km/h
209 06-04-2014 21:25:00 13.7 C 9.24 g/m*3 13.7 C 3.2 km/h
210 06-04-2014 21:30:00 13.7 C 9.24 g/m*3 13.7 C 3.2 km/h
211 06-04-2014 21:35:00 13.8 C 9.29 g/m*3 13.8 C 1.6 km/h
212 06-04-2014 21:40:00 13.8 C 9.41 g/m*3 13.8 C 0 km/h
213 06-04-2014 21:45:00 13.9 C 9.35 g/m*3 13.9 C 0 km/h
214 06-04-2014 21:50:00 13.9 C 9.35 g/m*3 13.9 C 0 km/h
215 06-04-2014 21:55:00 13.9 C 9.35 g/m*3 13.9 C 1.6 km/h
216 06-04-2014 22:00:00 13.9 C 9.35 g/m*3 13.9 C 1.6 km/h
217 06-04-2014 22:05:00 13.8 C 9.41 g/m*3 13.8 C 1.6 km/h
218 06-04-2014 22:10:00 13.7 C 9.24 g/m*3 13.7 C 1.6 km/h
219 06-04-2014 22:15:00 13.7 C 9.35 g/m*3 13.7 C 1.6 km/h
220 06-04-2014 22:20:00 13.7 C 9.35 g/m*3 13.7 C 3.2 km/h
221 06-04-2014 22:25:00 13.7 C 9.35 g/m*3 13.7 C 1.6 km/h
222 06-04-2014 22:30:00 13.8 C 9.29 g/m*3 13.8 C 3.2 km/h
223 06-04-2014 22:35:00 13.8 C 9.41 g/m*3 13.8 C 3.2 km/h
224 06-04-2014 22:40:00 14 C 9.41 g/m*3 14 C 3.2 km/h
225 06-04-2014 22:45:00 14.2 C 9.4 g/m*3 14.2 C 3.2 km/h
Sensor: Nr:Datum:Temp:Abs-Feuchte:Windchill:Wind:
Aussen-T/F 226 06-04-2014 22:50:00 14.2 C 9.4 g/m*3 14.2 C 4.8 km/h
227 06-04-2014 22:55:00 14.3 C 9.46 g/m*3 14.3 C 3.2 km/h
228 06-04-2014 23:00:00 14.3 C 9.34 g/m*3 14.3 C 4.8 km/h
229 06-04-2014 23:05:00 14.2 C 9.28 g/m*3 14.2 C 1.6 km/h
230 06-04-2014 23:10:00 14.1 C 9.34 g/m*3 14.1 C 1.6 km/h
231 06-04-2014 23:15:00 13.9 C 9.23 g/m*3 13.9 C 3.2 km/h
232 06-04-2014 23:20:00 13.9 C 9.35 g/m*3 13.9 C 3.2 km/h
233 06-04-2014 23:25:00 13.8 C 9.29 g/m*3 13.8 C 3.2 km/h
234 06-04-2014 23:30:00 13.7 C 9.35 g/m*3 13.7 C 1.6 km/h
235 06-04-2014 23:35:00 13.7 C 9.24 g/m*3 13.7 C 1.6 km/h
236 06-04-2014 23:40:00 13.8 C 9.17 g/m*3 13.8 C 3.2 km/h
237 06-04-2014 23:45:00 14.1 C 9.34 g/m*3 14.1 C 1.6 km/h
238 06-04-2014 23:50:00 14.2 C 9.52 g/m*3 14.2 C 1.6 km/h
239 06-04-2014 23:55:00 14.2 C 9.4 g/m*3 14.2 C 1.6 km/h
240 07-04-2014 00:00:00 14.2 C 9.28 g/m*3 14.2 C 0 km/h
241 07-04-2014 00:05:00 14.2 C 9.52 g/m*3 14.2 C 1.6 km/h
242 07-04-2014 00:10:00 14.2 C 9.52 g/m*3 14.2 C 0 km/h
243 07-04-2014 00:15:00 14.1 C 9.47 g/m*3 14.1 C 3.2 km/h
244 07-04-2014 00:20:00 14 C 9.29 g/m*3 14 C 6.4 km/h
245 07-04-2014 00:25:00 13.9 C 9.23 g/m*3 13.9 C 6.4 km/h
246 07-04-2014 00:30:00 13.9 C 9.23 g/m*3 13.9 C 3.2 km/h
247 07-04-2014 00:35:00 13.9 C 9.23 g/m*3 13.9 C 1.6 km/h
248 07-04-2014 00:40:00 13.8 C 9.29 g/m*3 13.8 C 0 km/h
249 07-04-2014 00:45:00 13.6 C 9.18 g/m*3 13.6 C 0 km/h
250 07-04-2014 00:50:00 13.4 C 9.3 g/m*3 13.4 C 0 km/h
Sensor: Nr:Datum:Temp:Abs-Feuchte:Windchill:Wind:
Aussen-T/F 251 07-04-2014 00:55:00 13.3 C 9.24 g/m*3 13.3 C 0 km/h
252 07-04-2014 01:00:00 13.3 C 9.36 g/m*3 13.3 C 0 km/h
253 07-04-2014 01:05:00 13.3 C 9.36 g/m*3 13.3 C 0 km/h
254 07-04-2014 01:10:00 13.2 C 9.3 g/m*3 13.2 C 0 km/h
255 07-04-2014 01:15:00 13.2 C 9.42 g/m*3 13.2 C 0 km/h
256 07-04-2014 01:20:00 13.2 C 9.42 g/m*3 13.2 C 0 km/h
257 07-04-2014 01:25:00 13.2 C 9.3 g/m*3 13.2 C 0 km/h
258 07-04-2014 01:30:00 13.2 C 9.3 g/m*3 13.2 C 0 km/h
259 07-04-2014 01:35:00 13.2 C 9.42 g/m*3 13.2 C 1.6 km/h
260 07-04-2014 01:40:00 13.2 C 9.42 g/m*3 13.2 C 0 km/h
261 07-04-2014 01:45:00 13.2 C 9.42 g/m*3 13.2 C 0 km/h
262 07-04-2014 01:50:00 13.2 C 9.42 g/m*3 13.2 C 1.6 km/h
263 07-04-2014 01:55:00 13.2 C 9.3 g/m*3 13.2 C 0 km/h
264 07-04-2014 02:00:00 13.2 C 9.42 g/m*3 13.2 C 0 km/h
265 07-04-2014 02:05:00 13.1 C 9.47 g/m*3 13.1 C 3.2 km/h
266 07-04-2014 02:10:00 13.1 C 9.47 g/m*3 13.1 C 3.2 km/h
267 07-04-2014 02:15:00 13.1 C 9.47 g/m*3 13.1 C 0 km/h
268 07-04-2014 02:20:00 13.1 C 9.47 g/m*3 13.1 C 0 km/h
269 07-04-2014 02:25:00 13.1 C 9.36 g/m*3 13.1 C 0 km/h
270 07-04-2014 02:30:00 13.1 C 9.47 g/m*3 13.1 C 0 km/h
271 07-04-2014 02:35:00 13 C 9.41 g/m*3 13 C 0 km/h
272 07-04-2014 02:40:00 12.9 C 9.47 g/m*3 12.9 C 0 km/h
273 07-04-2014 02:45:00 12.8 C 9.41 g/m*3 12.8 C 0 km/h
274 07-04-2014 02:50:00 12.7 C 9.46 g/m*3 12.7 C 0 km/h
275 07-04-2014 02:55:00 12.7 C 9.35 g/m*3 12.7 C 0 km/h
Sensor: Nr:Datum:Temp:Abs-Feuchte:Windchill:Wind:
Aussen-T/F 276 07-04-2014 03:00:00 12.7 C 9.35 g/m*3 12.7 C 0 km/h
277 07-04-2014 03:05:00 12.7 C 9.46 g/m*3 12.7 C 0 km/h
278 07-04-2014 03:10:00 12.7 C 9.46 g/m*3 12.7 C 0 km/h
279 07-04-2014 03:15:00 12.7 C 9.35 g/m*3 12.7 C 0 km/h
280 07-04-2014 03:20:00 12.7 C 9.35 g/m*3 12.7 C 0 km/h
281 07-04-2014 03:25:00 12.7 C 9.46 g/m*3 12.7 C 0 km/h
282 07-04-2014 03:30:00 12.7 C 9.46 g/m*3 12.7 C 0 km/h
283 07-04-2014 03:35:00 12.7 C 9.46 g/m*3 12.7 C 0 km/h
284 07-04-2014 03:40:00 12.7 C 9.46 g/m*3 12.7 C 0 km/h
285 07-04-2014 03:45:00 12.6 C 9.4 g/m*3 12.6 C 0 km/h
286 07-04-2014 03:50:00 12.6 C 9.4 g/m*3 12.6 C 0 km/h
287 07-04-2014 03:55:00 12.6 C 9.4 g/m*3 12.6 C 0 km/h
288 07-04-2014 04:00:00 12.6 C 9.4 g/m*3 12.6 C 0 km/h
289 07-04-2014 04:05:00 12.6 C 9.4 g/m*3 12.6 C 0 km/h
290 07-04-2014 04:10:00 12.6 C 9.4 g/m*3 12.6 C 1.6 km/h
291 07-04-2014 04:15:00 12.6 C 9.51 g/m*3 12.6 C 0 km/h
292 07-04-2014 04:20:00 12.6 C 9.51 g/m*3 12.6 C 0 km/h
293 07-04-2014 04:25:00 12.5 C 9.46 g/m*3 12.5 C 0 km/h
294 07-04-2014 04:30:00 12.5 C 9.46 g/m*3 12.5 C 0 km/h
295 07-04-2014 04:35:00 12.4 C 9.4 g/m*3 12.4 C 0 km/h
296 07-04-2014 04:40:00 12.4 C 9.4 g/m*3 12.4 C 0 km/h
297 07-04-2014 04:45:00 12.4 C 9.4 g/m*3 12.4 C 0 km/h
298 07-04-2014 04:50:00 12.4 C 9.4 g/m*3 12.4 C 0 km/h
299 07-04-2014 04:55:00 12.4 C 9.4 g/m*3 12.4 C 0 km/h
300 07-04-2014 05:00:00 12.4 C 9.4 g/m*3 12.4 C 1.6 km/h
Sensor: Nr:Datum:Temp:Abs-Feuchte:Windchill:Wind:
Aussen-T/F 301 07-04-2014 05:05:00 12.4 C 9.4 g/m*3 12.4 C 0 km/h
302 07-04-2014 05:10:00 12.4 C 9.4 g/m*3 12.4 C 1.6 km/h
303 07-04-2014 05:15:00 12.4 C 9.4 g/m*3 12.4 C 0 km/h
304 07-04-2014 05:20:00 12.4 C 9.4 g/m*3 12.4 C 0 km/h
305 07-04-2014 05:25:00 12.4 C 9.4 g/m*3 12.4 C 0 km/h
306 07-04-2014 05:30:00 12.4 C 9.4 g/m*3 12.4 C 0 km/h
307 07-04-2014 05:35:00 12.4 C 9.51 g/m*3 12.4 C 0 km/h
308 07-04-2014 05:40:00 12.4 C 9.51 g/m*3 12.4 C 3.2 km/h
309 07-04-2014 05:45:00 12.4 C 9.51 g/m*3 12.4 C 1.6 km/h
310 07-04-2014 05:50:00 12.4 C 9.51 g/m*3 12.4 C 1.6 km/h
311 07-04-2014 05:55:00 12.4 C 9.51 g/m*3 12.4 C 0 km/h
312 07-04-2014 06:00:00 12.4 C 9.51 g/m*3 12.4 C 0 km/h
313 07-04-2014 06:05:00 12.4 C 9.51 g/m*3 12.4 C 0 km/h
314 07-04-2014 06:10:00 12.4 C 9.51 g/m*3 12.4 C 0 km/h
315 07-04-2014 06:15:00 12.4 C 9.62 g/m*3 12.4 C 0 km/h
316 07-04-2014 06:20:00 12.4 C 9.62 g/m*3 12.4 C 1.6 km/h
317 07-04-2014 06:25:00 12.4 C 9.62 g/m*3 12.4 C 0 km/h
318 07-04-2014 06:30:00 12.4 C 9.62 g/m*3 12.4 C 0 km/h
319 07-04-2014 06:35:00 12.4 C 9.51 g/m*3 12.4 C 0 km/h
320 07-04-2014 06:40:00 12.4 C 9.51 g/m*3 12.4 C 0 km/h
321 07-04-2014 06:45:00 12.4 C 9.62 g/m*3 12.4 C 0 km/h
322 07-04-2014 06:50:00 12.3 C 9.56 g/m*3 12.3 C 0 km/h
323 07-04-2014 06:55:00 12.3 C 9.56 g/m*3 12.3 C 0 km/h
324 07-04-2014 07:00:00 12.3 C 9.56 g/m*3 12.3 C 0 km/h
325 07-04-2014 07:05:00 12.3 C 9.56 g/m*3 12.3 C 0 km/h
Sensor: Nr:Datum:Temp:Abs-Feuchte:Windchill:Wind:
Aussen-T/F 326 07-04-2014 07:10:00 12.3 C 9.56 g/m*3 12.3 C 0 km/h
327 07-04-2014 07:45:00 12.2 C 9.6 g/m*3 12.2 C 0 km/h
328 07-04-2014 07:50:00 12.2 C 9.6 g/m*3 12.2 C 0 km/h
329 07-04-2014 07:55:00 12.3 C 9.66 g/m*3 12.3 C 3.2 km/h
330 07-04-2014 08:00:00 12.4 C 9.83 g/m*3 12.4 C 0 km/h
331 07-04-2014 08:05:00 12.4 C 9.72 g/m*3 12.4 C 0 km/h
332 07-04-2014 08:10:00 12.6 C 9.85 g/m*3 12.6 C 0 km/h
333 07-04-2014 08:15:00 12.7 C 9.8 g/m*3 12.7 C 0 km/h
334 07-04-2014 08:20:00 12.8 C 9.86 g/m*3 12.8 C 1.6 km/h
335 07-04-2014 08:25:00 12.9 C 9.81 g/m*3 12.9 C 0 km/h
336 07-04-2014 08:30:00 13.1 C 9.93 g/m*3 13.1 C 0 km/h
337 07-04-2014 08:35:00 13.2 C 9.87 g/m*3 13.2 C 4.8 km/h
338 07-04-2014 08:40:00 13.3 C 9.94 g/m*3 13.3 C 1.6 km/h
339 07-04-2014 08:45:00 13.3 C 9.94 g/m*3 13.3 C 3.2 km/h
340 07-04-2014 08:50:00 13.3 C 9.82 g/m*3 13.3 C 6.4 km/h
341 07-04-2014 08:55:00 13.4 C 9.88 g/m*3 13.4 C 1.6 km/h
342 07-04-2014 09:00:00 13.4 C 10 g/m*3 13.4 C 1.6 km/h
343 07-04-2014 09:05:00 13.4 C 9.88 g/m*3 13.4 C 3.2 km/h
344 07-04-2014 09:10:00 13.5 C 9.94 g/m*3 13.5 C 4.8 km/h
345 07-04-2014 09:15:00 13.6 C 10.12 g/m*3 13.6 C 1.6 km/h
346 07-04-2014 09:20:00 13.8 C 10.25 g/m*3 13.8 C 0 km/h
347 07-04-2014 09:25:00 13.9 C 10.31 g/m*3 13.9 C 0 km/h
348 07-04-2014 09:30:00 14.1 C 10.44 g/m*3 14.1 C 0 km/h
349 07-04-2014 09:35:00 14.3 C 10.57 g/m*3 14.3 C 3.2 km/h
350 07-04-2014 09:40:00 14.7 C 10.58 g/m*3 14.7 C 4.8 km/h
Sensor: Nr:Datum:Temp:Abs-Feuchte:Windchill:Wind:
Aussen-T/F 351 07-04-2014 09:45:00 14.9 C 10.58 g/m*3 14.9 C 4.8 km/h
352 07-04-2014 09:50:00 15.1 C 10.58 g/m*3 15.1 C 8.1 km/h
353 07-04-2014 09:55:00 15.2 C 10.64 g/m*3 15.2 C 8.1 km/h
354 07-04-2014 10:00:00 15.3 C 10.58 g/m*3 15.3 C 6.4 km/h
355 07-04-2014 10:05:00 15.5 C 10.71 g/m*3 15.5 C 4.8 km/h
356 07-04-2014 10:10:00 15.7 C 10.84 g/m*3 15.7 C 9.7 km/h
357 07-04-2014 10:15:00 15.8 C 10.77 g/m*3 15.8 C 8.1 km/h
358 07-04-2014 10:20:00 15.9 C 10.83 g/m*3 15.9 C 8.1 km/h
359 07-04-2014 10:25:00 16.1 C 10.97 g/m*3 16.1 C 6.4 km/h
360 07-04-2014 10:30:00 16.2 C 11.03 g/m*3 16.2 C 8.1 km/h
361 07-04-2014 10:35:00 16.3 C 11.1 g/m*3 16.3 C 11.3 km/h
362 07-04-2014 10:40:00 16.5 C 11.23 g/m*3 16.5 C 11.3 km/h
363 07-04-2014 10:45:00 16.8 C 11.15 g/m*3 16.8 C 11.3 km/h
364 07-04-2014 10:50:00 17 C 11.29 g/m*3 17 C 14.5 km/h
365 07-04-2014 10:55:00 17.2 C 11.28 g/m*3 17.2 C 12.9 km/h
366 07-04-2014 11:00:00 17.3 C 11.34 g/m*3 17.3 C 12.9 km/h
367 07-04-2014 11:05:00 17.4 C 11.41 g/m*3 17.4 C 11.3 km/h
368 07-04-2014 11:10:00 17.7 C 11.47 g/m*3 17.7 C 9.7 km/h
369 07-04-2014 11:15:00 17.8 C 11.38 g/m*3 17.8 C 9.7 km/h
370 07-04-2014 11:20:00 17.8 C 11.38 g/m*3 17.8 C 11.3 km/h
371 07-04-2014 11:25:00 17.9 C 11.45 g/m*3 17.9 C 8.1 km/h
372 07-04-2014 11:30:00 17.9 C 11.3 g/m*3 17.9 C 9.7 km/h
373 07-04-2014 11:35:00 17.9 C 11.3 g/m*3 17.9 C 8.1 km/h
374 07-04-2014 11:40:00 17.8 C 11.38 g/m*3 17.8 C 6.4 km/h
375 07-04-2014 11:45:00 17.8 C 11.38 g/m*3 17.8 C 4.8 km/h
Sensor: Nr:Datum:Temp:Abs-Feuchte:Windchill:Wind:
Aussen-T/F 376 07-04-2014 11:50:00 18 C 11.52 g/m*3 18 C 9.7 km/h
377 07-04-2014 11:55:00 18.3 C 11.57 g/m*3 18.3 C 8.1 km/h
378 07-04-2014 12:00:00 18.4 C 11.48 g/m*3 18.4 C 11.3 km/h
379 07-04-2014 12:05:00 18.6 C 11.62 g/m*3 18.6 C 8.1 km/h
380 07-04-2014 12:10:00 18.8 C 11.6 g/m*3 18.8 C 11.3 km/h
381 07-04-2014 12:15:00 19.1 C 11.64 g/m*3 19.1 C 11.3 km/h
382 07-04-2014 12:20:00 19.3 C 11.61 g/m*3 19.3 C 11.3 km/h
383 07-04-2014 12:25:00 19.7 C 11.72 g/m*3 19.7 C 9.7 km/h
384 07-04-2014 12:30:00 19.9 C 11.51 g/m*3 19.9 C 8.1 km/h
385 07-04-2014 12:35:00 20 C 11.41 g/m*3 20 C 4.8 km/h
386 07-04-2014 12:40:00 20 C 11.23 g/m*3 20 C 6.4 km/h
387 07-04-2014 12:45:00 20.2 C 11.02 g/m*3 20.2 C 8.1 km/h
388 07-04-2014 12:50:00 20.1 C 11.13 g/m*3 20.1 C 9.7 km/h
389 07-04-2014 12:55:00 20.1 C 11.3 g/m*3 20.1 C 6.4 km/h
390 07-04-2014 13:00:00 20.3 C 11.61 g/m*3 20.3 C 6.4 km/h
391 07-04-2014 13:05:00 20.5 C 11.03 g/m*3 20.5 C 8.1 km/h
392 07-04-2014 13:10:00 20.4 C 10.97 g/m*3 20.4 C 9.7 km/h
393 07-04-2014 13:15:00 20.3 C 11.08 g/m*3 20.3 C 8.1 km/h
394 07-04-2014 13:20:00 20.3 C 11.26 g/m*3 20.3 C 6.4 km/h
395 07-04-2014 13:25:00 20.3 C 10.9 g/m*3 20.3 C 8.1 km/h
396 07-04-2014 13:30:00 20.3 C 11.26 g/m*3 20.3 C 3.2 km/h
397 07-04-2014 13:35:00 20.4 C 10.97 g/m*3 20.4 C 8.1 km/h
398 07-04-2014 13:40:00 20.6 C 11.28 g/m*3 20.6 C 1.6 km/h
399 07-04-2014 13:45:00 20.9 C 11.11 g/m*3 20.9 C 9.7 km/h
400 07-04-2014 13:50:00 21 C 11.17 g/m*3 21 C 6.4 km/h
Sensor: Nr:Datum:Temp:Abs-Feuchte:Windchill:Wind:
Aussen-T/F 401 07-04-2014 13:55:00 20.9 C 10.75 g/m*3 20.9 C 9.7 km/h
402 07-04-2014 14:00:00 20.9 C 11.11 g/m*3 20.9 C 4.8 km/h
403 07-04-2014 14:05:00 21.1 C 11.42 g/m*3 21.1 C 9.7 km/h
404 07-04-2014 14:10:00 21.3 C 11.74 g/m*3 21.3 C 4.8 km/h
405 07-04-2014 14:15:00 21.3 C 11.18 g/m*3 21.3 C 8.1 km/h
406 07-04-2014 14:20:00 21.3 C 11.74 g/m*3 21.3 C 11.3 km/h
407 07-04-2014 14:25:00 21.2 C 11.12 g/m*3 21.2 C 8.1 km/h
408 07-04-2014 14:30:00 21.1 C 11.24 g/m*3 21.1 C 8.1 km/h
409 07-04-2014 14:35:00 21.2 C 11.3 g/m*3 21.2 C 4.8 km/h
410 07-04-2014 14:40:00 21.3 C 11.37 g/m*3 21.3 C 6.4 km/h
411 07-04-2014 14:45:00 21.4 C 11.44 g/m*3 21.4 C 6.4 km/h
412 07-04-2014 14:50:00 21.2 C 11.3 g/m*3 21.2 C 11.3 km/h
413 07-04-2014 14:55:00 21.2 C 10.56 g/m*3 21.2 C 11.3 km/h
414 07-04-2014 15:00:00 21.1 C 10.87 g/m*3 21.1 C 4.8 km/h
415 07-04-2014 15:05:00 21.1 C 10.87 g/m*3 21.1 C 6.4 km/h
416 07-04-2014 15:10:00 21.2 C 10.93 g/m*3 21.2 C 3.2 km/h
417 07-04-2014 15:15:00 21.3 C 11 g/m*3 21.3 C 4.8 km/h
418 07-04-2014 15:20:00 21.6 C 11 g/m*3 21.6 C 12.9 km/h
419 07-04-2014 15:25:00 21.6 C 10.62 g/m*3 21.6 C 9.7 km/h
420 07-04-2014 15:30:00 21.6 C 10.81 g/m*3 21.6 C 8.1 km/h
421 07-04-2014 15:35:00 21.4 C 10.5 g/m*3 21.4 C 8.1 km/h
422 07-04-2014 15:40:00 21.6 C 10.81 g/m*3 21.6 C 8.1 km/h
423 07-04-2014 15:45:00 21.9 C 10.61 g/m*3 21.9 C 11.3 km/h
424 07-04-2014 15:50:00 22 C 10.29 g/m*3 22 C 4.8 km/h
425 07-04-2014 15:55:00 22.1 C 10.15 g/m*3 22.1 C 8.1 km/h
Sensor: Nr:Datum:Temp:Abs-Feuchte:Windchill:Wind:
Aussen-T/F 426 07-04-2014 16:00:00 22.1 C 10.15 g/m*3 22.1 C 6.4 km/h
427 07-04-2014 16:05:00 22.2 C 9.82 g/m*3 22.2 C 9.7 km/h
428 07-04-2014 16:10:00 22.2 C 9.82 g/m*3 22.2 C 8.1 km/h
429 07-04-2014 18:00:00 23.5 C 21.15 g/m*3 23.5 C 9.7 km/h
430 07-04-2014 18:05:00 23.5 C 21.15 g/m*3 23.5 C 8.1 km/h
431 07-04-2014 18:10:00 23.3 C 20.91 g/m*3 23.3 C 6.4 km/h
432 07-04-2014 18:15:00 23.3 C 20.91 g/m*3 23.3 C 3.2 km/h
433 07-04-2014 18:20:00 23.3 C 10.04 g/m*3 23.3 C 8.1 km/h
434 07-04-2014 18:25:00 23.3 C 10.04 g/m*3 23.3 C 4.8 km/h
435 07-04-2014 19:40:00 18.2 C 10.26 g/m*3 18.2 C 3.2 km/h
436 07-04-2014 19:45:00 18 C 9.98 g/m*3 18 C 4.8 km/h
437 07-04-2014 19:50:00 17.8 C 10.17 g/m*3 17.8 C 4.8 km/h
438 07-04-2014 19:55:00 17.6 C 9.75 g/m*3 17.6 C 4.8 km/h
439 07-04-2014 20:00:00 17.4 C 9.63 g/m*3 17.4 C 3.2 km/h
440 07-04-2014 20:05:00 17.3 C 9.43 g/m*3 17.3 C 3.2 km/h
441 07-04-2014 20:10:00 17.1 C 9.46 g/m*3 17.1 C 4.8 km/h
442 07-04-2014 20:15:00 16.9 C 9.35 g/m*3 16.9 C 3.2 km/h
443 07-04-2014 20:20:00 16.8 C 9.29 g/m*3 16.8 C 6.4 km/h
444 07-04-2014 20:25:00 16.7 C 9.24 g/m*3 16.7 C 4.8 km/h
445 07-04-2014 20:30:00 16.7 C 9.38 g/m*3 16.7 C 4.8 km/h
446 07-04-2014 20:35:00 16.6 C 9.18 g/m*3 16.6 C 4.8 km/h
447 07-04-2014 20:40:00 16.6 C 9.32 g/m*3 16.6 C 4.8 km/h
448 07-04-2014 20:45:00 16.6 C 9.32 g/m*3 16.6 C 4.8 km/h
449 07-04-2014 21:05:00 16.4 C 13.96 g/m*3 16.4 C 4.8 km/h
450 07-04-2014 21:10:00 16.3 C 9.16 g/m*3 16.3 C 3.2 km/h
Sensor: Nr:Datum:Temp:Abs-Feuchte:Windchill:Wind:
Aussen-T/F 451 07-04-2014 21:15:00 16.3 C 9.3 g/m*3 16.3 C 4.8 km/h
452 07-04-2014 21:20:00 16.3 C 9.3 g/m*3 16.3 C 3.2 km/h
453 07-04-2014 21:25:00 16.2 C 9.24 g/m*3 16.2 C 4.8 km/h
454 07-04-2014 21:30:00 16.2 C 9.1 g/m*3 16.2 C 6.4 km/h
455 07-04-2014 21:35:00 16.2 C 9.24 g/m*3 16.2 C 3.2 km/h
456 07-04-2014 21:40:00 16.1 C 9.18 g/m*3 16.1 C 4.8 km/h
457 07-04-2014 21:45:00 16.1 C 9.05 g/m*3 16.1 C 1.6 km/h
458 07-04-2014 21:50:00 16.1 C 9.18 g/m*3 16.1 C 3.2 km/h
459 07-04-2014 21:55:00 16.1 C 9.18 g/m*3 16.1 C 4.8 km/h
460 07-04-2014 22:00:00 16.1 C 9.05 g/m*3 16.1 C 3.2 km/h
461 07-04-2014 22:05:00 16.1 C 9.05 g/m*3 16.1 C 4.8 km/h
462 07-04-2014 22:10:00 16 C 9.13 g/m*3 16 C 3.2 km/h
463 07-04-2014 22:15:00 16 C 8.99 g/m*3 16 C 1.6 km/h
464 07-04-2014 22:20:00 16 C 8.86 g/m*3 16 C 3.2 km/h
465 07-04-2014 22:25:00 15.9 C 9.07 g/m*3 15.9 C 4.8 km/h
466 07-04-2014 22:30:00 16.1 C 9.18 g/m*3 16.1 C 4.8 km/h
467 07-04-2014 22:35:00 16 C 9.13 g/m*3 16 C 4.8 km/h
468 07-04-2014 22:40:00 16.1 C 9.32 g/m*3 16.1 C 3.2 km/h
469 07-04-2014 22:45:00 16.1 C 9.18 g/m*3 16.1 C 1.6 km/h
470 07-04-2014 22:50:00 16 C 9.26 g/m*3 16 C 3.2 km/h
471 07-04-2014 22:55:00 16 C 9.26 g/m*3 16 C 0 km/h
472 07-04-2014 23:00:00 16.1 C 9.18 g/m*3 16.1 C 3.2 km/h
473 07-04-2014 23:05:00 16.1 C 9.18 g/m*3 16.1 C 1.6 km/h
474 07-04-2014 23:10:00 16.1 C 9.18 g/m*3 16.1 C 3.2 km/h
475 07-04-2014 23:15:00 16.3 C 9.02 g/m*3 16.3 C 4.8 km/h
Sensor: Nr:Datum:Temp:Abs-Feuchte:Windchill:Wind:
Aussen-T/F 476 07-04-2014 23:20:00 16.3 C 9.3 g/m*3 16.3 C 8.1 km/h
477 07-04-2014 23:25:00 16.3 C 9.3 g/m*3 16.3 C 3.2 km/h
478 07-04-2014 23:30:00 16.2 C 9.38 g/m*3 16.2 C 3.2 km/h
479 07-04-2014 23:35:00 16.2 C 9.38 g/m*3 16.2 C 1.6 km/h
480 07-04-2014 23:40:00 16.1 C 9.32 g/m*3 16.1 C 3.2 km/h
481 07-04-2014 23:45:00 16.1 C 9.18 g/m*3 16.1 C 1.6 km/h
482 07-04-2014 23:50:00 15.9 C 9.34 g/m*3 15.9 C 3.2 km/h
483 07-04-2014 23:55:00 15.8 C 9.15 g/m*3 15.8 C 4.8 km/h
484 08-04-2014 00:00:00 15.7 C 9.23 g/m*3 15.7 C 3.2 km/h
485 08-04-2014 00:05:00 15.7 C 9.23 g/m*3 15.7 C 3.2 km/h
486 08-04-2014 00:10:00 15.7 C 9.37 g/m*3 15.7 C 4.8 km/h
487 08-04-2014 00:15:00 15.6 C 9.31 g/m*3 15.6 C 4.8 km/h
488 08-04-2014 00:20:00 15.6 C 9.31 g/m*3 15.6 C 4.8 km/h
489 08-04-2014 00:25:00 15.4 C 9.33 g/m*3 15.4 C 4.8 km/h
490 08-04-2014 00:30:00 15.3 C 9.4 g/m*3 15.3 C 1.6 km/h
491 08-04-2014 00:35:00 15.3 C 9.27 g/m*3 15.3 C 3.2 km/h
492 08-04-2014 00:40:00 15.3 C 9.4 g/m*3 15.3 C 3.2 km/h
493 08-04-2014 00:45:00 15.3 C 9.4 g/m*3 15.3 C 4.8 km/h
494 08-04-2014 00:50:00 15.4 C 9.59 g/m*3 15.4 C 3.2 km/h
495 08-04-2014 00:55:00 15.5 C 9.65 g/m*3 15.5 C 3.2 km/h
496 08-04-2014 01:00:00 15.6 C 9.71 g/m*3 15.6 C 1.6 km/h
497 08-04-2014 01:05:00 15.6 C 9.71 g/m*3 15.6 C 3.2 km/h
498 08-04-2014 01:10:00 15.6 C 9.97 g/m*3 15.6 C 1.6 km/h
499 08-04-2014 01:15:00 15.6 C 9.84 g/m*3 15.6 C 3.2 km/h
500 08-04-2014 01:20:00 15.6 C 9.84 g/m*3 15.6 C 1.6 km/h
Sensor: Nr:Datum:Temp:Abs-Feuchte:Windchill:Wind:
Aussen-T/F 501 08-04-2014 01:25:00 15.6 C 9.97 g/m*3 15.6 C 0 km/h
502 08-04-2014 01:30:00 15.6 C 9.97 g/m*3 15.6 C 4.8 km/h
503 08-04-2014 01:35:00 15.6 C 9.84 g/m*3 15.6 C 3.2 km/h
504 08-04-2014 01:40:00 15.6 C 9.97 g/m*3 15.6 C 0 km/h
505 08-04-2014 01:45:00 15.6 C 9.97 g/m*3 15.6 C 1.6 km/h
506 08-04-2014 01:50:00 15.5 C 9.78 g/m*3 15.5 C 0 km/h
507 08-04-2014 01:55:00 15.6 C 9.84 g/m*3 15.6 C 1.6 km/h
508 08-04-2014 02:00:00 15.7 C 10.03 g/m*3 15.7 C 3.2 km/h
509 08-04-2014 02:05:00 15.6 C 9.84 g/m*3 15.6 C 1.6 km/h
510 08-04-2014 02:10:00 15.5 C 9.91 g/m*3 15.5 C 1.6 km/h
511 08-04-2014 02:15:00 15.4 C 9.99 g/m*3 15.4 C 1.6 km/h
512 08-04-2014 02:20:00 15.4 C 9.72 g/m*3 15.4 C 8.1 km/h
513 08-04-2014 02:25:00 15.7 C 9.63 g/m*3 15.7 C 8.1 km/h
514 08-04-2014 02:30:00 16 C 10.08 g/m*3 16 C 4.8 km/h
515 08-04-2014 02:35:00 16.6 C 9.75 g/m*3 16.6 C 12.9 km/h
516 08-04-2014 02:40:00 16.8 C 9.72 g/m*3 16.8 C 3.2 km/h
517 08-04-2014 02:45:00 16.7 C 9.66 g/m*3 16.7 C 3.2 km/h
518 08-04-2014 02:50:00 16.6 C 9.75 g/m*3 16.6 C 3.2 km/h
519 08-04-2014 02:55:00 16.3 C 9.99 g/m*3 16.3 C 4.8 km/h
520 08-04-2014 03:00:00 16.2 C 9.52 g/m*3 16.2 C 8.1 km/h
521 08-04-2014 03:05:00 16.2 C 9.52 g/m*3 16.2 C 4.8 km/h
522 08-04-2014 03:10:00 16.1 C 9.87 g/m*3 16.1 C 3.2 km/h
523 08-04-2014 03:15:00 15.7 C 9.9 g/m*3 15.7 C 3.2 km/h
524 08-04-2014 03:20:00 15.5 C 9.91 g/m*3 15.5 C 0 km/h
525 08-04-2014 03:25:00 15.1 C 9.68 g/m*3 15.1 C 4.8 km/h
Sensor: Nr:Datum:Temp:Abs-Feuchte:Windchill:Wind:
Aussen-T/F 526 08-04-2014 03:30:00 14.8 C 9.75 g/m*3 14.8 C 4.8 km/h
527 08-04-2014 03:35:00 14.7 C 9.69 g/m*3 14.7 C 4.8 km/h
528 08-04-2014 03:40:00 14.6 C 9.76 g/m*3 14.6 C 3.2 km/h
529 08-04-2014 03:45:00 14.6 C 9.76 g/m*3 14.6 C 0 km/h
530 08-04-2014 03:50:00 14.6 C 9.76 g/m*3 14.6 C 0 km/h
531 08-04-2014 03:55:00 14.4 C 9.77 g/m*3 14.4 C 0 km/h
532 08-04-2014 04:00:00 14.3 C 9.71 g/m*3 14.3 C 1.6 km/h
533 08-04-2014 04:05:00 14.2 C 9.77 g/m*3 14.2 C 1.6 km/h
534 08-04-2014 04:10:00 14.1 C 9.59 g/m*3 14.1 C 0 km/h
535 08-04-2014 04:15:00 14.2 C 9.89 g/m*3 14.2 C 0 km/h
536 08-04-2014 04:20:00 14.2 C 9.77 g/m*3 14.2 C 1.6 km/h
537 08-04-2014 04:25:00 14.2 C 9.77 g/m*3 14.2 C 0 km/h
538 08-04-2014 04:30:00 14.2 C 9.77 g/m*3 14.2 C 0 km/h
539 08-04-2014 04:35:00 14.4 C 9.64 g/m*3 14.4 C 6.4 km/h
540 08-04-2014 04:40:00 14.7 C 9.57 g/m*3 14.7 C 6.4 km/h
541 08-04-2014 04:45:00 15.4 C 9.59 g/m*3 15.4 C 12.9 km/h
542 08-04-2014 04:50:00 15.9 C 9.34 g/m*3 15.9 C 14.5 km/h
543 08-04-2014 04:55:00 16.2 C 9.38 g/m*3 16.2 C 11.3 km/h
544 08-04-2014 05:00:00 16.2 C 9.38 g/m*3 16.2 C 16.1 km/h
545 08-04-2014 05:05:00 16.1 C 9.32 g/m*3 16.1 C 3.2 km/h
546 08-04-2014 05:10:00 15.9 C 9.48 g/m*3 15.9 C 6.4 km/h
547 08-04-2014 05:15:00 15.8 C 9.29 g/m*3 15.8 C 6.4 km/h
548 08-04-2014 05:20:00 15.5 C 9.39 g/m*3 15.5 C 3.2 km/h
549 08-04-2014 05:25:00 15.1 C 9.16 g/m*3 15.1 C 11.3 km/h
550 08-04-2014 05:30:00 15.1 C 9.03 g/m*3 15.1 C 9.7 km/h
Sensor: Nr:Datum:Temp:Abs-Feuchte:Windchill:Wind:
Aussen-T/F 551 08-04-2014 05:35:00 15.3 C 9.14 g/m*3 15.3 C 12.9 km/h
552 08-04-2014 05:40:00 15.2 C 9.09 g/m*3 15.2 C 8.1 km/h
553 08-04-2014 05:45:00 15.2 C 9.09 g/m*3 15.2 C 16.1 km/h
554 08-04-2014 05:50:00 15.3 C 9.01 g/m*3 15.3 C 11.3 km/h
555 08-04-2014 05:55:00 15.3 C 9.66 g/m*3 15.3 C 16.1 km/h
556 08-04-2014 06:00:00 14.6 C 9.76 g/m*3 14.6 C 11.3 km/h
557 08-04-2014 06:05:00 13.9 C 9.83 g/m*3 13.9 C 6.4 km/h
558 08-04-2014 06:10:00 13.6 C 9.77 g/m*3 13.6 C 9.7 km/h
559 08-04-2014 06:15:00 13.3 C 9.7 g/m*3 13.3 C 8.1 km/h
560 08-04-2014 06:20:00 13.2 C 9.76 g/m*3 13.2 C 9.7 km/h
561 08-04-2014 06:25:00 13 C 9.64 g/m*3 13 C 6.4 km/h
562 08-04-2014 06:30:00 12.9 C 9.58 g/m*3 12.9 C 14.5 km/h
563 08-04-2014 06:35:00 12.8 C 9.52 g/m*3 12.8 C 12.9 km/h
564 08-04-2014 06:40:00 12.8 C 9.52 g/m*3 12.8 C 9.7 km/h
565 08-04-2014 06:45:00 12.7 C 9.35 g/m*3 12.7 C 6.4 km/h
566 08-04-2014 06:50:00 12.7 C 9.13 g/m*3 12.7 C 8.1 km/h
567 08-04-2014 06:55:00 12.6 C 8.85 g/m*3 12.6 C 14.5 km/h
568 08-04-2014 07:00:00 12.4 C 8.52 g/m*3 12.4 C 17.7 km/h
569 08-04-2014 07:05:00 12.2 C 8.42 g/m*3 12.2 C 19.3 km/h
570 08-04-2014 07:10:00 12.2 C 8.2 g/m*3 12.2 C 14.5 km/h
571 08-04-2014 07:15:00 11.8 C 7.89 g/m*3 11.8 C 22.5 km/h
572 08-04-2014 07:20:00 11.7 C 7.84 g/m*3 11.7 C 24.1 km/h
573 08-04-2014 07:25:00 11.6 C 7.69 g/m*3 11.6 C 25.7 km/h
574 08-04-2014 07:30:00 11.4 C 7.6 g/m*3 11.4 C 25.7 km/h
575 08-04-2014 07:35:00 11.3 C 7.55 g/m*3 11.3 C 14.5 km/h
Sensor: Nr:Datum:Temp:Abs-Feuchte:Windchill:Wind:
Aussen-T/F 576 08-04-2014 07:40:00 11.2 C 7.5 g/m*3 11.2 C 19.3 km/h
577 08-04-2014 07:45:00 11 C 7.31 g/m*3 9.63 C 11.3 km/h
578 08-04-2014 07:50:00 10.8 C 7.22 g/m*3 8.96 C 14.5 km/h
579 08-04-2014 07:55:00 10.7 C 7.07 g/m*3 8.18 C 20.9 km/h
580 08-04-2014 08:00:00 10.7 C 6.88 g/m*3 9.04 C 12.9 km/h
581 08-04-2014 08:05:00 10.7 C 6.88 g/m*3 8.18 C 20.9 km/h
582 08-04-2014 08:10:00 10.8 C 6.92 g/m*3 8.45 C 19.3 km/h
583 08-04-2014 08:15:00 10.9 C 6.86 g/m*3 8.9 C 16.1 km/h
584 08-04-2014 08:20:00 10.9 C 6.96 g/m*3 9.08 C 14.5 km/h
585 08-04-2014 08:25:00 10.9 C 6.96 g/m*3 9.51 C 11.3 km/h
586 08-04-2014 08:30:00 11.1 C 6.95 g/m*3 11.1 C 17.7 km/h
587 08-04-2014 08:35:00 11.1 C 6.65 g/m*3 11.1 C 11.3 km/h
588 08-04-2014 08:40:00 11.2 C 6.49 g/m*3 11.2 C 19.3 km/h
589 08-04-2014 08:45:00 11.2 C 6.59 g/m*3 11.2 C 19.3 km/h
590 08-04-2014 08:50:00 11.2 C 6.69 g/m*3 11.2 C 11.3 km/h
591 08-04-2014 08:55:00 11.2 C 6.59 g/m*3 11.2 C 20.9 km/h
592 08-04-2014 09:00:00 11.2 C 6.49 g/m*3 11.2 C 19.3 km/h
593 08-04-2014 09:05:00 11.2 C 6.49 g/m*3 11.2 C 16.1 km/h
594 08-04-2014 09:10:00 11.1 C 6.55 g/m*3 11.1 C 16.1 km/h
595 08-04-2014 09:15:00 11.1 C 6.75 g/m*3 11.1 C 11.3 km/h
596 08-04-2014 09:20:00 11 C 6.91 g/m*3 9.4 C 12.9 km/h
597 08-04-2014 09:25:00 10.8 C 6.72 g/m*3 9.38 C 11.3 km/h
598 08-04-2014 09:30:00 10.8 C 6.52 g/m*3 8.04 C 24.1 km/h
599 08-04-2014 09:35:00 10.9 C 6.27 g/m*3 8.58 C 19.3 km/h
600 08-04-2014 09:40:00 11.1 C 6.14 g/m*3 11.1 C 19.3 km/h
Sensor: Nr:Datum:Temp:Abs-Feuchte:Windchill:Wind:
Aussen-T/F 601 08-04-2014 09:45:00 11.2 C 6.18 g/m*3 11.2 C 16.1 km/h
602 08-04-2014 09:50:00 11.2 C 6.39 g/m*3 11.2 C 14.5 km/h
603 08-04-2014 09:55:00 11.3 C 6.32 g/m*3 11.3 C 14.5 km/h
604 08-04-2014 10:00:00 11.3 C 6.53 g/m*3 11.3 C 16.1 km/h
605 08-04-2014 10:05:00 11.4 C 6.57 g/m*3 11.4 C 14.5 km/h
606 08-04-2014 10:10:00 11.6 C 6.55 g/m*3 11.6 C 14.5 km/h
607 08-04-2014 10:15:00 11.7 C 6.48 g/m*3 11.7 C 16.1 km/h
608 08-04-2014 10:20:00 11.7 C 6.38 g/m*3 11.7 C 14.5 km/h
609 08-04-2014 10:25:00 11.7 C 6.38 g/m*3 11.7 C 14.5 km/h
610 08-04-2014 10:30:00 11.8 C 6.53 g/m*3 11.8 C 12.9 km/h
611 08-04-2014 10:35:00 11.9 C 6.67 g/m*3 11.9 C 16.1 km/h
612 08-04-2014 10:40:00 11.8 C 6.42 g/m*3 11.8 C 16.1 km/h
613 08-04-2014 10:45:00 11.8 C 6.63 g/m*3 11.8 C 16.1 km/h
614 08-04-2014 10:50:00 11.9 C 6.67 g/m*3 11.9 C 16.1 km/h
615 08-04-2014 10:55:00 12.1 C 6.76 g/m*3 12.1 C 22.5 km/h
616 08-04-2014 11:00:00 12.2 C 6.69 g/m*3 12.2 C 20.9 km/h
617 08-04-2014 11:05:00 12.3 C 6.95 g/m*3 12.3 C 16.1 km/h
618 08-04-2014 11:10:00 12.2 C 6.47 g/m*3 12.2 C 16.1 km/h
619 08-04-2014 11:15:00 12.2 C 6.69 g/m*3 12.2 C 14.5 km/h
620 08-04-2014 11:20:00 12.2 C 6.47 g/m*3 12.2 C 20.9 km/h
621 08-04-2014 11:25:00 12.3 C 6.62 g/m*3 12.3 C 11.3 km/h
622 08-04-2014 11:30:00 12.3 C 6.62 g/m*3 12.3 C 17.7 km/h
623 08-04-2014 11:35:00 12.3 C 6.52 g/m*3 12.3 C 11.3 km/h
624 08-04-2014 11:40:00 12.3 C 6.52 g/m*3 12.3 C 12.9 km/h
625 08-04-2014 11:45:00 12.3 C 6.52 g/m*3 12.3 C 8.1 km/h
Sensor: Nr:Datum:Temp:Abs-Feuchte:Windchill:Wind:
Aussen-T/F 626 08-04-2014 11:50:00 12.3 C 6.41 g/m*3 12.3 C 16.1 km/h
627 08-04-2014 11:55:00 12.5 C 6.6 g/m*3 12.5 C 17.7 km/h
628 08-04-2014 12:00:00 12.7 C 6.68 g/m*3 12.7 C 17.7 km/h
629 08-04-2014 12:05:00 13 C 6.69 g/m*3 13 C 16.1 km/h
630 08-04-2014 12:10:00 13.1 C 6.5 g/m*3 13.1 C 17.7 km/h
631 08-04-2014 12:15:00 12.7 C 6.23 g/m*3 12.7 C 22.5 km/h
632 08-04-2014 12:20:00 12.4 C 6.56 g/m*3 12.4 C 16.1 km/h
633 08-04-2014 12:25:00 12.5 C 6.71 g/m*3 12.5 C 16.1 km/h
634 08-04-2014 12:30:00 13 C 6.69 g/m*3 13 C 14.5 km/h
635 08-04-2014 12:35:00 13.2 C 6.66 g/m*3 13.2 C 12.9 km/h
636 08-04-2014 12:40:00 13.3 C 6.7 g/m*3 13.3 C 27.4 km/h
637 08-04-2014 12:45:00 12.4 C 6.34 g/m*3 12.4 C 27.4 km/h
638 08-04-2014 12:50:00 11.7 C 6.28 g/m*3 11.7 C 24.1 km/h
639 08-04-2014 12:55:00 11.7 C 6.38 g/m*3 11.7 C 20.9 km/h
640 08-04-2014 13:00:00 12.1 C 6.54 g/m*3 12.1 C 17.7 km/h
641 08-04-2014 13:05:00 12.4 C 6.66 g/m*3 12.4 C 19.3 km/h
642 08-04-2014 13:10:00 12.4 C 6.12 g/m*3 12.4 C 20.9 km/h
643 08-04-2014 13:15:00 12.4 C 6.23 g/m*3 12.4 C 16.1 km/h
644 08-04-2014 13:20:00 12.6 C 6.2 g/m*3 12.6 C 20.9 km/h
645 08-04-2014 13:25:00 12.6 C 5.97 g/m*3 12.6 C 17.7 km/h
646 08-04-2014 13:30:00 12.7 C 6.35 g/m*3 12.7 C 12.9 km/h
647 08-04-2014 13:35:00 12.7 C 6.01 g/m*3 12.7 C 22.5 km/h
648 08-04-2014 13:40:00 12.7 C 6.23 g/m*3 12.7 C 12.9 km/h
649 08-04-2014 13:45:00 13 C 6.24 g/m*3 13 C 17.7 km/h
650 08-04-2014 13:50:00 13.1 C 6.39 g/m*3 13.1 C 17.7 km/h
Sensor: Nr:Datum:Temp:Abs-Feuchte:Windchill:Wind:
Aussen-T/F 651 08-04-2014 13:55:00 13 C 6.24 g/m*3 13 C 12.9 km/h
652 08-04-2014 14:00:00 12.9 C 6.09 g/m*3 12.9 C 17.7 km/h
653 08-04-2014 14:05:00 12.5 C 5.94 g/m*3 12.5 C 27.4 km/h
654 08-04-2014 14:10:00 11.8 C 5.89 g/m*3 11.8 C 19.3 km/h
655 08-04-2014 14:15:00 11.4 C 5.95 g/m*3 11.4 C 25.7 km/h
656 08-04-2014 14:20:00 11.4 C 5.95 g/m*3 11.4 C 24.1 km/h
657 08-04-2014 14:25:00 11.7 C 6.07 g/m*3 11.7 C 24.1 km/h
658 08-04-2014 14:30:00 12 C 6.07 g/m*3 12 C 16.1 km/h
659 08-04-2014 14:35:00 12.3 C 6.08 g/m*3 12.3 C 19.3 km/h
660 08-04-2014 14:40:00 12.7 C 6.12 g/m*3 12.7 C 17.7 km/h
661 08-04-2014 14:45:00 12.6 C 6.2 g/m*3 12.6 C 16.1 km/h
662 08-04-2014 14:50:00 12.4 C 6.23 g/m*3 12.4 C 20.9 km/h
663 08-04-2014 14:55:00 12.2 C 6.26 g/m*3 12.2 C 16.1 km/h
664 08-04-2014 15:00:00 12.3 C 6.3 g/m*3 12.3 C 20.9 km/h
665 08-04-2014 15:05:00 12.4 C 6.34 g/m*3 12.4 C 17.7 km/h
666 08-04-2014 15:10:00 12.6 C 6.2 g/m*3 12.6 C 20.9 km/h
667 08-04-2014 15:15:00 12.8 C 6.27 g/m*3 12.8 C 14.5 km/h
668 08-04-2014 15:20:00 13.3 C 5.89 g/m*3 13.3 C 24.1 km/h
669 08-04-2014 15:25:00 13.2 C 5.51 g/m*3 13.2 C 22.5 km/h
670 08-04-2014 15:30:00 13 C 5.33 g/m*3 13 C 24.1 km/h
671 08-04-2014 15:35:00 12.8 C 5.15 g/m*3 12.8 C 20.9 km/h
672 08-04-2014 15:40:00 12.5 C 5.17 g/m*3 12.5 C 20.9 km/h
673 08-04-2014 15:45:00 12.3 C 5.21 g/m*3 12.3 C 17.7 km/h
674 08-04-2014 15:50:00 12.2 C 5.29 g/m*3 12.2 C 16.1 km/h
675 08-04-2014 15:55:00 12.2 C 5.5 g/m*3 12.2 C 17.7 km/h
Sensor: Nr:Datum:Temp:Abs-Feuchte:Windchill:Wind:
Aussen-T/F 676 08-04-2014 16:00:00 12.3 C 5.65 g/m*3 12.3 C 20.9 km/h
677 08-04-2014 16:05:00 12.7 C 5.79 g/m*3 12.7 C 17.7 km/h
678 08-04-2014 16:10:00 13.1 C 5.71 g/m*3 13.1 C 19.3 km/h
679 08-04-2014 16:15:00 12.9 C 5.64 g/m*3 12.9 C 17.7 km/h
680 08-04-2014 16:20:00 12.7 C 5.45 g/m*3 12.7 C 14.5 km/h
681 08-04-2014 16:25:00 12.6 C 5.42 g/m*3 12.6 C 20.9 km/h
682 08-04-2014 16:30:00 12.6 C 5.53 g/m*3 12.6 C 16.1 km/h
683 08-04-2014 16:35:00 12.5 C 5.17 g/m*3 12.5 C 20.9 km/h
684 08-04-2014 16:40:00 12.4 C 5.24 g/m*3 12.4 C 17.7 km/h
685 08-04-2014 16:45:00 12.4 C 5.14 g/m*3 12.4 C 30.6 km/h
686 08-04-2014 16:50:00 12.4 C 5.24 g/m*3 12.4 C 20.9 km/h
687 08-04-2014 16:55:00 12.6 C 5.2 g/m*3 12.6 C 20.9 km/h
688 08-04-2014 17:00:00 12.6 C 5.42 g/m*3 12.6 C 19.3 km/h
689 08-04-2014 17:05:00 12.4 C 5.35 g/m*3 12.4 C 16.1 km/h
690 08-04-2014 17:10:00 12.2 C 5.29 g/m*3 12.2 C 24.1 km/h
691 08-04-2014 17:15:00 11.7 C 5.86 g/m*3 11.7 C 22.5 km/h
692 08-04-2014 17:20:00 10.8 C 5.93 g/m*3 7.92 C 25.7 km/h
693 08-04-2014 17:25:00 10.1 C 6.15 g/m*3 7.28 C 22.5 km/h
694 08-04-2014 17:30:00 9.7 C 6.27 g/m*3 7.23 C 17.7 km/h
695 08-04-2014 17:35:00 9.5 C 6.28 g/m*3 8.09 C 9.7 km/h
696 08-04-2014 17:40:00 9.5 C 6.55 g/m*3 7.82 C 11.3 km/h
697 08-04-2014 17:45:00 9.8 C 6.49 g/m*3 8.18 C 11.3 km/h
698 08-04-2014 17:50:00 9.8 C 6.49 g/m*3 8.75 C 8.1 km/h
699 08-04-2014 17:55:00 10.1 C 6.43 g/m*3 8.31 C 12.9 km/h
700 08-04-2014 18:00:00 10.1 C 6.43 g/m*3 8.54 C 11.3 km/h
Sensor: Nr:Datum:Temp:Abs-Feuchte:Windchill:Wind:
Aussen-T/F 701 08-04-2014 18:05:00 10.3 C 6.61 g/m*3 8.78 C 11.3 km/h
702 08-04-2014 18:10:00 10.3 C 6.61 g/m*3 8.55 C 12.9 km/h
703 08-04-2014 18:15:00 10.4 C 6.26 g/m*3 9.16 C 9.7 km/h
704 08-04-2014 18:20:00 10.5 C 6.11 g/m*3 8.59 C 14.5 km/h
705 08-04-2014 18:25:00 10.8 C 6.13 g/m*3 9.93 C 8.1 km/h
706 08-04-2014 18:30:00 11 C 6.21 g/m*3 9.88 C 9.7 km/h
707 08-04-2014 18:35:00 11 C 6.11 g/m*3 9.4 C 12.9 km/h
708 08-04-2014 18:40:00 10.9 C 5.97 g/m*3 9.51 C 11.3 km/h
709 08-04-2014 18:45:00 10.9 C 5.97 g/m*3 9.51 C 11.3 km/h
710 08-04-2014 18:50:00 10.8 C 6.03 g/m*3 9.16 C 12.9 km/h
711 08-04-2014 18:55:00 10.9 C 5.97 g/m*3 9.76 C 9.7 km/h
712 08-04-2014 19:00:00 10.8 C 6.03 g/m*3 9.38 C 11.3 km/h
713 08-04-2014 19:05:00 10.8 C 6.03 g/m*3 8.96 C 14.5 km/h
714 08-04-2014 19:10:00 10.7 C 5.99 g/m*3 8.84 C 14.5 km/h
715 08-04-2014 19:15:00 10.7 C 5.99 g/m*3 8.48 C 17.7 km/h
716 08-04-2014 19:20:00 10.7 C 6.09 g/m*3 8.84 C 14.5 km/h
717 08-04-2014 19:25:00 10.4 C 6.17 g/m*3 7.16 C 29 km/h
718 08-04-2014 19:30:00 10.1 C 6.24 g/m*3 8.31 C 12.9 km/h
719 08-04-2014 19:35:00 9.9 C 6.26 g/m*3 8.06 C 12.9 km/h
720 08-04-2014 19:40:00 9.8 C 6.31 g/m*3 7.36 C 17.7 km/h
721 08-04-2014 19:45:00 9.8 C 6.22 g/m*3 7.19 C 19.3 km/h
722 08-04-2014 19:50:00 9.8 C 6.22 g/m*3 7.73 C 14.5 km/h
723 08-04-2014 19:55:00 9.7 C 6.27 g/m*3 7.41 C 16.1 km/h
724 08-04-2014 20:00:00 9.5 C 6.28 g/m*3 7.36 C 14.5 km/h
725 08-04-2014 20:05:00 9.4 C 6.24 g/m*3 7.04 C 16.1 km/h
Sensor: Nr:Datum:Temp:Abs-Feuchte:Windchill:Wind:
Aussen-T/F 726 08-04-2014 20:10:00 9.3 C 6.29 g/m*3 7.85 C 9.7 km/h
727 08-04-2014 20:15:00 9.2 C 6.25 g/m*3 7.46 C 11.3 km/h
728 08-04-2014 20:20:00 9.2 C 6.25 g/m*3 7.73 C 9.7 km/h
729 08-04-2014 20:25:00 9.2 C 6.25 g/m*3 8.05 C 8.1 km/h
730 08-04-2014 20:30:00 9.2 C 6.25 g/m*3 9.2 C 4.8 km/h
731 08-04-2014 20:35:00 9.2 C 6.34 g/m*3 7.46 C 11.3 km/h
732 08-04-2014 20:40:00 9.2 C 6.34 g/m*3 8.05 C 8.1 km/h
733 08-04-2014 21:00:00 8.9 C 6.39 g/m*3 7.37 C 9.7 km/h
734 08-04-2014 21:05:00 8.9 C 6.39 g/m*3 8.9 C 4.8 km/h
735 08-04-2014 21:10:00 8.8 C 6.44 g/m*3 8.8 C 3.2 km/h
736 08-04-2014 21:15:00 8.8 C 6.53 g/m*3 8.8 C 3.2 km/h
737 08-04-2014 21:20:00 8.7 C 6.49 g/m*3 8.7 C 3.2 km/h
738 08-04-2014 21:25:00 8.7 C 6.4 g/m*3 7.46 C 8.1 km/h
739 08-04-2014 21:30:00 8.8 C 6.44 g/m*3 7.98 C 6.4 km/h
740 08-04-2014 21:35:00 8.8 C 6.61 g/m*3 8.8 C 3.2 km/h
741 08-04-2014 21:40:00 8.7 C 6.4 g/m*3 8.7 C 4.8 km/h
742 08-04-2014 21:45:00 8.7 C 6.49 g/m*3 7.46 C 8.1 km/h
743 08-04-2014 21:50:00 8.7 C 6.49 g/m*3 8.7 C 3.2 km/h
744 08-04-2014 21:55:00 8.5 C 6.4 g/m*3 8.5 C 4.8 km/h
745 08-04-2014 22:00:00 8.4 C 6.36 g/m*3 8.4 C 3.2 km/h
746 08-04-2014 22:05:00 8.4 C 6.45 g/m*3 8.4 C 3.2 km/h
747 08-04-2014 22:10:00 8.3 C 6.41 g/m*3 8.3 C 3.2 km/h
748 08-04-2014 22:15:00 8.2 C 6.45 g/m*3 8.2 C 3.2 km/h
749 08-04-2014 22:20:00 8.2 C 6.45 g/m*3 8.2 C 3.2 km/h
750 08-04-2014 22:25:00 8.1 C 6.41 g/m*3 8.1 C 1.6 km/h
Sensor: Nr:Datum:Temp:Abs-Feuchte:Windchill:Wind:
Aussen-T/F 751 08-04-2014 22:30:00 8.1 C 6.41 g/m*3 8.1 C 3.2 km/h
752 08-04-2014 22:35:00 7.8 C 6.28 g/m*3 7.8 C 3.2 km/h
753 08-04-2014 22:40:00 7.8 C 6.45 g/m*3 7.8 C 3.2 km/h
754 08-04-2014 22:45:00 7.6 C 6.36 g/m*3 7.6 C 4.8 km/h
755 08-04-2014 22:50:00 7.6 C 6.36 g/m*3 7.6 C 4.8 km/h
756 08-04-2014 22:55:00 7.6 C 6.36 g/m*3 7.6 C 4.8 km/h
757 08-04-2014 23:00:00 7.7 C 6.41 g/m*3 7.7 C 4.8 km/h
758 08-04-2014 23:05:00 7.7 C 6.41 g/m*3 6.71 C 6.4 km/h
759 08-04-2014 23:10:00 7.7 C 6.41 g/m*3 7.7 C 4.8 km/h
760 08-04-2014 23:15:00 7.9 C 6.24 g/m*3 7.9 C 3.2 km/h
761 08-04-2014 23:20:00 7.9 C 6.24 g/m*3 7.9 C 4.8 km/h
762 08-04-2014 23:25:00 7.8 C 6.2 g/m*3 6.83 C 6.4 km/h
763 08-04-2014 23:30:00 7.8 C 6.2 g/m*3 7.8 C 4.8 km/h
764 08-04-2014 23:35:00 7.8 C 6.2 g/m*3 7.8 C 3.2 km/h
765 08-04-2014 23:40:00 7.8 C 6.2 g/m*3 6.83 C 6.4 km/h
766 08-04-2014 23:45:00 7.8 C 6.2 g/m*3 6.4 C 8.1 km/h
767 08-04-2014 23:50:00 7.8 C 6.2 g/m*3 6.83 C 6.4 km/h
768 09-04-2014 00:45:00 6.1 C 6.58 g/m*3 6.1 C 3.2 km/h
769 09-04-2014 00:50:00 6.1 C 6.65 g/m*3 6.1 C 4.8 km/h
770 09-04-2014 00:55:00 6 C 6.68 g/m*3 6 C 0 km/h
771 09-04-2014 01:00:00 6 C 6.68 g/m*3 6 C 3.2 km/h
772 09-04-2014 01:05:00 6 C 6.68 g/m*3 3.06 C 14.5 km/h
773 09-04-2014 01:10:00 6 C 6.68 g/m*3 4.28 C 8.1 km/h
774 09-04-2014 01:15:00 6.1 C 6.72 g/m*3 6.1 C 1.6 km/h
775 09-04-2014 01:20:00 6 C 6.68 g/m*3 6 C 4.8 km/h
Sensor: Nr:Datum:Temp:Abs-Feuchte:Windchill:Wind:
Aussen-T/F 776 09-04-2014 01:25:00 5.8 C 6.59 g/m*3 5.8 C 4.8 km/h
777 09-04-2014 01:30:00 5.6 C 6.5 g/m*3 5.6 C 4.8 km/h
778 09-04-2014 01:35:00 5.4 C 6.49 g/m*3 5.4 C 4.8 km/h
779 09-04-2014 01:40:00 5.3 C 6.45 g/m*3 5.3 C 4.8 km/h
780 09-04-2014 01:45:00 5.2 C 6.4 g/m*3 5.2 C 4.8 km/h
781 09-04-2014 01:50:00 5.2 C 6.47 g/m*3 5.2 C 4.8 km/h
782 09-04-2014 01:55:00 5.3 C 6.52 g/m*3 5.3 C 1.6 km/h
783 09-04-2014 02:00:00 5.4 C 6.56 g/m*3 5.4 C 1.6 km/h
784 09-04-2014 02:05:00 5.5 C 6.67 g/m*3 4.17 C 6.4 km/h
785 09-04-2014 02:10:00 5.6 C 6.72 g/m*3 5.6 C 1.6 km/h
786 09-04-2014 02:15:00 5.6 C 6.72 g/m*3 4.29 C 6.4 km/h
787 09-04-2014 02:20:00 5.6 C 6.65 g/m*3 5.6 C 3.2 km/h
788 09-04-2014 02:25:00 5.6 C 6.65 g/m*3 5.6 C 3.2 km/h
789 09-04-2014 02:30:00 5.5 C 6.53 g/m*3 5.5 C 4.8 km/h
790 09-04-2014 02:35:00 5.4 C 6.49 g/m*3 5.4 C 3.2 km/h
791 09-04-2014 02:40:00 5.3 C 6.45 g/m*3 5.3 C 3.2 km/h
792 09-04-2014 02:45:00 5.3 C 6.45 g/m*3 5.3 C 4.8 km/h
793 09-04-2014 02:50:00 5.2 C 6.4 g/m*3 5.2 C 3.2 km/h
794 09-04-2014 02:55:00 5.1 C 6.36 g/m*3 5.1 C 1.6 km/h
795 09-04-2014 03:00:00 4.9 C 6.35 g/m*3 4.9 C 1.6 km/h
796 09-04-2014 03:05:00 4.9 C 6.35 g/m*3 4.9 C 3.2 km/h
797 09-04-2014 03:10:00 4.9 C 6.35 g/m*3 4.9 C 1.6 km/h
798 09-04-2014 03:15:00 5 C 6.39 g/m*3 5 C 3.2 km/h
799 09-04-2014 03:20:00 5 C 6.39 g/m*3 5 C 3.2 km/h
800 09-04-2014 03:25:00 5 C 6.32 g/m*3 5 C 0 km/h
Sensor: Nr:Datum:Temp:Abs-Feuchte:Windchill:Wind:
Aussen-T/F 801 09-04-2014 03:30:00 4.9 C 6.28 g/m*3 4.9 C 1.6 km/h
802 09-04-2014 03:35:00 4.8 C 6.3 g/m*3 4.8 C 1.6 km/h
803 09-04-2014 03:40:00 4.8 C 6.3 g/m*3 4.8 C 4.8 km/h
804 09-04-2014 03:45:00 4.9 C 6.35 g/m*3 4.9 C 1.6 km/h
805 09-04-2014 03:50:00 4.9 C 6.35 g/m*3 4.9 C 0 km/h
806 09-04-2014 03:55:00 4.8 C 6.3 g/m*3 4.8 C 1.6 km/h
807 09-04-2014 04:00:00 4.8 C 6.3 g/m*3 4.8 C 3.2 km/h
808 09-04-2014 04:05:00 4.8 C 6.3 g/m*3 4.8 C 3.2 km/h
809 09-04-2014 04:10:00 4.8 C 6.3 g/m*3 4.8 C 1.6 km/h
810 09-04-2014 04:15:00 4.8 C 6.3 g/m*3 4.8 C 1.6 km/h
811 09-04-2014 04:20:00 4.7 C 6.26 g/m*3 4.7 C 0 km/h
812 09-04-2014 04:25:00 4.7 C 6.26 g/m*3 4.7 C 1.6 km/h
813 09-04-2014 04:30:00 4.7 C 6.26 g/m*3 4.7 C 1.6 km/h
814 09-04-2014 04:35:00 4.8 C 6.3 g/m*3 4.8 C 3.2 km/h
815 09-04-2014 04:40:00 4.9 C 6.35 g/m*3 4.9 C 4.8 km/h
816 09-04-2014 04:45:00 5.1 C 6.43 g/m*3 3.71 C 6.4 km/h
817 09-04-2014 04:50:00 5.2 C 6.4 g/m*3 5.2 C 4.8 km/h
818 09-04-2014 04:55:00 5.3 C 6.38 g/m*3 5.3 C 3.2 km/h
819 09-04-2014 05:00:00 5.3 C 6.38 g/m*3 5.3 C 3.2 km/h
820 09-04-2014 05:05:00 5.3 C 6.31 g/m*3 5.3 C 1.6 km/h
821 09-04-2014 05:10:00 5.3 C 6.31 g/m*3 5.3 C 4.8 km/h
822 09-04-2014 05:15:00 5.2 C 6.33 g/m*3 5.2 C 0 km/h
823 09-04-2014 05:20:00 5.2 C 6.33 g/m*3 5.2 C 1.6 km/h
824 09-04-2014 05:25:00 5.2 C 6.33 g/m*3 5.2 C 1.6 km/h
825 09-04-2014 05:30:00 5.1 C 6.29 g/m*3 5.1 C 1.6 km/h
Sensor: Nr:Datum:Temp:Abs-Feuchte:Windchill:Wind:
Aussen-T/F 826 09-04-2014 05:35:00 4.9 C 6.21 g/m*3 4.9 C 1.6 km/h
827 09-04-2014 05:40:00 4.9 C 6.28 g/m*3 4.9 C 0 km/h
828 09-04-2014 05:45:00 4.8 C 6.24 g/m*3 4.8 C 1.6 km/h
829 09-04-2014 05:50:00 4.8 C 6.24 g/m*3 4.8 C 1.6 km/h
830 09-04-2014 05:55:00 4.7 C 6.19 g/m*3 4.7 C 1.6 km/h
831 09-04-2014 06:00:00 4.6 C 6.15 g/m*3 4.6 C 0 km/h
832 09-04-2014 06:05:00 4.6 C 6.15 g/m*3 4.6 C 0 km/h
833 09-04-2014 06:10:00 4.5 C 6.18 g/m*3 4.5 C 0 km/h
834 09-04-2014 06:15:00 4.4 C 6.14 g/m*3 4.4 C 1.6 km/h
835 09-04-2014 06:20:00 4.3 C 6.1 g/m*3 4.3 C 1.6 km/h
836 09-04-2014 06:25:00 4.3 C 6.1 g/m*3 4.3 C 0 km/h
837 09-04-2014 06:30:00 4.3 C 6.1 g/m*3 4.3 C 0 km/h
838 09-04-2014 06:35:00 4.3 C 6.1 g/m*3 4.3 C 3.2 km/h
839 09-04-2014 06:40:00 4.3 C 6.1 g/m*3 4.3 C 3.2 km/h
840 09-04-2014 06:45:00 4.3 C 6.1 g/m*3 4.3 C 1.6 km/h
841 09-04-2014 06:50:00 4.3 C 6.1 g/m*3 4.3 C 1.6 km/h
842 09-04-2014 06:55:00 4.3 C 6.1 g/m*3 4.3 C 1.6 km/h
843 09-04-2014 07:00:00 4.2 C 6.06 g/m*3 4.2 C 3.2 km/h
844 09-04-2014 07:05:00 4.2 C 6.06 g/m*3 4.2 C 1.6 km/h
845 09-04-2014 07:10:00 4.2 C 6.06 g/m*3 2.17 C 8.1 km/h
846 09-04-2014 07:15:00 4.2 C 6.06 g/m*3 4.2 C 1.6 km/h
847 09-04-2014 07:55:00 4.1 C 6.02 g/m*3 4.1 C 0 km/h
848 09-04-2014 08:00:00 4.1 C 6.02 g/m*3 4.1 C 1.6 km/h
849 09-04-2014 08:05:00 4.1 C 6.08 g/m*3 4.1 C 1.6 km/h
850 09-04-2014 08:10:00 4.2 C 6.12 g/m*3 4.2 C 0 km/h
Sensor: Nr:Datum:Temp:Abs-Feuchte:Windchill:Wind:
Aussen-T/F 851 09-04-2014 08:15:00 4.2 C 6.12 g/m*3 4.2 C 0 km/h
852 09-04-2014 08:20:00 4.3 C 6.16 g/m*3 4.3 C 3.2 km/h
853 09-04-2014 08:25:00 4.5 C 6.24 g/m*3 4.5 C 1.6 km/h
854 09-04-2014 08:30:00 4.7 C 6.33 g/m*3 4.7 C 1.6 km/h
855 09-04-2014 08:35:00 4.8 C 6.37 g/m*3 4.8 C 4.8 km/h
856 09-04-2014 08:40:00 5 C 6.46 g/m*3 5 C 0 km/h
857 09-04-2014 08:45:00 5.1 C 6.5 g/m*3 5.1 C 1.6 km/h
858 09-04-2014 08:50:00 5.3 C 6.58 g/m*3 5.3 C 3.2 km/h
859 09-04-2014 08:55:00 5.4 C 6.63 g/m*3 4.06 C 6.4 km/h
860 09-04-2014 09:00:00 5.7 C 6.69 g/m*3 5.7 C 3.2 km/h
861 09-04-2014 09:05:00 5.9 C 6.71 g/m*3 4.63 C 6.4 km/h
862 09-04-2014 09:10:00 6.1 C 6.79 g/m*3 4.4 C 8.1 km/h
863 09-04-2014 09:15:00 6.4 C 6.78 g/m*3 4.08 C 11.3 km/h
864 09-04-2014 09:20:00 6.6 C 6.79 g/m*3 4.63 C 9.7 km/h
865 09-04-2014 09:25:00 6.7 C 6.76 g/m*3 4.75 C 9.7 km/h
866 09-04-2014 09:30:00 6.9 C 6.85 g/m*3 4.99 C 9.7 km/h
867 09-04-2014 09:35:00 7.2 C 6.91 g/m*3 5.04 C 11.3 km/h
868 09-04-2014 09:40:00 7.3 C 6.87 g/m*3 5.81 C 8.1 km/h
869 09-04-2014 09:45:00 7.5 C 7.04 g/m*3 5.7 C 9.7 km/h
870 09-04-2014 09:50:00 7.7 C 7.05 g/m*3 6.28 C 8.1 km/h
871 09-04-2014 09:55:00 7.8 C 7.1 g/m*3 6.4 C 8.1 km/h
872 09-04-2014 10:00:00 7.9 C 7.06 g/m*3 6.52 C 8.1 km/h
873 09-04-2014 10:05:00 8.1 C 7.16 g/m*3 6.75 C 8.1 km/h
874 09-04-2014 10:10:00 8.1 C 7.07 g/m*3 8.1 C 4.8 km/h
875 09-04-2014 10:15:00 8.1 C 7.16 g/m*3 6.13 C 11.3 km/h
Sensor: Nr:Datum:Temp:Abs-Feuchte:Windchill:Wind:
Aussen-T/F 876 09-04-2014 10:20:00 8.2 C 7.2 g/m*3 7.29 C 6.4 km/h
877 09-04-2014 10:25:00 8.4 C 7.3 g/m*3 8.4 C 4.8 km/h
878 09-04-2014 10:30:00 8.6 C 7.3 g/m*3 7.75 C 6.4 km/h
879 09-04-2014 10:35:00 8.7 C 7.35 g/m*3 7.46 C 8.1 km/h
880 09-04-2014 10:40:00 8.8 C 7.22 g/m*3 7.98 C 6.4 km/h
881 09-04-2014 10:45:00 9.1 C 7.28 g/m*3 7.93 C 8.1 km/h
882 09-04-2014 10:50:00 9.2 C 7.32 g/m*3 7.73 C 9.7 km/h
883 09-04-2014 10:55:00 9.3 C 7.37 g/m*3 7.85 C 9.7 km/h
884 09-04-2014 11:00:00 9.7 C 7.47 g/m*3 8.06 C 11.3 km/h
885 09-04-2014 11:05:00 9.8 C 7.33 g/m*3 9.14 C 6.4 km/h
886 09-04-2014 11:10:00 9.8 C 7.33 g/m*3 8.75 C 8.1 km/h
887 09-04-2014 11:15:00 9.8 C 7.33 g/m*3 8.75 C 8.1 km/h
888 09-04-2014 11:20:00 10 C 7.42 g/m*3 8.68 C 9.7 km/h
889 09-04-2014 11:25:00 10.2 C 7.23 g/m*3 8.66 C 11.3 km/h
890 09-04-2014 11:30:00 10.3 C 7.18 g/m*3 7.98 C 17.7 km/h
891 09-04-2014 11:35:00 10.4 C 7.32 g/m*3 8.67 C 12.9 km/h
892 09-04-2014 11:40:00 10.6 C 7.32 g/m*3 9.14 C 11.3 km/h
893 09-04-2014 11:45:00 10.8 C 7.31 g/m*3 9.93 C 8.1 km/h
894 09-04-2014 11:50:00 11 C 7.41 g/m*3 9.4 C 12.9 km/h
895 09-04-2014 11:55:00 11.1 C 7.35 g/m*3 11.1 C 6.4 km/h
896 09-04-2014 12:00:00 11 C 7.31 g/m*3 9.88 C 9.7 km/h
897 09-04-2014 12:05:00 11.1 C 7.25 g/m*3 11.1 C 9.7 km/h
898 09-04-2014 12:10:00 11.2 C 7.3 g/m*3 11.2 C 9.7 km/h
899 09-04-2014 12:15:00 11.2 C 7.3 g/m*3 11.2 C 12.9 km/h
900 09-04-2014 12:20:00 11.2 C 7.4 g/m*3 11.2 C 11.3 km/h
Sensor: Nr:Datum:Temp:Abs-Feuchte:Windchill:Wind:
Aussen-T/F 901 09-04-2014 12:25:00 11.3 C 7.34 g/m*3 11.3 C 8.1 km/h
902 09-04-2014 12:30:00 11.3 C 7.24 g/m*3 11.3 C 12.9 km/h
903 09-04-2014 12:35:00 11.4 C 7.19 g/m*3 11.4 C 12.9 km/h
904 09-04-2014 12:40:00 11.6 C 7.17 g/m*3 11.6 C 11.3 km/h
905 09-04-2014 12:45:00 11.7 C 7.11 g/m*3 11.7 C 8.1 km/h
906 09-04-2014 12:50:00 11.7 C 7.01 g/m*3 11.7 C 4.8 km/h
907 09-04-2014 12:55:00 11.8 C 7.16 g/m*3 11.8 C 4.8 km/h
908 09-04-2014 13:00:00 12 C 6.93 g/m*3 12 C 9.7 km/h
909 09-04-2014 13:05:00 12 C 6.71 g/m*3 12 C 6.4 km/h
910 09-04-2014 13:10:00 12 C 6.93 g/m*3 12 C 4.8 km/h
911 09-04-2014 13:15:00 12.4 C 6.88 g/m*3 12.4 C 8.1 km/h
912 09-04-2014 13:20:00 13 C 6.46 g/m*3 13 C 8.1 km/h
913 09-04-2014 13:25:00 13.4 C 6.74 g/m*3 13.4 C 9.7 km/h
914 09-04-2014 13:30:00 13.6 C 6.71 g/m*3 13.6 C 4.8 km/h
915 09-04-2014 13:35:00 13.6 C 6.59 g/m*3 13.6 C 12.9 km/h
916 09-04-2014 13:40:00 13.4 C 6.16 g/m*3 13.4 C 9.7 km/h
917 09-04-2014 13:45:00 13.4 C 6.39 g/m*3 13.4 C 6.4 km/h
918 09-04-2014 13:50:00 13.5 C 6.78 g/m*3 13.5 C 12.9 km/h
919 09-04-2014 13:55:00 13.3 C 6.59 g/m*3 13.3 C 9.7 km/h
920 09-04-2014 14:00:00 13.4 C 7.09 g/m*3 13.4 C 9.7 km/h
921 09-04-2014 14:05:00 13.7 C 6.87 g/m*3 13.7 C 8.1 km/h
922 09-04-2014 14:10:00 13.8 C 6.55 g/m*3 13.8 C 4.8 km/h
923 09-04-2014 14:15:00 13.8 C 6.43 g/m*3 13.8 C 6.4 km/h
924 09-04-2014 14:20:00 13.6 C 6.71 g/m*3 13.6 C 4.8 km/h
925 09-04-2014 14:25:00 13.6 C 6.47 g/m*3 13.6 C 9.7 km/h
Sensor: Nr:Datum:Temp:Abs-Feuchte:Windchill:Wind:
Aussen-T/F 926 09-04-2014 14:30:00 13.6 C 6.36 g/m*3 13.6 C 11.3 km/h
927 09-04-2014 14:35:00 13.6 C 6.24 g/m*3 13.6 C 8.1 km/h
928 09-04-2014 14:40:00 13.6 C 6.47 g/m*3 13.6 C 4.8 km/h
929 09-04-2014 14:45:00 13.6 C 6.24 g/m*3 13.6 C 9.7 km/h
930 09-04-2014 14:50:00 13.6 C 6.36 g/m*3 13.6 C 8.1 km/h
931 09-04-2014 14:55:00 13.8 C 6.08 g/m*3 13.8 C 11.3 km/h
932 09-04-2014 15:00:00 14.2 C 6.84 g/m*3 14.2 C 8.1 km/h
933 09-04-2014 15:05:00 14.4 C 5.93 g/m*3 14.4 C 8.1 km/h
934 09-04-2014 15:10:00 14.5 C 5.85 g/m*3 14.5 C 11.3 km/h
935 09-04-2014 15:15:00 14.4 C 6.3 g/m*3 14.4 C 9.7 km/h
936 09-04-2014 15:20:00 14.4 C 6.18 g/m*3 14.4 C 12.9 km/h
937 09-04-2014 15:25:00 14.3 C 6.02 g/m*3 14.3 C 6.4 km/h
938 09-04-2014 15:30:00 14.3 C 5.9 g/m*3 14.3 C 6.4 km/h
939 09-04-2014 15:35:00 14.6 C 6.26 g/m*3 14.6 C 9.7 km/h
940 09-04-2014 15:40:00 14.8 C 6.21 g/m*3 14.8 C 9.7 km/h
941 09-04-2014 15:45:00 14.6 C 5.88 g/m*3 14.6 C 9.7 km/h
942 09-04-2014 15:50:00 14.4 C 5.69 g/m*3 14.4 C 9.7 km/h
943 09-04-2014 15:55:00 14.3 C 5.65 g/m*3 14.3 C 9.7 km/h
944 09-04-2014 16:00:00 14.3 C 5.77 g/m*3 14.3 C 9.7 km/h
945 09-04-2014 16:05:00 14.3 C 5.9 g/m*3 14.3 C 8.1 km/h
946 09-04-2014 16:10:00 14.3 C 5.77 g/m*3 14.3 C 8.1 km/h
947 09-04-2014 16:15:00 14.4 C 5.93 g/m*3 14.4 C 6.4 km/h
948 09-04-2014 16:20:00 14.4 C 5.93 g/m*3 14.4 C 8.1 km/h
949 09-04-2014 16:25:00 14.3 C 6.02 g/m*3 14.3 C 12.9 km/h
950 09-04-2014 16:30:00 14.2 C 5.98 g/m*3 14.2 C 14.5 km/h
Sensor: Nr:Datum:Temp:Abs-Feuchte:Windchill:Wind:
Aussen-T/F 951 09-04-2014 16:35:00 14.2 C 6.23 g/m*3 14.2 C 9.7 km/h
952 09-04-2014 16:40:00 14.2 C 6.35 g/m*3 14.2 C 9.7 km/h
953 09-04-2014 16:45:00 14.3 C 6.27 g/m*3 14.3 C 8.1 km/h
954 09-04-2014 16:50:00 14.4 C 6.3 g/m*3 14.4 C 14.5 km/h
955 09-04-2014 16:55:00 14.6 C 6.51 g/m*3 14.6 C 9.7 km/h
956 09-04-2014 17:00:00 14.5 C 6.22 g/m*3 14.5 C 8.1 km/h
957 09-04-2014 17:05:00 14.4 C 6.55 g/m*3 14.4 C 8.1 km/h
958 09-04-2014 17:10:00 14.5 C 6.59 g/m*3 14.5 C 6.4 km/h
959 09-04-2014 17:15:00 14.7 C 6.8 g/m*3 14.7 C 9.7 km/h
960 09-04-2014 17:20:00 14.8 C 6.46 g/m*3 14.8 C 12.9 km/h
961 09-04-2014 17:25:00 14.7 C 6.42 g/m*3 14.7 C 8.1 km/h
962 09-04-2014 17:30:00 14.7 C 6.17 g/m*3 14.7 C 9.7 km/h
963 09-04-2014 17:35:00 14.6 C 6.26 g/m*3 14.6 C 11.3 km/h
964 09-04-2014 17:40:00 14.6 C 6.51 g/m*3 14.6 C 9.7 km/h
965 09-04-2014 17:45:00 15.1 C 6.32 g/m*3 15.1 C 8.1 km/h
966 09-04-2014 17:50:00 15.4 C 6.31 g/m*3 15.4 C 9.7 km/h
967 09-04-2014 17:55:00 15.7 C 6.69 g/m*3 15.7 C 6.4 km/h
968 09-04-2014 18:00:00 15.5 C 6.48 g/m*3 15.5 C 9.7 km/h
969 09-04-2014 18:05:00 15.2 C 6.49 g/m*3 15.2 C 6.4 km/h
970 09-04-2014 18:10:00 15.1 C 6.45 g/m*3 15.1 C 9.7 km/h
971 09-04-2014 18:15:00 15 C 6.67 g/m*3 15 C 11.3 km/h
972 09-04-2014 18:20:00 15 C 6.28 g/m*3 15 C 11.3 km/h
973 09-04-2014 18:25:00 14.8 C 6.46 g/m*3 14.8 C 8.1 km/h
974 09-04-2014 18:30:00 14.5 C 6.34 g/m*3 14.5 C 8.1 km/h
975 09-04-2014 18:35:00 14.3 C 6.27 g/m*3 14.3 C 4.8 km/h
Sensor: Nr:Datum:Temp:Abs-Feuchte:Windchill:Wind:
Aussen-T/F 976 09-04-2014 18:40:00 14.1 C 6.55 g/m*3 14.1 C 6.4 km/h
977 09-04-2014 18:45:00 13.9 C 6.47 g/m*3 13.9 C 11.3 km/h
978 09-04-2014 18:50:00 13.8 C 6.31 g/m*3 13.8 C 4.8 km/h
979 09-04-2014 18:55:00 13.8 C 6.67 g/m*3 13.8 C 9.7 km/h
980 09-04-2014 19:00:00 13.7 C 6.63 g/m*3 13.7 C 6.4 km/h
981 09-04-2014 19:05:00 13.6 C 6.47 g/m*3 13.6 C 3.2 km/h
982 09-04-2014 19:10:00 13.6 C 6.47 g/m*3 13.6 C 6.4 km/h
983 09-04-2014 19:15:00 13.6 C 6.59 g/m*3 13.6 C 4.8 km/h
984 09-04-2014 19:20:00 13.5 C 6.55 g/m*3 13.5 C 4.8 km/h
985 09-04-2014 19:25:00 13.5 C 6.55 g/m*3 13.5 C 3.2 km/h
986 09-04-2014 19:30:00 13.5 C 6.55 g/m*3 13.5 C 1.6 km/h
987 09-04-2014 19:35:00 13.2 C 7.12 g/m*3 13.2 C 0 km/h
988 09-04-2014 19:40:00 12.8 C 7.17 g/m*3 12.8 C 3.2 km/h
989 09-04-2014 19:45:00 12.6 C 6.97 g/m*3 12.6 C 3.2 km/h
990 09-04-2014 19:50:00 12.3 C 7.17 g/m*3 12.3 C 0 km/h
991 09-04-2014 19:55:00 12 C 7.14 g/m*3 12 C 1.6 km/h
992 09-04-2014 20:00:00 11.6 C 7.17 g/m*3 11.6 C 3.2 km/h
993 09-04-2014 20:05:00 11.2 C 7.2 g/m*3 11.2 C 3.2 km/h
994 09-04-2014 20:10:00 10.9 C 7.26 g/m*3 10.9 C 3.2 km/h
995 09-04-2014 20:15:00 10.6 C 6.83 g/m*3 10.6 C 3.2 km/h
996 09-04-2014 20:20:00 10.5 C 7.08 g/m*3 10.5 C 3.2 km/h
997 09-04-2014 20:25:00 10.3 C 6.99 g/m*3 10.3 C 3.2 km/h
998 09-04-2014 20:30:00 10.2 C 7.04 g/m*3 10.2 C 3.2 km/h
999 09-04-2014 20:35:00 10 C 6.95 g/m*3 10 C 4.8 km/h
1000 09-04-2014 20:40:00 9.9 C 6.91 g/m*3 9.9 C 4.8 km/h
Sensor: Nr:Datum:Temp:Abs-Feuchte:Windchill:Wind:
Aussen-T/F 1001 09-04-2014 20:45:00 9.8 C 6.96 g/m*3 9.8 C 4.8 km/h
1002 09-04-2014 20:50:00 9.7 C 6.91 g/m*3 9.7 C 4.8 km/h
1003 09-04-2014 20:55:00 9.6 C 6.87 g/m*3 9.6 C 4.8 km/h
1004 09-04-2014 21:00:00 9.5 C 7.1 g/m*3 9.5 C 4.8 km/h
1005 09-04-2014 21:05:00 9.4 C 6.87 g/m*3 9.4 C 4.8 km/h
1006 09-04-2014 21:10:00 9.4 C 6.96 g/m*3 9.4 C 3.2 km/h
1007 09-04-2014 21:15:00 9.3 C 7.01 g/m*3 9.3 C 4.8 km/h
1008 09-04-2014 21:20:00 9.2 C 6.97 g/m*3 9.2 C 3.2 km/h
1009 09-04-2014 21:25:00 9 C 6.96 g/m*3 9 C 4.8 km/h
1010 09-04-2014 21:30:00 9 C 6.79 g/m*3 9 C 1.6 km/h
1011 09-04-2014 21:35:00 9.1 C 7.01 g/m*3 9.1 C 3.2 km/h
1012 09-04-2014 21:40:00 9.1 C 7.01 g/m*3 9.1 C 0 km/h
1013 09-04-2014 21:45:00 9 C 6.96 g/m*3 9 C 0 km/h
1014 09-04-2014 21:50:00 8.9 C 6.92 g/m*3 8.9 C 3.2 km/h
1015 09-04-2014 21:55:00 8.9 C 6.83 g/m*3 8.9 C 3.2 km/h
1016 09-04-2014 22:00:00 9 C 6.96 g/m*3 9 C 1.6 km/h
1017 09-04-2014 22:05:00 9 C 6.96 g/m*3 9 C 0 km/h
1018 09-04-2014 22:10:00 9 C 6.96 g/m*3 9 C 1.6 km/h
1019 09-04-2014 22:15:00 9 C 6.96 g/m*3 9 C 1.6 km/h
1020 09-04-2014 22:20:00 9 C 6.88 g/m*3 9 C 3.2 km/h
1021 09-04-2014 22:25:00 9 C 6.96 g/m*3 9 C 3.2 km/h
1022 09-04-2014 22:30:00 9.1 C 7.01 g/m*3 9.1 C 3.2 km/h
1023 09-04-2014 22:35:00 9.1 C 6.83 g/m*3 9.1 C 1.6 km/h
1024 09-04-2014 22:40:00 9.1 C 6.92 g/m*3 9.1 C 0 km/h
1025 09-04-2014 22:45:00 9 C 6.96 g/m*3 9 C 3.2 km/h
Sensor: Nr:Datum:Temp:Abs-Feuchte:Windchill:Wind:
Aussen-T/F 1026 09-04-2014 22:50:00 8.9 C 6.83 g/m*3 8.9 C 4.8 km/h
1027 09-04-2014 22:55:00 8.8 C 6.79 g/m*3 8.8 C 3.2 km/h
1028 09-04-2014 23:00:00 8.7 C 6.75 g/m*3 8.7 C 1.6 km/h
1029 09-04-2014 23:05:00 8.6 C 6.79 g/m*3 8.6 C 1.6 km/h
1030 09-04-2014 23:10:00 8.5 C 6.74 g/m*3 8.5 C 0 km/h
1031 09-04-2014 23:15:00 8.4 C 6.7 g/m*3 8.4 C 3.2 km/h
1032 09-04-2014 23:20:00 8.4 C 6.7 g/m*3 8.4 C 3.2 km/h
1033 09-04-2014 23:25:00 8.4 C 6.7 g/m*3 8.4 C 4.8 km/h
1034 09-04-2014 23:30:00 8.5 C 6.83 g/m*3 8.5 C 0 km/h
1035 09-04-2014 23:35:00 8.6 C 6.79 g/m*3 8.6 C 1.6 km/h
1036 09-04-2014 23:40:00 8.6 C 6.79 g/m*3 8.6 C 1.6 km/h
1037 09-04-2014 23:45:00 8.7 C 6.83 g/m*3 8.7 C 0 km/h
1038 09-04-2014 23:50:00 8.7 C 6.83 g/m*3 8.7 C 1.6 km/h
1039 09-04-2014 23:55:00 8.7 C 6.75 g/m*3 8.7 C 4.8 km/h
1040 10-04-2014 00:00:00 8.8 C 6.79 g/m*3 8.8 C 0 km/h
1041 10-04-2014 00:05:00 8.8 C 6.79 g/m*3 8.8 C 4.8 km/h
1042 10-04-2014 00:10:00 8.9 C 6.75 g/m*3 7.69 C 8.1 km/h
1043 10-04-2014 00:15:00 9 C 6.79 g/m*3 9 C 4.8 km/h
1044 10-04-2014 00:20:00 9.1 C 6.74 g/m*3 9.1 C 4.8 km/h
1045 10-04-2014 00:25:00 9.1 C 6.74 g/m*3 8.33 C 6.4 km/h
1046 10-04-2014 00:30:00 9.2 C 6.7 g/m*3 9.2 C 4.8 km/h
1047 10-04-2014 00:35:00 9.2 C 6.79 g/m*3 9.2 C 4.8 km/h
1048 10-04-2014 00:40:00 9.2 C 6.7 g/m*3 8.45 C 6.4 km/h
1049 10-04-2014 00:45:00 9.2 C 6.7 g/m*3 9.2 C 4.8 km/h
1050 10-04-2014 00:50:00 9.2 C 6.7 g/m*3 8.45 C 6.4 km/h
Sensor: Nr:Datum:Temp:Abs-Feuchte:Windchill:Wind:
Aussen-T/F 1051 10-04-2014 00:55:00 9 C 6.7 g/m*3 7.49 C 9.7 km/h
1052 10-04-2014 01:00:00 8.8 C 6.61 g/m*3 8.8 C 3.2 km/h
1053 10-04-2014 01:05:00 8.7 C 6.66 g/m*3 8.7 C 3.2 km/h
1054 10-04-2014 01:10:00 8.6 C 6.7 g/m*3 7.01 C 9.7 km/h
1055 10-04-2014 01:15:00 8.4 C 6.62 g/m*3 7.11 C 8.1 km/h
1056 10-04-2014 01:20:00 8.3 C 6.66 g/m*3 8.3 C 3.2 km/h
1057 10-04-2014 01:25:00 8.2 C 6.62 g/m*3 6.87 C 8.1 km/h
1058 10-04-2014 01:30:00 8.2 C 6.7 g/m*3 8.2 C 4.8 km/h
1059 10-04-2014 01:35:00 8.1 C 6.66 g/m*3 7.17 C 6.4 km/h
1060 10-04-2014 01:40:00 8.1 C 6.74 g/m*3 8.1 C 1.6 km/h
1061 10-04-2014 01:45:00 7.9 C 6.74 g/m*3 7.9 C 0 km/h
1062 10-04-2014 01:50:00 7.8 C 6.69 g/m*3 7.8 C 4.8 km/h
1063 10-04-2014 01:55:00 7.7 C 6.73 g/m*3 7.7 C 1.6 km/h
1064 10-04-2014 02:00:00 7.6 C 6.69 g/m*3 7.6 C 3.2 km/h
1065 10-04-2014 02:05:00 7.6 C 6.77 g/m*3 7.6 C 0 km/h
1066 10-04-2014 02:10:00 7.6 C 6.77 g/m*3 7.6 C 1.6 km/h
1067 10-04-2014 02:15:00 7.6 C 6.77 g/m*3 7.6 C 1.6 km/h
1068 10-04-2014 02:20:00 7.7 C 6.73 g/m*3 7.7 C 3.2 km/h
1069 10-04-2014 02:25:00 7.9 C 6.74 g/m*3 7.9 C 1.6 km/h
1070 10-04-2014 02:30:00 8 C 6.7 g/m*3 6.64 C 8.1 km/h
1071 10-04-2014 02:35:00 8.2 C 6.78 g/m*3 8.2 C 1.6 km/h
1072 10-04-2014 02:40:00 8.2 C 6.78 g/m*3 8.2 C 1.6 km/h
1073 10-04-2014 02:45:00 8.2 C 6.78 g/m*3 8.2 C 1.6 km/h
1074 10-04-2014 02:50:00 8.3 C 6.74 g/m*3 8.3 C 4.8 km/h
1075 10-04-2014 02:55:00 8.3 C 6.74 g/m*3 7.41 C 6.4 km/h
Sensor: Nr:Datum:Temp:Abs-Feuchte:Windchill:Wind:
Aussen-T/F 1076 10-04-2014 03:00:00 8.4 C 6.87 g/m*3 8.4 C 0 km/h
1077 10-04-2014 03:05:00 8.4 C 6.79 g/m*3 8.4 C 4.8 km/h
1078 10-04-2014 03:10:00 8.4 C 6.79 g/m*3 8.4 C 0 km/h
1079 10-04-2014 03:15:00 8.4 C 6.87 g/m*3 8.4 C 0 km/h
1080 10-04-2014 03:20:00 8.3 C 6.83 g/m*3 8.3 C 1.6 km/h
1081 10-04-2014 03:25:00 8.3 C 6.91 g/m*3 8.3 C 1.6 km/h
1082 10-04-2014 03:30:00 8.3 C 6.91 g/m*3 8.3 C 0 km/h
1083 10-04-2014 03:35:00 8.3 C 6.91 g/m*3 8.3 C 0 km/h
1084 10-04-2014 03:40:00 8.2 C 6.87 g/m*3 8.2 C 1.6 km/h
1085 10-04-2014 03:45:00 8.2 C 6.87 g/m*3 8.2 C 3.2 km/h
1086 10-04-2014 03:50:00 8.2 C 6.95 g/m*3 8.2 C 1.6 km/h
1087 10-04-2014 03:55:00 8.1 C 6.91 g/m*3 8.1 C 0 km/h
1088 10-04-2014 04:00:00 8.1 C 6.82 g/m*3 8.1 C 3.2 km/h
1089 10-04-2014 04:05:00 8.1 C 6.91 g/m*3 8.1 C 0 km/h
1090 10-04-2014 04:10:00 8 C 6.86 g/m*3 8 C 1.6 km/h
1091 10-04-2014 04:15:00 8 C 6.86 g/m*3 8 C 0 km/h
1092 10-04-2014 04:20:00 7.9 C 6.82 g/m*3 7.9 C 0 km/h
1093 10-04-2014 04:25:00 7.9 C 6.82 g/m*3 7.9 C 0 km/h
1094 10-04-2014 04:30:00 7.9 C 6.82 g/m*3 7.9 C 0 km/h
1095 10-04-2014 04:35:00 7.9 C 6.82 g/m*3 7.9 C 0 km/h
1096 10-04-2014 04:40:00 7.9 C 6.9 g/m*3 7.9 C 0 km/h
1097 10-04-2014 04:45:00 7.8 C 6.77 g/m*3 7.8 C 0 km/h
1098 10-04-2014 04:50:00 7.8 C 6.86 g/m*3 7.8 C 0 km/h
1099 10-04-2014 04:55:00 7.8 C 6.86 g/m*3 7.8 C 1.6 km/h
1100 10-04-2014 05:00:00 7.7 C 6.89 g/m*3 7.7 C 1.6 km/h
Sensor: Nr:Datum:Temp:Abs-Feuchte:Windchill:Wind:
Aussen-T/F 1101 10-04-2014 05:05:00 7.6 C 6.77 g/m*3 7.6 C 3.2 km/h
1102 10-04-2014 05:10:00 7.6 C 6.85 g/m*3 7.6 C 1.6 km/h
1103 10-04-2014 05:15:00 7.4 C 6.76 g/m*3 7.4 C 0 km/h
1104 10-04-2014 05:20:00 7.3 C 6.79 g/m*3 7.3 C 1.6 km/h
1105 10-04-2014 05:25:00 7.1 C 6.71 g/m*3 7.1 C 0 km/h
1106 10-04-2014 05:30:00 6.9 C 6.7 g/m*3 6.9 C 0 km/h
1107 10-04-2014 05:35:00 6.9 C 6.7 g/m*3 6.9 C 0 km/h
1108 10-04-2014 05:40:00 6.8 C 6.65 g/m*3 6.8 C 0 km/h
1109 10-04-2014 05:45:00 6.8 C 6.65 g/m*3 6.8 C 3.2 km/h
1110 10-04-2014 05:50:00 6.8 C 6.65 g/m*3 6.8 C 3.2 km/h
1111 10-04-2014 05:55:00 6.7 C 6.61 g/m*3 6.7 C 0 km/h
1112 10-04-2014 06:00:00 6.7 C 6.61 g/m*3 6.7 C 1.6 km/h
1113 10-04-2014 06:05:00 6.7 C 6.61 g/m*3 6.7 C 1.6 km/h
1114 10-04-2014 06:10:00 6.7 C 6.61 g/m*3 6.7 C 0 km/h
1115 10-04-2014 06:15:00 6.6 C 6.64 g/m*3 6.6 C 0 km/h
1116 10-04-2014 06:20:00 6.5 C 6.6 g/m*3 6.5 C 0 km/h
1117 10-04-2014 06:25:00 6.4 C 6.56 g/m*3 6.4 C 0 km/h
1118 10-04-2014 06:30:00 6.3 C 6.51 g/m*3 6.3 C 0 km/h
1119 10-04-2014 06:35:00 6.3 C 6.59 g/m*3 6.3 C 0 km/h
1120 10-04-2014 06:40:00 6.4 C 6.71 g/m*3 6.4 C 0 km/h
1121 10-04-2014 06:45:00 6.4 C 6.71 g/m*3 6.4 C 0 km/h
1122 10-04-2014 06:50:00 6.4 C 6.63 g/m*3 6.4 C 0 km/h
1123 10-04-2014 06:55:00 6.4 C 6.71 g/m*3 6.4 C 0 km/h
1124 10-04-2014 07:00:00 6.4 C 6.63 g/m*3 6.4 C 0 km/h
1125 10-04-2014 07:05:00 6.3 C 6.59 g/m*3 6.3 C 1.6 km/h
Sensor: Nr:Datum:Temp:Abs-Feuchte:Windchill:Wind:
Aussen-T/F 1126 10-04-2014 07:10:00 6.3 C 6.66 g/m*3 6.3 C 0 km/h
1127 10-04-2014 07:15:00 6.3 C 6.66 g/m*3 6.3 C 0 km/h
1128 10-04-2014 07:20:00 6.3 C 6.66 g/m*3 6.3 C 0 km/h
1129 10-04-2014 07:25:00 6.4 C 6.71 g/m*3 6.4 C 0 km/h
1130 10-04-2014 07:30:00 6.4 C 6.71 g/m*3 6.4 C 1.6 km/h
1131 10-04-2014 07:35:00 6.5 C 6.75 g/m*3 6.5 C 1.6 km/h
1132 10-04-2014 07:40:00 6.6 C 6.79 g/m*3 6.6 C 1.6 km/h
1133 10-04-2014 07:45:00 6.7 C 6.84 g/m*3 6.7 C 0 km/h
1134 10-04-2014 07:50:00 6.9 C 6.93 g/m*3 6.9 C 0 km/h
1135 10-04-2014 07:55:00 7 C 6.82 g/m*3 7 C 4.8 km/h
1136 10-04-2014 08:00:00 7.1 C 6.86 g/m*3 7.1 C 3.2 km/h
1137 10-04-2014 08:05:00 7.1 C 6.86 g/m*3 7.1 C 3.2 km/h
1138 10-04-2014 08:10:00 7.2 C 6.91 g/m*3 6.13 C 6.4 km/h
1139 10-04-2014 08:15:00 7.3 C 6.95 g/m*3 5.81 C 8.1 km/h
1140 10-04-2014 08:20:00 7.4 C 7 g/m*3 5.93 C 8.1 km/h
1141 10-04-2014 08:25:00 7.4 C 6.92 g/m*3 5.58 C 9.7 km/h
1142 10-04-2014 08:30:00 7.5 C 6.96 g/m*3 5.7 C 9.7 km/h
1143 10-04-2014 08:35:00 7.6 C 6.93 g/m*3 6.16 C 8.1 km/h
1144 10-04-2014 08:40:00 7.6 C 6.93 g/m*3 6.6 C 6.4 km/h
1145 10-04-2014 09:00:00 8.3 C 8.43 g/m*3 6.66 C 9.7 km/h
1146 10-04-2014 09:05:00 8.4 C 7.13 g/m*3 8.4 C 4.8 km/h
1147 10-04-2014 09:10:00 8.5 C 7.17 g/m*3 7.22 C 8.1 km/h
1148 10-04-2014 09:15:00 8.5 C 7.17 g/m*3 7.64 C 6.4 km/h
1149 10-04-2014 09:50:00 9 C 8.82 g/m*3 8.21 C 6.4 km/h
1150 10-04-2014 09:55:00 9.2 C 7.32 g/m*3 8.05 C 8.1 km/h
Sensor: Nr:Datum:Temp:Abs-Feuchte:Windchill:Wind:
Aussen-T/F 1151 10-04-2014 10:00:00 9.3 C 7.28 g/m*3 8.16 C 8.1 km/h
1152 10-04-2014 10:05:00 9.5 C 7.28 g/m*3 8.4 C 8.1 km/h
1153 10-04-2014 10:10:00 9.7 C 7.38 g/m*3 9.02 C 6.4 km/h
1154 10-04-2014 10:15:00 9.7 C 7.38 g/m*3 9.7 C 4.8 km/h
1155 10-04-2014 10:20:00 9.7 C 7.38 g/m*3 9.7 C 0 km/h
1156 10-04-2014 10:25:00 10 C 7.33 g/m*3 10 C 1.6 km/h
1157 10-04-2014 10:30:00 10.2 C 7.42 g/m*3 10.2 C 1.6 km/h
1158 10-04-2014 10:35:00 10.3 C 7.47 g/m*3 10.3 C 3.2 km/h
1159 10-04-2014 10:40:00 10.3 C 7.47 g/m*3 10.3 C 3.2 km/h
1160 10-04-2014 13:15:00 16.2 C 8.14 g/m*3 16.2 C 8.1 km/h
1161 10-04-2014 13:20:00 16.2 C 8.14 g/m*3 16.2 C 3.2 km/h
1162 10-04-2014 13:25:00 16.3 C 8.74 g/m*3 16.3 C 6.4 km/h
1163 10-04-2014 13:30:00 16.3 C 8.46 g/m*3 16.3 C 6.4 km/h
1164 10-04-2014 13:35:00 16.4 C 8.51 g/m*3 16.4 C 9.7 km/h
1165 10-04-2014 13:40:00 16.4 C 8.51 g/m*3 16.4 C 4.8 km/h
1166 10-04-2014 14:55:00 17.6 C 8.7 g/m*3 17.6 C 9.7 km/h
1167 10-04-2014 15:00:00 17.6 C 8.7 g/m*3 17.6 C 6.4 km/h
1168 10-04-2014 15:05:00 17.6 C 8.4 g/m*3 17.6 C 8.1 km/h
1169 10-04-2014 15:10:00 17.7 C 8.9 g/m*3 17.7 C 8.1 km/h
1170 10-04-2014 15:15:00 17.7 C 8.3 g/m*3 17.7 C 9.7 km/h
1171 10-04-2014 15:20:00 17.7 C 8.3 g/m*3 17.7 C 4.8 km/h
1172 10-04-2014 16:35:00 18.2 C 15.54 g/m*3 18.2 C 8.1 km/h
1173 10-04-2014 16:40:00 18.7 C 8.81 g/m*3 18.7 C 11.3 km/h
1174 10-04-2014 16:45:00 18.7 C 8.49 g/m*3 18.7 C 9.7 km/h
1175 10-04-2014 16:50:00 18.6 C 8.59 g/m*3 18.6 C 9.7 km/h
Sensor: Nr:Datum:Temp:Abs-Feuchte:Windchill:Wind:
Aussen-T/F 1176 10-04-2014 16:55:00 18.4 C 8.18 g/m*3 18.4 C 6.4 km/h
1177 10-04-2014 17:00:00 18.3 C 8.6 g/m*3 18.3 C 8.1 km/h
1178 10-04-2014 17:05:00 18.5 C 8.54 g/m*3 18.5 C 9.7 km/h
1179 10-04-2014 17:10:00 18.5 C 8.54 g/m*3 18.5 C 9.7 km/h
1180 10-04-2014 17:15:00 18.4 C 8.49 g/m*3 18.4 C 6.4 km/h
1181 10-04-2014 17:20:00 18.4 C 8.65 g/m*3 18.4 C 8.1 km/h
1182 10-04-2014 17:25:00 18 C 8.29 g/m*3 18 C 8.1 km/h
1183 10-04-2014 17:30:00 18 C 8.29 g/m*3 18 C 6.4 km/h
1184 10-04-2014 17:35:00 17.6 C 8.55 g/m*3 17.6 C 8.1 km/h
1185 10-04-2014 17:40:00 17.5 C 8.5 g/m*3 17.5 C 8.1 km/h
1186 10-04-2014 17:45:00 17.5 C 8.5 g/m*3 17.5 C 8.1 km/h
1187 10-04-2014 17:50:00 17.2 C 8.49 g/m*3 17.2 C 8.1 km/h
1188 10-04-2014 17:55:00 17.1 C 8.3 g/m*3 17.1 C 8.1 km/h
1189 10-04-2014 18:00:00 17.1 C 8.44 g/m*3 17.1 C 9.7 km/h
1190 10-04-2014 18:05:00 16.8 C 8.29 g/m*3 16.8 C 6.4 km/h
1191 10-04-2014 18:10:00 16.8 C 8.29 g/m*3 16.8 C 12.9 km/h
1192 10-04-2014 18:15:00 16.6 C 8.19 g/m*3 16.6 C 6.4 km/h
1193 10-04-2014 18:20:00 16.6 C 8.33 g/m*3 16.6 C 8.1 km/h
1194 10-04-2014 18:25:00 16.4 C 8.23 g/m*3 16.4 C 6.4 km/h
1195 10-04-2014 18:30:00 16.4 C 8.23 g/m*3 16.4 C 4.8 km/h
1196 10-04-2014 18:35:00 16.3 C 8.19 g/m*3 16.3 C 9.7 km/h
1197 10-04-2014 18:40:00 16.3 C 8.32 g/m*3 16.3 C 11.3 km/h
1198 10-04-2014 18:45:00 16.3 C 8.46 g/m*3 16.3 C 3.2 km/h
1199 10-04-2014 18:50:00 16.2 C 8.41 g/m*3 16.2 C 12.9 km/h
1200 10-04-2014 18:55:00 16.2 C 8.27 g/m*3 16.2 C 6.4 km/h
Sensor: Nr:Datum:Temp:Abs-Feuchte:Windchill:Wind:
Aussen-T/F 1201 10-04-2014 19:00:00 16.2 C 8.27 g/m*3 16.2 C 4.8 km/h
1202 11-04-2014 08:05:00 6.6 C 7.17 g/m*3 6.6 C 0 km/h
1203 11-04-2014 08:10:00 6.6 C 7.17 g/m*3 6.6 C 0 km/h
1204 11-04-2014 08:15:00 6.6 C 7.17 g/m*3 6.6 C 0 km/h
1205 11-04-2014 08:50:00 7.2 C 7.46 g/m*3 7.2 C 3.2 km/h
1206 11-04-2014 08:55:00 7.3 C 7.51 g/m*3 7.3 C 3.2 km/h
1207 11-04-2014 09:00:00 7.4 C 7.55 g/m*3 7.4 C 0 km/h
1208 11-04-2014 09:05:00 7.5 C 7.6 g/m*3 7.5 C 0 km/h
1209 11-04-2014 09:10:00 7.7 C 7.7 g/m*3 7.7 C 0 km/h
1210 11-04-2014 09:15:00 7.7 C 7.7 g/m*3 7.7 C 0 km/h
1211 11-04-2014 09:20:00 7.9 C 7.8 g/m*3 7.9 C 0 km/h
1212 11-04-2014 09:25:00 8.1 C 7.9 g/m*3 8.1 C 0 km/h
1213 11-04-2014 09:30:00 8.3 C 8.01 g/m*3 8.3 C 0 km/h
1214 11-04-2014 09:35:00 8.6 C 8.16 g/m*3 8.6 C 0 km/h
1215 11-04-2014 09:40:00 8.8 C 8.27 g/m*3 8.8 C 1.6 km/h
1216 11-04-2014 09:45:00 8.8 C 8.27 g/m*3 8.8 C 0 km/h
1217 11-04-2014 09:50:00 8.8 C 8.27 g/m*3 8.8 C 0 km/h
1218 11-04-2014 09:55:00 9.9 C 8.87 g/m*3 9.9 C 0 km/h
1219 11-04-2014 10:00:00 10 C 8.93 g/m*3 10 C 0 km/h
1220 11-04-2014 10:05:00 10.6 C 8.59 g/m*3 10.6 C 0 km/h
1221 11-04-2014 10:10:00 10.9 C 8.65 g/m*3 10.9 C 0 km/h
1222 11-04-2014 10:15:00 11.1 C 8.66 g/m*3 11.1 C 0 km/h
1223 11-04-2014 10:20:00 11.6 C 8.94 g/m*3 11.6 C 0 km/h
1224 11-04-2014 10:25:00 11.9 C 8.79 g/m*3 11.9 C 0 km/h
1225 11-04-2014 10:30:00 12.2 C 8.96 g/m*3 12.2 C 0 km/h
Sensor: Nr:Datum:Temp:Abs-Feuchte:Windchill:Wind:
Aussen-T/F 1226 11-04-2014 10:35:00 12.3 C 8.9 g/m*3 12.3 C 0 km/h
1227 11-04-2014 10:40:00 12.3 C 8.9 g/m*3 12.3 C 0 km/h
1228 11-04-2014 11:50:00 15.6 C 9.04 g/m*3 15.6 C 9.7 km/h
1229 11-04-2014 11:55:00 15.9 C 9.07 g/m*3 15.9 C 9.7 km/h
1230 11-04-2014 12:00:00 16.1 C 9.18 g/m*3 16.1 C 6.4 km/h
1231 11-04-2014 12:05:00 16.2 C 9.1 g/m*3 16.2 C 3.2 km/h
1232 11-04-2014 12:10:00 16.2 C 9.1 g/m*3 16.2 C 6.4 km/h
1233 11-04-2014 12:15:00 16.7 C 9.1 g/m*3 16.7 C 6.4 km/h
1234 11-04-2014 12:20:00 16.8 C 9.29 g/m*3 16.8 C 3.2 km/h
1235 11-04-2014 12:25:00 17 C 9.41 g/m*3 17 C 4.8 km/h
1236 11-04-2014 12:30:00 17.2 C 9.37 g/m*3 17.2 C 6.4 km/h
1237 11-04-2014 12:35:00 17.3 C 8.99 g/m*3 17.3 C 3.2 km/h
1238 11-04-2014 12:40:00 17.3 C 8.84 g/m*3 17.3 C 3.2 km/h
1239 11-04-2014 12:45:00 17.3 C 8.84 g/m*3 17.3 C 3.2 km/h
1240 11-04-2014 12:50:00 17.3 C 8.84 g/m*3 17.3 C 0 km/h
1241 11-04-2014 12:55:00 17.5 C 8.95 g/m*3 17.5 C 1.6 km/h
1242 11-04-2014 13:00:00 17.9 C 9.31 g/m*3 17.9 C 4.8 km/h
1243 11-04-2014 13:05:00 18.1 C 9.58 g/m*3 18.1 C 3.2 km/h
1244 11-04-2014 13:10:00 18.1 C 9.58 g/m*3 18.1 C 4.8 km/h
1245 11-04-2014 13:30:00 19.4 C 9.51 g/m*3 19.4 C 6.4 km/h
1246 11-04-2014 13:35:00 19.4 C 9.51 g/m*3 19.4 C 4.8 km/h
1247 11-04-2014 13:40:00 19.6 C 8.78 g/m*3 19.6 C 6.4 km/h
1248 11-04-2014 13:45:00 19.4 C 8.84 g/m*3 19.4 C 4.8 km/h
1249 11-04-2014 13:50:00 19.1 C 8.85 g/m*3 19.1 C 6.4 km/h
1250 11-04-2014 13:55:00 18.7 C 8.81 g/m*3 18.7 C 9.7 km/h
Sensor: Nr:Datum:Temp:Abs-Feuchte:Windchill:Wind:
Aussen-T/F 1251 11-04-2014 14:00:00 18.7 C 8.97 g/m*3 18.7 C 4.8 km/h
1252 11-04-2014 14:05:00 18.7 C 8.97 g/m*3 18.7 C 11.3 km/h
1253 11-04-2014 14:10:00 18.7 C 8.97 g/m*3 18.7 C 6.4 km/h
1254 11-04-2014 14:15:00 18.3 C 9.07 g/m*3 18.3 C 4.8 km/h
1255 11-04-2014 14:20:00 18.4 C 9.12 g/m*3 18.4 C 8.1 km/h
1256 11-04-2014 14:25:00 18.4 C 9.12 g/m*3 18.4 C 9.7 km/h
1257 11-04-2014 16:10:00 19.9 C 8.59 g/m*3 19.9 C 9.7 km/h
1258 11-04-2014 16:15:00 19.9 C 8.59 g/m*3 19.9 C 6.4 km/h
1259 11-04-2014 16:20:00 19.8 C 8.71 g/m*3 19.8 C 8.1 km/h
1260 11-04-2014 16:25:00 19.5 C 8.56 g/m*3 19.5 C 11.3 km/h
1261 11-04-2014 16:30:00 19.4 C 8.51 g/m*3 19.4 C 4.8 km/h
1262 11-04-2014 16:35:00 19.4 C 8.51 g/m*3 19.4 C 6.4 km/h
1263 11-04-2014 16:55:00 18.9 C 16.2 g/m*3 18.9 C 4.8 km/h
1264 11-04-2014 17:00:00 18.8 C 16.11 g/m*3 18.8 C 9.7 km/h
1265 11-04-2014 17:05:00 18.7 C 8.65 g/m*3 18.7 C 6.4 km/h
1266 11-04-2014 17:10:00 18.5 C 9.18 g/m*3 18.5 C 8.1 km/h
1267 11-04-2014 17:15:00 18.4 C 9.12 g/m*3 18.4 C 9.7 km/h
1268 11-04-2014 17:20:00 18.2 C 9.17 g/m*3 18.2 C 11.3 km/h
1269 11-04-2014 17:25:00 18.1 C 9.12 g/m*3 18.1 C 11.3 km/h
1270 11-04-2014 17:30:00 17.8 C 8.95 g/m*3 17.8 C 9.7 km/h
1271 11-04-2014 17:35:00 17.7 C 9.2 g/m*3 17.7 C 11.3 km/h
1272 11-04-2014 17:40:00 17.7 C 9.2 g/m*3 17.7 C 9.7 km/h
1273 11-04-2014 17:45:00 17.6 C 9.15 g/m*3 17.6 C 9.7 km/h
1274 11-04-2014 17:50:00 17.4 C 9.04 g/m*3 17.4 C 9.7 km/h
1275 11-04-2014 17:55:00 17.3 C 8.99 g/m*3 17.3 C 11.3 km/h
Sensor: Nr:Datum:Temp:Abs-Feuchte:Windchill:Wind:
Aussen-T/F 1276 11-04-2014 18:00:00 17.2 C 9.08 g/m*3 17.2 C 12.9 km/h
1277 11-04-2014 18:05:00 17.1 C 9.03 g/m*3 17.1 C 12.9 km/h
1278 11-04-2014 18:10:00 17.1 C 9.17 g/m*3 17.1 C 11.3 km/h
1279 11-04-2014 18:15:00 17.1 C 9.17 g/m*3 17.1 C 12.9 km/h
1280 11-04-2014 18:20:00 17.2 C 9.23 g/m*3 17.2 C 9.7 km/h
1281 11-04-2014 18:25:00 17.1 C 9.03 g/m*3 17.1 C 11.3 km/h
1282 11-04-2014 18:30:00 16.9 C 9.06 g/m*3 16.9 C 9.7 km/h
1283 11-04-2014 18:35:00 16.7 C 9.1 g/m*3 16.7 C 12.9 km/h
1284 11-04-2014 18:40:00 16.5 C 9.13 g/m*3 16.5 C 8.1 km/h
1285 11-04-2014 18:45:00 16.3 C 9.16 g/m*3 16.3 C 11.3 km/h
1286 11-04-2014 18:50:00 16.2 C 9.24 g/m*3 16.2 C 17.7 km/h
1287 11-04-2014 18:55:00 15.9 C 9.21 g/m*3 15.9 C 9.7 km/h
1288 11-04-2014 19:00:00 15.7 C 9.1 g/m*3 15.7 C 11.3 km/h
1289 11-04-2014 19:05:00 15.6 C 9.18 g/m*3 15.6 C 9.7 km/h
1290 11-04-2014 19:10:00 15.6 C 9.18 g/m*3 15.6 C 8.1 km/h
1291 11-04-2014 19:15:00 15.6 C 9.18 g/m*3 15.6 C 11.3 km/h
1292 11-04-2014 19:20:00 15.5 C 9.12 g/m*3 15.5 C 8.1 km/h
1293 11-04-2014 19:25:00 15.4 C 9.33 g/m*3 15.4 C 8.1 km/h
1294 11-04-2014 19:30:00 15.4 C 9.33 g/m*3 15.4 C 4.8 km/h
1295 11-04-2014 19:35:00 15.2 C 9.22 g/m*3 15.2 C 9.7 km/h
1296 11-04-2014 19:40:00 15.1 C 9.16 g/m*3 15.1 C 8.1 km/h
1297 11-04-2014 19:45:00 14.9 C 9.05 g/m*3 14.9 C 8.1 km/h
1298 11-04-2014 19:50:00 14.8 C 8.99 g/m*3 14.8 C 6.4 km/h
1299 11-04-2014 19:55:00 14.7 C 9.07 g/m*3 14.7 C 8.1 km/h
1300 11-04-2014 20:00:00 14.6 C 9.01 g/m*3 14.6 C 6.4 km/h
Sensor: Nr:Datum:Temp:Abs-Feuchte:Windchill:Wind:
Aussen-T/F 1301 11-04-2014 20:05:00 14.6 C 9.01 g/m*3 14.6 C 9.7 km/h
1302 11-04-2014 20:10:00 14.5 C 8.95 g/m*3 14.5 C 8.1 km/h
1303 11-04-2014 20:15:00 14.4 C 8.9 g/m*3 14.4 C 4.8 km/h
1304 11-04-2014 20:20:00 14.4 C 8.9 g/m*3 14.4 C 6.4 km/h
1305 11-04-2014 20:25:00 14.3 C 8.85 g/m*3 14.3 C 6.4 km/h
1306 11-04-2014 20:30:00 14.3 C 8.97 g/m*3 14.3 C 6.4 km/h
1307 11-04-2014 20:35:00 14.2 C 8.91 g/m*3 14.2 C 1.6 km/h
1308 11-04-2014 20:40:00 14.2 C 8.91 g/m*3 14.2 C 3.2 km/h
1309 11-04-2014 20:45:00 14.2 C 8.91 g/m*3 14.2 C 8.1 km/h
1310 11-04-2014 20:50:00 14.1 C 8.98 g/m*3 14.1 C 6.4 km/h
1311 11-04-2014 20:55:00 14 C 8.93 g/m*3 14 C 6.4 km/h
1312 11-04-2014 21:00:00 13.9 C 8.99 g/m*3 13.9 C 3.2 km/h
1313 11-04-2014 21:05:00 13.9 C 8.99 g/m*3 13.9 C 8.1 km/h
1314 11-04-2014 21:10:00 13.8 C 8.94 g/m*3 13.8 C 6.4 km/h
1315 11-04-2014 21:15:00 13.8 C 9.06 g/m*3 13.8 C 6.4 km/h
1316 11-04-2014 21:20:00 13.7 C 9 g/m*3 13.7 C 6.4 km/h
1317 11-04-2014 21:25:00 13.7 C 9 g/m*3 13.7 C 6.4 km/h
1318 11-04-2014 21:30:00 13.6 C 9.06 g/m*3 13.6 C 6.4 km/h
1319 11-04-2014 21:35:00 13.6 C 9.06 g/m*3 13.6 C 4.8 km/h
1320 11-04-2014 21:40:00 13.4 C 8.95 g/m*3 13.4 C 3.2 km/h
1321 11-04-2014 21:45:00 13.3 C 9.01 g/m*3 13.3 C 9.7 km/h
1322 11-04-2014 21:50:00 13.3 C 9.01 g/m*3 13.3 C 8.1 km/h
1323 11-04-2014 21:55:00 13.2 C 8.96 g/m*3 13.2 C 8.1 km/h
1324 11-04-2014 22:00:00 13.1 C 8.9 g/m*3 13.1 C 4.8 km/h
1325 11-04-2014 22:05:00 13.1 C 8.9 g/m*3 13.1 C 8.1 km/h
Sensor: Nr:Datum:Temp:Abs-Feuchte:Windchill:Wind:
Aussen-T/F 1326 11-04-2014 22:10:00 13 C 8.85 g/m*3 13 C 8.1 km/h
1327 11-04-2014 22:15:00 12.9 C 8.79 g/m*3 12.9 C 4.8 km/h
1328 11-04-2014 22:20:00 12.9 C 8.9 g/m*3 12.9 C 3.2 km/h
1329 11-04-2014 22:25:00 12.8 C 8.85 g/m*3 12.8 C 1.6 km/h
1330 11-04-2014 22:30:00 12.8 C 8.85 g/m*3 12.8 C 9.7 km/h
1331 11-04-2014 22:35:00 12.8 C 8.74 g/m*3 12.8 C 9.7 km/h
1332 11-04-2014 22:40:00 12.8 C 8.74 g/m*3 12.8 C 9.7 km/h
1333 11-04-2014 22:45:00 12.7 C 8.68 g/m*3 12.7 C 6.4 km/h
1334 11-04-2014 22:50:00 12.7 C 8.68 g/m*3 12.7 C 6.4 km/h
1335 11-04-2014 22:55:00 12.7 C 8.79 g/m*3 12.7 C 6.4 km/h
1336 11-04-2014 23:00:00 12.6 C 8.74 g/m*3 12.6 C 3.2 km/h
1337 11-04-2014 23:05:00 12.6 C 8.74 g/m*3 12.6 C 3.2 km/h
1338 11-04-2014 23:10:00 12.5 C 8.69 g/m*3 12.5 C 8.1 km/h
1339 11-04-2014 23:15:00 12.4 C 8.63 g/m*3 12.4 C 6.4 km/h
1340 11-04-2014 23:20:00 12.4 C 8.63 g/m*3 12.4 C 4.8 km/h
1341 11-04-2014 23:25:00 12.4 C 8.63 g/m*3 12.4 C 4.8 km/h
1342 11-04-2014 23:30:00 12.3 C 8.69 g/m*3 12.3 C 1.6 km/h
1343 11-04-2014 23:35:00 12.3 C 8.58 g/m*3 12.3 C 8.1 km/h
1344 11-04-2014 23:40:00 12.2 C 8.63 g/m*3 12.2 C 3.2 km/h
1345 11-04-2014 23:45:00 12.1 C 8.58 g/m*3 12.1 C 0 km/h
1346 11-04-2014 23:50:00 12.1 C 8.58 g/m*3 12.1 C 8.1 km/h
1347 11-04-2014 23:55:00 12 C 8.63 g/m*3 12 C 6.4 km/h
1348 12-04-2014 00:00:00 11.9 C 8.58 g/m*3 11.9 C 3.2 km/h
1349 12-04-2014 00:05:00 11.9 C 8.58 g/m*3 11.9 C 3.2 km/h
1350 12-04-2014 00:10:00 11.9 C 8.58 g/m*3 11.9 C 6.4 km/h
Sensor: Nr:Datum:Temp:Abs-Feuchte:Windchill:Wind:
Aussen-T/F 1351 12-04-2014 00:15:00 11.8 C 8.53 g/m*3 11.8 C 4.8 km/h
1352 12-04-2014 00:20:00 11.8 C 8.53 g/m*3 11.8 C 4.8 km/h
1353 12-04-2014 00:25:00 11.7 C 8.47 g/m*3 11.7 C 6.4 km/h
1354 12-04-2014 00:30:00 11.6 C 8.42 g/m*3 11.6 C 0 km/h
1355 12-04-2014 00:35:00 11.4 C 8.42 g/m*3 11.4 C 0 km/h
1356 12-04-2014 00:40:00 11.1 C 8.36 g/m*3 11.1 C 1.6 km/h
1357 12-04-2014 00:45:00 10.9 C 8.36 g/m*3 10.9 C 3.2 km/h
1358 12-04-2014 00:50:00 10.8 C 8.3 g/m*3 10.8 C 3.2 km/h
1359 12-04-2014 00:55:00 10.8 C 8.3 g/m*3 10.8 C 1.6 km/h
1360 12-04-2014 01:00:00 10.6 C 8.3 g/m*3 10.6 C 0 km/h
1361 12-04-2014 01:05:00 10.4 C 8.19 g/m*3 10.4 C 1.6 km/h
1362 12-04-2014 01:10:00 10.3 C 8.24 g/m*3 10.3 C 1.6 km/h
1363 12-04-2014 01:15:00 10.2 C 8.28 g/m*3 10.2 C 3.2 km/h
1364 12-04-2014 01:20:00 10.1 C 8.23 g/m*3 10.1 C 0 km/h
1365 12-04-2014 01:25:00 10.1 C 8.32 g/m*3 10.1 C 3.2 km/h
1366 12-04-2014 01:30:00 10.1 C 8.32 g/m*3 10.1 C 1.6 km/h
1367 12-04-2014 01:35:00 10.2 C 8.37 g/m*3 10.2 C 3.2 km/h
1368 12-04-2014 01:40:00 10.1 C 8.23 g/m*3 10.1 C 1.6 km/h
1369 12-04-2014 01:45:00 10.1 C 8.23 g/m*3 10.1 C 0 km/h
1370 12-04-2014 01:50:00 10 C 8.17 g/m*3 10 C 0 km/h
1371 12-04-2014 01:55:00 9.9 C 8.22 g/m*3 9.25 C 6.4 km/h
1372 12-04-2014 02:00:00 9.8 C 8.16 g/m*3 9.8 C 3.2 km/h
1373 12-04-2014 02:05:00 9.8 C 8.16 g/m*3 9.8 C 0 km/h
1374 12-04-2014 02:10:00 9.8 C 8.16 g/m*3 9.8 C 1.6 km/h
1375 12-04-2014 02:15:00 9.8 C 8.16 g/m*3 9.8 C 0 km/h
Sensor: Nr:Datum:Temp:Abs-Feuchte:Windchill:Wind:
Aussen-T/F 1376 12-04-2014 02:20:00 9.8 C 8.16 g/m*3 9.8 C 0 km/h
1377 12-04-2014 02:25:00 9.8 C 8.16 g/m*3 9.8 C 0 km/h
1378 12-04-2014 02:30:00 9.9 C 8.12 g/m*3 9.9 C 0 km/h
1379 12-04-2014 02:35:00 9.9 C 8.22 g/m*3 9.9 C 0 km/h
1380 12-04-2014 02:40:00 9.9 C 8.12 g/m*3 9.9 C 1.6 km/h
1381 12-04-2014 02:45:00 9.9 C 8.12 g/m*3 9.9 C 0 km/h
1382 12-04-2014 02:50:00 10 C 8.08 g/m*3 10 C 1.6 km/h
1383 12-04-2014 02:55:00 10 C 8.08 g/m*3 10 C 0 km/h
1384 12-04-2014 03:00:00 9.9 C 8.03 g/m*3 9.9 C 0 km/h
1385 12-04-2014 03:05:00 9.9 C 8.03 g/m*3 9.9 C 0 km/h
1386 12-04-2014 03:10:00 9.9 C 8.03 g/m*3 9.9 C 0 km/h
1387 12-04-2014 03:15:00 9.8 C 7.89 g/m*3 9.8 C 0 km/h
1388 12-04-2014 03:20:00 9.8 C 7.89 g/m*3 8.75 C 8.1 km/h
1389 12-04-2014 03:25:00 9.8 C 7.89 g/m*3 9.8 C 3.2 km/h
1390 12-04-2014 03:30:00 9.8 C 7.89 g/m*3 9.8 C 1.6 km/h
1391 12-04-2014 03:35:00 9.8 C 7.89 g/m*3 9.8 C 1.6 km/h
1392 12-04-2014 03:40:00 9.8 C 7.89 g/m*3 9.8 C 0 km/h
1393 12-04-2014 03:45:00 9.8 C 7.89 g/m*3 9.8 C 0 km/h
1394 12-04-2014 03:50:00 9.8 C 7.89 g/m*3 9.8 C 0 km/h
1395 12-04-2014 03:55:00 9.8 C 7.89 g/m*3 9.8 C 0 km/h
1396 12-04-2014 04:00:00 9.8 C 7.89 g/m*3 9.8 C 0 km/h
1397 12-04-2014 04:05:00 9.8 C 7.89 g/m*3 9.8 C 0 km/h
1398 12-04-2014 04:10:00 9.8 C 7.89 g/m*3 9.8 C 0 km/h
1399 12-04-2014 04:15:00 9.8 C 7.7 g/m*3 9.8 C 1.6 km/h
1400 12-04-2014 04:20:00 9.9 C 7.75 g/m*3 9.9 C 1.6 km/h
Sensor: Nr:Datum:Temp:Abs-Feuchte:Windchill:Wind:
Aussen-T/F 1401 12-04-2014 04:25:00 9.9 C 7.75 g/m*3 9.9 C 0 km/h
1402 12-04-2014 04:30:00 9.9 C 7.66 g/m*3 9.9 C 3.2 km/h
1403 12-04-2014 04:35:00 10 C 7.71 g/m*3 10 C 1.6 km/h
1404 12-04-2014 04:40:00 10 C 7.8 g/m*3 10 C 3.2 km/h
1405 12-04-2014 04:45:00 9.9 C 7.75 g/m*3 9.9 C 3.2 km/h
1406 12-04-2014 04:50:00 9.8 C 7.79 g/m*3 9.8 C 0 km/h
1407 12-04-2014 04:55:00 9.6 C 7.69 g/m*3 9.6 C 1.6 km/h
1408 12-04-2014 05:00:00 9.4 C 7.69 g/m*3 9.4 C 3.2 km/h
1409 12-04-2014 05:05:00 9.3 C 7.64 g/m*3 9.3 C 1.6 km/h
1410 12-04-2014 05:10:00 9.2 C 7.68 g/m*3 9.2 C 0 km/h
1411 12-04-2014 05:15:00 9.2 C 7.68 g/m*3 9.2 C 0 km/h
1412 12-04-2014 05:20:00 9.2 C 7.77 g/m*3 9.2 C 0 km/h
1413 12-04-2014 05:25:00 9.2 C 7.77 g/m*3 9.2 C 0 km/h
1414 12-04-2014 05:30:00 9.2 C 7.77 g/m*3 9.2 C 0 km/h
1415 12-04-2014 05:35:00 9.3 C 7.82 g/m*3 9.3 C 0 km/h
1416 12-04-2014 05:40:00 9.3 C 7.82 g/m*3 9.3 C 0 km/h
1417 12-04-2014 05:45:00 9.3 C 7.82 g/m*3 9.3 C 0 km/h
1418 12-04-2014 05:50:00 9.3 C 7.82 g/m*3 9.3 C 0 km/h
1419 12-04-2014 05:55:00 9.3 C 7.73 g/m*3 9.3 C 0 km/h
1420 12-04-2014 06:00:00 9.3 C 7.73 g/m*3 9.3 C 0 km/h
1421 12-04-2014 06:05:00 9.3 C 7.73 g/m*3 9.3 C 0 km/h
1422 12-04-2014 06:10:00 9.4 C 7.78 g/m*3 9.4 C 0 km/h
1423 12-04-2014 06:15:00 9.4 C 7.78 g/m*3 9.4 C 0 km/h
1424 12-04-2014 06:20:00 9.3 C 7.73 g/m*3 9.3 C 0 km/h
1425 12-04-2014 06:25:00 9.3 C 7.73 g/m*3 9.3 C 0 km/h
Sensor: Nr:Datum:Temp:Abs-Feuchte:Windchill:Wind:
Aussen-T/F 1426 12-04-2014 06:30:00 9.3 C 7.73 g/m*3 9.3 C 0 km/h
1427 12-04-2014 06:35:00 9.2 C 7.77 g/m*3 9.2 C 0 km/h
1428 12-04-2014 06:40:00 9.1 C 7.72 g/m*3 9.1 C 0 km/h
1429 12-04-2014 06:45:00 9.1 C 7.72 g/m*3 9.1 C 0 km/h
1430 12-04-2014 06:50:00 9 C 7.67 g/m*3 9 C 1.6 km/h
1431 12-04-2014 06:55:00 8.9 C 7.62 g/m*3 8.9 C 0 km/h
1432 12-04-2014 07:00:00 9 C 7.67 g/m*3 9 C 0 km/h
1433 12-04-2014 07:05:00 9 C 7.76 g/m*3 9 C 0 km/h
1434 12-04-2014 07:10:00 9.1 C 7.72 g/m*3 9.1 C 0 km/h
1435 12-04-2014 07:15:00 9.1 C 7.72 g/m*3 9.1 C 0 km/h
1436 12-04-2014 07:20:00 9.1 C 7.81 g/m*3 9.1 C 0 km/h
1437 12-04-2014 07:25:00 9.1 C 7.72 g/m*3 9.1 C 0 km/h
1438 12-04-2014 07:30:00 9.1 C 7.72 g/m*3 9.1 C 0 km/h
1439 12-04-2014 07:35:00 9.1 C 7.72 g/m*3 9.1 C 0 km/h
1440 12-04-2014 07:40:00 9.1 C 7.72 g/m*3 9.1 C 1.6 km/h
1441 12-04-2014 07:45:00 9.1 C 7.63 g/m*3 9.1 C 3.2 km/h
1442 12-04-2014 07:50:00 9.1 C 7.63 g/m*3 9.1 C 1.6 km/h
1443 12-04-2014 07:55:00 9.2 C 7.68 g/m*3 9.2 C 1.6 km/h
1444 12-04-2014 08:00:00 9.2 C 7.68 g/m*3 9.2 C 1.6 km/h
1445 12-04-2014 08:05:00 9.2 C 7.59 g/m*3 9.2 C 1.6 km/h
1446 12-04-2014 08:10:00 9.2 C 7.59 g/m*3 9.2 C 0 km/h
1447 12-04-2014 08:15:00 9.2 C 7.59 g/m*3 9.2 C 4.8 km/h
1448 12-04-2014 08:20:00 9.3 C 7.55 g/m*3 9.3 C 1.6 km/h
1449 12-04-2014 08:25:00 9.3 C 7.55 g/m*3 9.3 C 0 km/h
1450 12-04-2014 08:30:00 9.3 C 7.55 g/m*3 9.3 C 0 km/h
Sensor: Nr:Datum:Temp:Abs-Feuchte:Windchill:Wind:
Aussen-T/F 1451 12-04-2014 08:35:00 9.4 C 7.69 g/m*3 9.4 C 1.6 km/h
1452 12-04-2014 08:40:00 9.5 C 7.65 g/m*3 9.5 C 4.8 km/h
1453 12-04-2014 08:45:00 9.6 C 7.69 g/m*3 9.6 C 3.2 km/h
1454 12-04-2014 08:50:00 9.6 C 7.69 g/m*3 9.6 C 3.2 km/h
1455 12-04-2014 08:55:00 9.7 C 7.74 g/m*3 9.7 C 3.2 km/h
1456 12-04-2014 09:00:00 9.7 C 7.74 g/m*3 9.7 C 3.2 km/h
1457 12-04-2014 09:05:00 9.8 C 7.7 g/m*3 9.8 C 3.2 km/h
1458 12-04-2014 09:10:00 9.8 C 7.7 g/m*3 9.8 C 4.8 km/h
1459 12-04-2014 09:15:00 9.9 C 7.75 g/m*3 9.9 C 1.6 km/h
1460 12-04-2014 09:20:00 10 C 7.71 g/m*3 10 C 4.8 km/h
1461 12-04-2014 09:25:00 10.1 C 7.75 g/m*3 10.1 C 4.8 km/h
1462 12-04-2014 09:30:00 10.1 C 7.85 g/m*3 10.1 C 1.6 km/h
1463 12-04-2014 09:35:00 10.1 C 7.75 g/m*3 10.1 C 1.6 km/h
1464 12-04-2014 09:40:00 10.2 C 7.8 g/m*3 10.2 C 4.8 km/h
1465 12-04-2014 09:45:00 10.3 C 7.76 g/m*3 10.3 C 1.6 km/h
1466 12-04-2014 09:50:00 10.3 C 7.66 g/m*3 10.3 C 1.6 km/h
1467 12-04-2014 09:55:00 10.4 C 7.81 g/m*3 10.4 C 3.2 km/h
1468 12-04-2014 10:00:00 10.6 C 7.91 g/m*3 10.6 C 4.8 km/h
1469 12-04-2014 10:05:00 10.8 C 8.01 g/m*3 10.29 C 6.4 km/h
1470 12-04-2014 10:10:00 10.9 C 7.96 g/m*3 10.9 C 3.2 km/h
1471 12-04-2014 10:15:00 11.2 C 8.01 g/m*3 11.2 C 3.2 km/h
1472 12-04-2014 10:20:00 11.3 C 8.06 g/m*3 11.3 C 3.2 km/h
1473 12-04-2014 10:25:00 11.5 C 8.26 g/m*3 11.5 C 6.4 km/h
1474 12-04-2014 10:30:00 11.6 C 8.21 g/m*3 11.6 C 9.7 km/h
1475 12-04-2014 10:35:00 11.6 C 8.21 g/m*3 11.6 C 6.4 km/h
Sensor: Nr:Datum:Temp:Abs-Feuchte:Windchill:Wind:
Aussen-T/F 1476 12-04-2014 10:40:00 11.8 C 8.31 g/m*3 11.8 C 3.2 km/h
1477 12-04-2014 10:45:00 12 C 8.31 g/m*3 12 C 4.8 km/h
1478 12-04-2014 10:50:00 12.1 C 8.36 g/m*3 12.1 C 6.4 km/h
1479 12-04-2014 10:55:00 12.1 C 8.26 g/m*3 12.1 C 4.8 km/h
1480 12-04-2014 11:00:00 12.2 C 8.31 g/m*3 12.2 C 6.4 km/h
1481 12-04-2014 11:05:00 12.2 C 8.2 g/m*3 12.2 C 6.4 km/h
1482 12-04-2014 11:10:00 12.2 C 8.2 g/m*3 12.2 C 6.4 km/h
1483 12-04-2014 11:15:00 12.3 C 8.36 g/m*3 12.3 C 6.4 km/h
1484 12-04-2014 11:20:00 12.4 C 8.3 g/m*3 12.4 C 6.4 km/h
1485 12-04-2014 11:25:00 12.7 C 8.35 g/m*3 12.7 C 6.4 km/h
1486 12-04-2014 11:30:00 12.7 C 8.35 g/m*3 12.7 C 4.8 km/h
1487 12-04-2014 11:35:00 12.8 C 8.29 g/m*3 12.8 C 4.8 km/h
1488 12-04-2014 11:40:00 13 C 8.28 g/m*3 13 C 11.3 km/h
1489 12-04-2014 11:45:00 13 C 8.39 g/m*3 13 C 11.3 km/h
1490 12-04-2014 11:50:00 13.2 C 8.61 g/m*3 13.2 C 8.1 km/h
1491 12-04-2014 11:55:00 13.3 C 8.66 g/m*3 13.3 C 3.2 km/h
1492 12-04-2014 12:00:00 13.3 C 8.32 g/m*3 13.3 C 4.8 km/h
1493 12-04-2014 12:05:00 13.4 C 8.6 g/m*3 13.4 C 6.4 km/h
1494 12-04-2014 12:10:00 13.4 C 8.6 g/m*3 13.4 C 8.1 km/h
1495 12-04-2014 12:15:00 13.7 C 8.64 g/m*3 13.7 C 3.2 km/h
1496 12-04-2014 12:20:00 13.8 C 8.46 g/m*3 13.8 C 6.4 km/h
1497 12-04-2014 12:25:00 13.9 C 8.63 g/m*3 13.9 C 6.4 km/h
1498 12-04-2014 12:30:00 13.9 C 8.51 g/m*3 13.9 C 9.7 km/h
1499 12-04-2014 12:35:00 13.9 C 8.51 g/m*3 13.9 C 6.4 km/h
1500 12-04-2014 12:40:00 14.1 C 8.5 g/m*3 14.1 C 4.8 km/h
Sensor: Nr:Datum:Temp:Abs-Feuchte:Windchill:Wind:
Aussen-T/F 1501 12-04-2014 12:45:00 14.4 C 8.65 g/m*3 14.4 C 3.2 km/h
1502 12-04-2014 12:50:00 14.7 C 8.94 g/m*3 14.7 C 4.8 km/h
1503 12-04-2014 12:55:00 15.1 C 9.16 g/m*3 15.1 C 6.4 km/h
1504 12-04-2014 13:00:00 15.4 C 9.07 g/m*3 15.4 C 8.1 km/h
1505 12-04-2014 13:05:00 15.6 C 8.78 g/m*3 15.6 C 3.2 km/h
1506 12-04-2014 13:10:00 15.6 C 8.78 g/m*3 15.6 C 6.4 km/h
1507 12-04-2014 13:15:00 15.8 C 8.75 g/m*3 15.8 C 8.1 km/h
1508 12-04-2014 13:20:00 15.9 C 8.53 g/m*3 15.9 C 8.1 km/h
1509 12-04-2014 13:25:00 15.8 C 8.62 g/m*3 15.8 C 6.4 km/h
1510 12-04-2014 13:30:00 16 C 8.72 g/m*3 16 C 3.2 km/h
1511 12-04-2014 13:35:00 16.4 C 8.65 g/m*3 16.4 C 11.3 km/h
1512 12-04-2014 13:40:00 16.5 C 8.57 g/m*3 16.5 C 6.4 km/h
1513 12-04-2014 13:45:00 16.4 C 8.51 g/m*3 16.4 C 8.1 km/h
1514 12-04-2014 13:50:00 16.4 C 8.65 g/m*3 16.4 C 9.7 km/h
1515 12-04-2014 13:55:00 16.6 C 8.33 g/m*3 16.6 C 4.8 km/h
1516 12-04-2014 14:00:00 16.8 C 8.44 g/m*3 16.8 C 9.7 km/h
1517 12-04-2014 14:05:00 16.8 C 8.58 g/m*3 16.8 C 6.4 km/h
1518 12-04-2014 14:10:00 16.9 C 8.05 g/m*3 16.9 C 6.4 km/h
1519 12-04-2014 14:15:00 17.1 C 7.86 g/m*3 17.1 C 9.7 km/h
1520 12-04-2014 14:20:00 17.3 C 7.81 g/m*3 17.3 C 12.9 km/h
1521 12-04-2014 14:25:00 17.3 C 7.66 g/m*3 17.3 C 6.4 km/h
1522 12-04-2014 14:30:00 17.1 C 7.57 g/m*3 17.1 C 6.4 km/h
1523 12-04-2014 14:35:00 17 C 7.96 g/m*3 17 C 11.3 km/h
1524 12-04-2014 14:40:00 16.9 C 7.62 g/m*3 16.9 C 12.9 km/h
1525 12-04-2014 14:45:00 16.8 C 8.01 g/m*3 16.8 C 8.1 km/h
Sensor: Nr:Datum:Temp:Abs-Feuchte:Windchill:Wind:
Aussen-T/F 1526 12-04-2014 14:50:00 16.7 C 7.96 g/m*3 16.7 C 11.3 km/h
1527 12-04-2014 14:55:00 16.8 C 7.58 g/m*3 16.8 C 9.7 km/h
1528 12-04-2014 15:00:00 16.8 C 7.29 g/m*3 16.8 C 8.1 km/h
1529 12-04-2014 15:05:00 16.7 C 7.67 g/m*3 16.7 C 11.3 km/h
1530 12-04-2014 15:10:00 16.8 C 7.72 g/m*3 16.8 C 9.7 km/h
1531 12-04-2014 15:15:00 17.2 C 7.91 g/m*3 17.2 C 8.1 km/h
1532 12-04-2014 15:20:00 17.3 C 7.51 g/m*3 17.3 C 6.4 km/h
1533 12-04-2014 15:25:00 17.3 C 7.81 g/m*3 17.3 C 4.8 km/h
1534 12-04-2014 15:30:00 17.6 C 7.8 g/m*3 17.6 C 8.1 km/h
1535 12-04-2014 15:35:00 17.9 C 7.94 g/m*3 17.9 C 12.9 km/h
1536 12-04-2014 15:40:00 18 C 7.99 g/m*3 18 C 8.1 km/h
1537 12-04-2014 15:45:00 18.2 C 7.93 g/m*3 18.2 C 12.9 km/h
1538 12-04-2014 15:50:00 18.3 C 7.97 g/m*3 18.3 C 11.3 km/h
1539 12-04-2014 15:55:00 18.5 C 8.07 g/m*3 18.5 C 8.1 km/h
1540 12-04-2014 16:00:00 18.3 C 7.35 g/m*3 18.3 C 6.4 km/h
1541 12-04-2014 16:05:00 18.2 C 7.77 g/m*3 18.2 C 12.9 km/h
1542 12-04-2014 16:10:00 18.1 C 6.95 g/m*3 18.1 C 9.7 km/h
1543 12-04-2014 16:15:00 18.1 C 6.95 g/m*3 18.1 C 12.9 km/h
1544 12-04-2014 16:20:00 18.2 C 6.99 g/m*3 18.2 C 4.8 km/h
1545 12-04-2014 16:25:00 18.2 C 7.46 g/m*3 18.2 C 4.8 km/h
1546 12-04-2014 16:30:00 18.2 C 7.31 g/m*3 18.2 C 11.3 km/h
1547 12-04-2014 16:35:00 18.3 C 6.88 g/m*3 18.3 C 6.4 km/h
1548 12-04-2014 16:40:00 18.3 C 6.72 g/m*3 18.3 C 6.4 km/h
1549 12-04-2014 16:45:00 18.3 C 6.25 g/m*3 18.3 C 8.1 km/h
1550 12-04-2014 16:50:00 18.2 C 6.53 g/m*3 18.2 C 4.8 km/h
Sensor: Nr:Datum:Temp:Abs-Feuchte:Windchill:Wind:
Aussen-T/F 1551 12-04-2014 16:55:00 18.1 C 6.49 g/m*3 18.1 C 8.1 km/h
1552 12-04-2014 17:00:00 18.1 C 6.33 g/m*3 18.1 C 9.7 km/h
1553 12-04-2014 17:05:00 18.2 C 6.99 g/m*3 18.2 C 9.7 km/h
1554 12-04-2014 17:10:00 17.9 C 6.72 g/m*3 17.9 C 9.7 km/h
1555 12-04-2014 17:15:00 17.8 C 6.68 g/m*3 17.8 C 9.7 km/h
1556 12-04-2014 17:20:00 17.5 C 7.01 g/m*3 17.5 C 11.3 km/h
1557 12-04-2014 17:25:00 17.2 C 7.03 g/m*3 17.2 C 6.4 km/h
1558 12-04-2014 17:30:00 17 C 6.8 g/m*3 17 C 11.3 km/h
1559 12-04-2014 17:35:00 16.9 C 7.34 g/m*3 16.9 C 9.7 km/h
1560 12-04-2014 17:40:00 16.8 C 7.01 g/m*3 16.8 C 11.3 km/h
1561 12-04-2014 17:45:00 16.6 C 7.2 g/m*3 16.6 C 8.1 km/h
1562 12-04-2014 17:50:00 16.4 C 7.12 g/m*3 16.4 C 9.7 km/h
1563 12-04-2014 17:55:00 16.3 C 7.08 g/m*3 16.3 C 14.5 km/h
1564 12-04-2014 18:00:00 16.2 C 7.03 g/m*3 16.2 C 9.7 km/h
1565 12-04-2014 18:05:00 16.1 C 6.85 g/m*3 16.1 C 11.3 km/h
1566 12-04-2014 18:10:00 16 C 7.08 g/m*3 16 C 6.4 km/h
1567 12-04-2014 18:15:00 15.9 C 6.77 g/m*3 15.9 C 8.1 km/h
1568 12-04-2014 18:20:00 15.9 C 6.91 g/m*3 15.9 C 4.8 km/h
1569 12-04-2014 18:25:00 15.8 C 6.87 g/m*3 15.8 C 9.7 km/h
1570 12-04-2014 18:30:00 15.7 C 7.09 g/m*3 15.7 C 8.1 km/h
1571 12-04-2014 18:35:00 15.7 C 7.23 g/m*3 15.7 C 6.4 km/h
1572 12-04-2014 18:40:00 15.6 C 7.18 g/m*3 15.6 C 8.1 km/h
1573 12-04-2014 18:45:00 15.6 C 7.18 g/m*3 15.6 C 8.1 km/h
1574 12-04-2014 18:50:00 15.5 C 7.01 g/m*3 15.5 C 9.7 km/h
1575 12-04-2014 18:55:00 15.4 C 6.96 g/m*3 15.4 C 6.4 km/h
Sensor: Nr:Datum:Temp:Abs-Feuchte:Windchill:Wind:
Aussen-T/F 1576 12-04-2014 19:00:00 15.4 C 6.96 g/m*3 15.4 C 8.1 km/h
1577 12-04-2014 19:05:00 15.4 C 6.96 g/m*3 15.4 C 12.9 km/h
1578 12-04-2014 19:10:00 15.3 C 6.92 g/m*3 15.3 C 6.4 km/h
1579 12-04-2014 19:15:00 15.3 C 6.92 g/m*3 15.3 C 6.4 km/h
1580 12-04-2014 19:20:00 15.2 C 7.01 g/m*3 15.2 C 9.7 km/h
1581 12-04-2014 19:25:00 15.1 C 6.84 g/m*3 15.1 C 8.1 km/h
1582 12-04-2014 19:30:00 15.1 C 6.84 g/m*3 15.1 C 3.2 km/h
1583 12-04-2014 19:35:00 15.1 C 6.84 g/m*3 15.1 C 8.1 km/h
1584 12-04-2014 19:55:00 14.6 C 6.88 g/m*3 14.6 C 8.1 km/h
1585 12-04-2014 20:00:00 14.5 C 6.84 g/m*3 14.5 C 6.4 km/h
1586 12-04-2014 20:05:00 14.4 C 6.8 g/m*3 14.4 C 4.8 km/h
1587 12-04-2014 20:10:00 14.3 C 6.76 g/m*3 14.3 C 6.4 km/h
1588 12-04-2014 20:15:00 14.2 C 6.59 g/m*3 14.2 C 9.7 km/h
1589 12-04-2014 20:20:00 14.2 C 6.59 g/m*3 14.2 C 6.4 km/h
1590 12-04-2014 20:25:00 14.1 C 6.67 g/m*3 14.1 C 6.4 km/h
1591 12-04-2014 20:30:00 14.1 C 6.67 g/m*3 14.1 C 1.6 km/h
1592 12-04-2014 20:35:00 13.9 C 6.71 g/m*3 13.9 C 9.7 km/h
1593 12-04-2014 20:40:00 13.9 C 6.71 g/m*3 13.9 C 6.4 km/h
1594 12-04-2014 20:45:00 13.9 C 6.71 g/m*3 13.9 C 3.2 km/h
1595 12-04-2014 20:50:00 13.8 C 6.79 g/m*3 13.8 C 0 km/h
1596 12-04-2014 20:55:00 13.7 C 7.1 g/m*3 13.7 C 3.2 km/h
1597 12-04-2014 21:00:00 13.6 C 6.83 g/m*3 13.6 C 3.2 km/h
1598 12-04-2014 21:05:00 13.6 C 6.83 g/m*3 13.6 C 4.8 km/h
1599 12-04-2014 21:10:00 13.6 C 6.83 g/m*3 13.6 C 3.2 km/h
1600 12-04-2014 21:15:00 13.6 C 6.83 g/m*3 13.6 C 4.8 km/h
Sensor: Nr:Datum:Temp:Abs-Feuchte:Windchill:Wind:
Aussen-T/F 1601 12-04-2014 21:20:00 13.6 C 7.06 g/m*3 13.6 C 1.6 km/h
1602 12-04-2014 21:25:00 13.4 C 7.21 g/m*3 13.4 C 0 km/h
1603 12-04-2014 21:30:00 13.3 C 7.16 g/m*3 13.3 C 3.2 km/h
1604 12-04-2014 21:35:00 13.2 C 7.35 g/m*3 13.2 C 4.8 km/h
1605 12-04-2014 21:40:00 13.1 C 7.3 g/m*3 13.1 C 6.4 km/h
1606 12-04-2014 21:45:00 13 C 7.37 g/m*3 13 C 0 km/h
1607 12-04-2014 21:50:00 12.8 C 7.28 g/m*3 12.8 C 1.6 km/h
1608 12-04-2014 21:55:00 12.6 C 7.19 g/m*3 12.6 C 1.6 km/h
1609 12-04-2014 22:00:00 12.4 C 7.32 g/m*3 12.4 C 0 km/h
1610 12-04-2014 22:05:00 12.2 C 7.23 g/m*3 12.2 C 0 km/h
1611 12-04-2014 22:10:00 12.2 C 7.23 g/m*3 12.2 C 0 km/h
1612 12-04-2014 22:15:00 12.1 C 7.29 g/m*3 12.1 C 1.6 km/h
1613 12-04-2014 22:20:00 11.9 C 7.1 g/m*3 11.9 C 0 km/h
1614 12-04-2014 22:25:00 11.8 C 7.05 g/m*3 11.8 C 0 km/h
1615 12-04-2014 22:30:00 11.8 C 7.16 g/m*3 11.8 C 3.2 km/h
1616 12-04-2014 22:35:00 11.8 C 7.26 g/m*3 11.8 C 0 km/h
1617 12-04-2014 22:40:00 11.8 C 7.26 g/m*3 11.8 C 0 km/h
1618 12-04-2014 22:45:00 11.8 C 7.16 g/m*3 11.8 C 0 km/h
1619 12-04-2014 22:50:00 11.8 C 6.95 g/m*3 11.8 C 0 km/h
1620 12-04-2014 22:55:00 11.8 C 6.84 g/m*3 11.8 C 3.2 km/h
1621 12-04-2014 23:00:00 11.9 C 6.78 g/m*3 11.9 C 0 km/h
1622 12-04-2014 23:05:00 12 C 7.03 g/m*3 12 C 1.6 km/h
1623 12-04-2014 23:10:00 11.9 C 6.67 g/m*3 11.9 C 1.6 km/h
1624 12-04-2014 23:15:00 11.9 C 6.88 g/m*3 11.9 C 3.2 km/h
1625 12-04-2014 23:20:00 11.9 C 6.88 g/m*3 11.9 C 1.6 km/h
Sensor: Nr:Datum:Temp:Abs-Feuchte:Windchill:Wind:
Aussen-T/F 1626 12-04-2014 23:25:00 11.9 C 6.99 g/m*3 11.9 C 1.6 km/h
1627 12-04-2014 23:30:00 11.8 C 7.16 g/m*3 11.8 C 0 km/h
1628 12-04-2014 23:35:00 11.7 C 7.01 g/m*3 11.7 C 0 km/h
1629 12-04-2014 23:40:00 11.7 C 7.11 g/m*3 11.7 C 1.6 km/h
1630 12-04-2014 23:45:00 11.6 C 7.28 g/m*3 11.6 C 1.6 km/h
1631 12-04-2014 23:50:00 11.6 C 7.17 g/m*3 11.6 C 3.2 km/h
1632 12-04-2014 23:55:00 11.6 C 7.17 g/m*3 11.6 C 0 km/h
1633 13-04-2014 00:00:00 11.6 C 7.07 g/m*3 11.6 C 0 km/h
1634 13-04-2014 00:05:00 11.6 C 7.17 g/m*3 11.6 C 1.6 km/h
1635 13-04-2014 00:10:00 11.6 C 7.28 g/m*3 11.6 C 0 km/h
1636 13-04-2014 00:15:00 11.6 C 7.28 g/m*3 11.6 C 0 km/h
1637 13-04-2014 00:20:00 11.5 C 7.23 g/m*3 11.5 C 0 km/h
1638 13-04-2014 00:25:00 11.4 C 7.19 g/m*3 11.4 C 0 km/h
1639 13-04-2014 00:30:00 11.4 C 7.29 g/m*3 11.4 C 0 km/h
1640 13-04-2014 00:35:00 11.4 C 7.29 g/m*3 11.4 C 0 km/h
1641 13-04-2014 00:40:00 11.4 C 7.29 g/m*3 11.4 C 1.6 km/h
1642 13-04-2014 00:45:00 11.3 C 7.24 g/m*3 11.3 C 0 km/h
1643 13-04-2014 00:50:00 11.3 C 7.34 g/m*3 11.3 C 1.6 km/h
1644 13-04-2014 00:55:00 11.2 C 7.3 g/m*3 11.2 C 0 km/h
1645 13-04-2014 01:00:00 11.1 C 7.35 g/m*3 11.1 C 0 km/h
1646 13-04-2014 01:05:00 11.1 C 7.15 g/m*3 11.1 C 0 km/h
1647 13-04-2014 01:10:00 11.1 C 7.35 g/m*3 11.1 C 3.2 km/h
1648 13-04-2014 01:15:00 11.1 C 7.45 g/m*3 11.1 C 3.2 km/h
1649 13-04-2014 01:20:00 11.1 C 7.45 g/m*3 11.1 C 3.2 km/h
1650 13-04-2014 01:25:00 11.1 C 7.45 g/m*3 11.1 C 3.2 km/h
Sensor: Nr:Datum:Temp:Abs-Feuchte:Windchill:Wind:
Aussen-T/F 1651 13-04-2014 01:30:00 11.1 C 7.35 g/m*3 11.1 C 1.6 km/h
1652 13-04-2014 01:35:00 11.1 C 7.45 g/m*3 11.1 C 3.2 km/h
1653 13-04-2014 01:40:00 11.1 C 7.35 g/m*3 11.1 C 0 km/h
1654 13-04-2014 01:45:00 11 C 7.41 g/m*3 11 C 0 km/h
1655 13-04-2014 01:50:00 10.9 C 7.16 g/m*3 10.9 C 3.2 km/h
1656 13-04-2014 01:55:00 11.1 C 7.35 g/m*3 11.1 C 1.6 km/h
1657 13-04-2014 02:00:00 11.1 C 7.45 g/m*3 11.1 C 1.6 km/h
1658 13-04-2014 02:05:00 11.1 C 7.25 g/m*3 11.1 C 1.6 km/h
1659 13-04-2014 02:10:00 11.1 C 7.35 g/m*3 11.1 C 0 km/h
1660 13-04-2014 02:15:00 11.1 C 7.35 g/m*3 11.1 C 3.2 km/h
1661 13-04-2014 02:20:00 11.1 C 7.25 g/m*3 11.1 C 1.6 km/h
1662 13-04-2014 02:25:00 11.1 C 7.35 g/m*3 11.1 C 1.6 km/h
1663 13-04-2014 02:30:00 11 C 7.41 g/m*3 11 C 1.6 km/h
1664 13-04-2014 02:35:00 10.8 C 7.41 g/m*3 10.8 C 0 km/h
1665 13-04-2014 02:40:00 10.6 C 7.32 g/m*3 10.6 C 1.6 km/h
1666 13-04-2014 02:45:00 10.3 C 7.18 g/m*3 10.3 C 1.6 km/h
1667 13-04-2014 02:50:00 10.3 C 7.28 g/m*3 10.3 C 1.6 km/h
1668 13-04-2014 02:55:00 10.2 C 7.33 g/m*3 10.2 C 0 km/h
1669 13-04-2014 03:00:00 10.1 C 7.28 g/m*3 10.1 C 3.2 km/h
1670 13-04-2014 03:05:00 10.1 C 7.28 g/m*3 10.1 C 1.6 km/h
1671 13-04-2014 03:10:00 9.9 C 7.28 g/m*3 9.9 C 0 km/h
1672 13-04-2014 03:15:00 9.8 C 7.14 g/m*3 9.8 C 0 km/h
1673 13-04-2014 03:20:00 9.7 C 7.28 g/m*3 9.7 C 0 km/h
1674 13-04-2014 03:25:00 9.7 C 7.19 g/m*3 9.7 C 0 km/h
1675 13-04-2014 03:30:00 9.7 C 7.19 g/m*3 9.7 C 0 km/h
Sensor: Nr:Datum:Temp:Abs-Feuchte:Windchill:Wind:
Aussen-T/F 1676 13-04-2014 03:35:00 9.8 C 7.33 g/m*3 9.8 C 0 km/h
1677 13-04-2014 03:40:00 10 C 7.14 g/m*3 10 C 3.2 km/h
1678 13-04-2014 03:45:00 10.2 C 7.33 g/m*3 10.2 C 0 km/h
1679 13-04-2014 03:50:00 10.3 C 7.47 g/m*3 10.3 C 0 km/h
1680 13-04-2014 03:55:00 10.3 C 7.37 g/m*3 10.3 C 3.2 km/h
1681 13-04-2014 04:00:00 10.3 C 7.37 g/m*3 10.3 C 0 km/h
1682 13-04-2014 04:05:00 10.2 C 7.33 g/m*3 10.2 C 0 km/h
1683 13-04-2014 04:10:00 10.2 C 7.33 g/m*3 10.2 C 0 km/h
1684 13-04-2014 04:15:00 10 C 7.33 g/m*3 10 C 1.6 km/h
1685 13-04-2014 04:20:00 9.8 C 7.24 g/m*3 9.8 C 0 km/h
1686 13-04-2014 04:25:00 9.5 C 7.19 g/m*3 9.5 C 0 km/h
1687 13-04-2014 04:30:00 9.4 C 7.24 g/m*3 9.4 C 1.6 km/h
1688 13-04-2014 04:35:00 9.3 C 7.19 g/m*3 9.3 C 0 km/h
1689 13-04-2014 04:40:00 9.3 C 7.19 g/m*3 9.3 C 3.2 km/h
1690 13-04-2014 04:45:00 9.4 C 7.24 g/m*3 9.4 C 0 km/h
1691 13-04-2014 04:50:00 9.4 C 7.15 g/m*3 9.4 C 1.6 km/h
1692 13-04-2014 04:55:00 9.5 C 7.19 g/m*3 9.5 C 1.6 km/h
1693 13-04-2014 05:00:00 9.4 C 7.15 g/m*3 9.4 C 1.6 km/h
1694 13-04-2014 05:05:00 9.3 C 7.1 g/m*3 9.3 C 0 km/h
1695 13-04-2014 05:10:00 9.2 C 7.14 g/m*3 9.2 C 0 km/h
1696 13-04-2014 05:15:00 9 C 7.14 g/m*3 9 C 0 km/h
1697 13-04-2014 05:20:00 8.8 C 7.05 g/m*3 8.8 C 3.2 km/h
1698 13-04-2014 05:25:00 8.7 C 7.09 g/m*3 8.7 C 0 km/h
1699 13-04-2014 05:30:00 8.5 C 7 g/m*3 8.5 C 0 km/h
1700 13-04-2014 05:35:00 8.4 C 6.96 g/m*3 8.4 C 0 km/h
Sensor: Nr:Datum:Temp:Abs-Feuchte:Windchill:Wind:
Aussen-T/F 1701 13-04-2014 05:40:00 8.3 C 7 g/m*3 8.3 C 1.6 km/h
1702 13-04-2014 05:45:00 8.1 C 6.91 g/m*3 8.1 C 0 km/h
1703 13-04-2014 05:50:00 8 C 6.94 g/m*3 8 C 1.6 km/h
1704 13-04-2014 05:55:00 7.9 C 6.82 g/m*3 7.9 C 1.6 km/h
1705 13-04-2014 06:00:00 7.8 C 6.94 g/m*3 7.8 C 1.6 km/h
1706 13-04-2014 06:05:00 7.8 C 6.94 g/m*3 7.8 C 3.2 km/h
1707 13-04-2014 06:10:00 7.7 C 6.89 g/m*3 7.7 C 0 km/h
1708 13-04-2014 06:15:00 7.6 C 6.85 g/m*3 7.6 C 0 km/h
1709 13-04-2014 06:20:00 7.5 C 6.88 g/m*3 7.5 C 0 km/h
1710 13-04-2014 06:25:00 7.4 C 6.76 g/m*3 7.4 C 0 km/h
1711 13-04-2014 06:30:00 7.4 C 6.84 g/m*3 7.4 C 0 km/h
1712 13-04-2014 06:35:00 7.3 C 6.79 g/m*3 7.3 C 3.2 km/h
1713 13-04-2014 06:40:00 7.3 C 6.79 g/m*3 7.3 C 1.6 km/h
1714 13-04-2014 06:45:00 7.2 C 6.75 g/m*3 7.2 C 0 km/h
1715 13-04-2014 06:50:00 7.1 C 6.71 g/m*3 7.1 C 0 km/h
1716 13-04-2014 06:55:00 6.9 C 6.7 g/m*3 6.9 C 0 km/h
1717 13-04-2014 07:00:00 6.9 C 6.7 g/m*3 6.9 C 4.8 km/h
1718 13-04-2014 07:05:00 6.8 C 6.73 g/m*3 6.8 C 0 km/h
1719 13-04-2014 07:10:00 6.8 C 6.73 g/m*3 6.8 C 0 km/h
1720 13-04-2014 07:15:00 6.7 C 6.69 g/m*3 6.7 C 0 km/h
1721 13-04-2014 07:20:00 6.8 C 6.73 g/m*3 6.8 C 1.6 km/h
1722 13-04-2014 07:25:00 6.7 C 6.69 g/m*3 6.7 C 0 km/h
1723 13-04-2014 07:30:00 6.7 C 6.69 g/m*3 6.7 C 0 km/h
1724 13-04-2014 07:35:00 6.7 C 6.69 g/m*3 6.7 C 0 km/h
1725 13-04-2014 07:40:00 6.7 C 6.69 g/m*3 6.7 C 0 km/h
Sensor: Nr:Datum:Temp:Abs-Feuchte:Windchill:Wind:
Aussen-T/F 1726 13-04-2014 07:45:00 6.7 C 6.69 g/m*3 6.7 C 0 km/h
1727 13-04-2014 07:50:00 6.8 C 6.73 g/m*3 6.8 C 0 km/h
1728 13-04-2014 07:55:00 6.8 C 6.73 g/m*3 6.8 C 0 km/h
1729 13-04-2014 08:00:00 6.8 C 6.81 g/m*3 6.8 C 1.6 km/h
1730 13-04-2014 08:05:00 6.8 C 6.81 g/m*3 6.8 C 0 km/h
1731 13-04-2014 08:10:00 6.8 C 6.81 g/m*3 6.8 C 0 km/h
1732 13-04-2014 08:15:00 6.9 C 6.85 g/m*3 6.9 C 0 km/h
1733 13-04-2014 08:20:00 7 C 6.9 g/m*3 7 C 1.6 km/h
1734 13-04-2014 08:25:00 7.1 C 6.94 g/m*3 7.1 C 1.6 km/h
1735 13-04-2014 08:30:00 7.2 C 6.99 g/m*3 7.2 C 0 km/h
1736 13-04-2014 08:35:00 7.3 C 7.03 g/m*3 7.3 C 0 km/h
1737 13-04-2014 08:40:00 7.5 C 7.04 g/m*3 7.5 C 0 km/h
1738 13-04-2014 08:45:00 7.7 C 7.14 g/m*3 7.7 C 0 km/h
1739 13-04-2014 08:50:00 8.1 C 7.16 g/m*3 7.17 C 6.4 km/h
1740 13-04-2014 08:55:00 8.4 C 7.13 g/m*3 8.4 C 1.6 km/h
1741 13-04-2014 09:00:00 8.8 C 7.31 g/m*3 8.8 C 0 km/h
1742 13-04-2014 09:05:00 8.9 C 7.27 g/m*3 8.9 C 3.2 km/h
1743 13-04-2014 09:10:00 9.1 C 7.19 g/m*3 9.1 C 4.8 km/h
1744 13-04-2014 09:15:00 9.3 C 7.37 g/m*3 9.3 C 1.6 km/h
1745 13-04-2014 09:20:00 9.3 C 7.28 g/m*3 9.3 C 4.8 km/h
1746 13-04-2014 09:25:00 9.4 C 7.33 g/m*3 9.4 C 3.2 km/h
1747 13-04-2014 09:30:00 9.6 C 7.33 g/m*3 9.6 C 4.8 km/h
1748 13-04-2014 09:35:00 9.7 C 7.38 g/m*3 9.7 C 0 km/h
1749 13-04-2014 09:40:00 9.7 C 7.47 g/m*3 9.7 C 0 km/h
1750 13-04-2014 09:45:00 9.8 C 7.52 g/m*3 9.8 C 4.8 km/h
Sensor: Nr:Datum:Temp:Abs-Feuchte:Windchill:Wind:
Aussen-T/F 1751 13-04-2014 09:50:00 10 C 7.33 g/m*3 10 C 4.8 km/h
1752 13-04-2014 09:55:00 10.1 C 7.38 g/m*3 10.1 C 1.6 km/h
1753 13-04-2014 10:00:00 10.3 C 7.37 g/m*3 10.3 C 1.6 km/h
1754 13-04-2014 10:05:00 10.4 C 7.42 g/m*3 9.83 C 6.4 km/h
1755 13-04-2014 10:10:00 10.6 C 7.42 g/m*3 10.6 C 3.2 km/h
1756 13-04-2014 10:15:00 10.7 C 7.37 g/m*3 10.7 C 1.6 km/h
1757 13-04-2014 10:20:00 10.8 C 7.51 g/m*3 10.8 C 3.2 km/h
1758 13-04-2014 10:25:00 10.9 C 7.46 g/m*3 10.9 C 4.8 km/h
1759 13-04-2014 10:30:00 11.1 C 7.35 g/m*3 11.1 C 4.8 km/h
1760 13-04-2014 10:35:00 11.2 C 7.4 g/m*3 11.2 C 3.2 km/h
1761 13-04-2014 10:40:00 11.3 C 7.45 g/m*3 11.3 C 0 km/h
1762 13-04-2014 10:45:00 11.4 C 7.39 g/m*3 11.4 C 3.2 km/h
1763 13-04-2014 10:50:00 11.6 C 7.48 g/m*3 11.6 C 1.6 km/h
1764 13-04-2014 10:55:00 11.7 C 7.32 g/m*3 11.7 C 1.6 km/h
1765 13-04-2014 11:00:00 11.9 C 7.63 g/m*3 11.9 C 3.2 km/h
1766 13-04-2014 11:05:00 12.2 C 7.66 g/m*3 12.2 C 4.8 km/h
1767 13-04-2014 11:10:00 12.4 C 7.76 g/m*3 12.4 C 8.1 km/h
1768 13-04-2014 11:15:00 12.6 C 7.85 g/m*3 12.6 C 4.8 km/h
1769 13-04-2014 11:20:00 12.7 C 7.46 g/m*3 12.7 C 3.2 km/h
1770 13-04-2014 11:25:00 12.8 C 7.5 g/m*3 12.8 C 1.6 km/h
1771 13-04-2014 11:30:00 12.8 C 7.5 g/m*3 12.8 C 4.8 km/h
1772 13-04-2014 11:35:00 12.9 C 7.55 g/m*3 12.9 C 9.7 km/h
1773 13-04-2014 11:40:00 13 C 7.14 g/m*3 13 C 9.7 km/h
1774 13-04-2014 11:45:00 13.1 C 7.19 g/m*3 13.1 C 6.4 km/h
1775 13-04-2014 11:50:00 13.3 C 7.39 g/m*3 13.3 C 8.1 km/h
Sensor: Nr:Datum:Temp:Abs-Feuchte:Windchill:Wind:
Aussen-T/F 1776 13-04-2014 11:55:00 13.4 C 7.32 g/m*3 13.4 C 4.8 km/h
1777 13-04-2014 12:00:00 13.4 C 7.32 g/m*3 13.4 C 6.4 km/h
1778 13-04-2014 12:05:00 13.7 C 7.46 g/m*3 13.7 C 8.1 km/h
1779 13-04-2014 12:10:00 13.7 C 7.46 g/m*3 13.7 C 4.8 km/h
1780 13-04-2014 12:15:00 14 C 7.6 g/m*3 14 C 6.4 km/h
1781 13-04-2014 12:20:00 14.3 C 7.86 g/m*3 14.3 C 9.7 km/h
1782 13-04-2014 12:25:00 14.4 C 7.54 g/m*3 14.4 C 8.1 km/h
1783 13-04-2014 12:30:00 14.4 C 7.54 g/m*3 14.4 C 6.4 km/h
1784 13-04-2014 12:35:00 14.7 C 7.68 g/m*3 14.7 C 4.8 km/h
1785 13-04-2014 12:40:00 14.7 C 7.68 g/m*3 14.7 C 3.2 km/h
1786 13-04-2014 13:05:00 14.9 C 7.77 g/m*3 14.9 C 4.8 km/h
1787 13-04-2014 13:10:00 14.8 C 7.85 g/m*3 14.8 C 6.4 km/h
1788 13-04-2014 13:15:00 14.7 C 7.68 g/m*3 14.7 C 4.8 km/h
1789 13-04-2014 13:20:00 14.6 C 7.76 g/m*3 14.6 C 6.4 km/h
1790 13-04-2014 13:25:00 14.6 C 7.63 g/m*3 14.6 C 8.1 km/h
1791 13-04-2014 13:30:00 14.6 C 7.63 g/m*3 14.6 C 9.7 km/h
1792 13-04-2014 13:35:00 14.6 C 7.76 g/m*3 14.6 C 12.9 km/h
1793 13-04-2014 13:40:00 14.6 C 8.01 g/m*3 14.6 C 12.9 km/h
1794 13-04-2014 13:45:00 14.6 C 7.76 g/m*3 14.6 C 6.4 km/h
1795 13-04-2014 13:50:00 14.6 C 8.01 g/m*3 14.6 C 8.1 km/h
1796 13-04-2014 13:55:00 14.6 C 8.01 g/m*3 14.6 C 9.7 km/h
1797 13-04-2014 14:00:00 14.5 C 8.08 g/m*3 14.5 C 11.3 km/h
1798 13-04-2014 14:05:00 14.4 C 8.03 g/m*3 14.4 C 8.1 km/h
1799 13-04-2014 14:10:00 14.4 C 8.03 g/m*3 14.4 C 8.1 km/h
1800 13-04-2014 14:15:00 14.4 C 7.91 g/m*3 14.4 C 6.4 km/h
Sensor: Nr:Datum:Temp:Abs-Feuchte:Windchill:Wind:
Aussen-T/F 1801 13-04-2014 14:20:00 14.6 C 8.01 g/m*3 14.6 C 11.3 km/h
1802 13-04-2014 14:25:00 14.6 C 8.01 g/m*3 14.6 C 4.8 km/h
1803 13-04-2014 14:30:00 14.8 C 8.23 g/m*3 14.8 C 6.4 km/h
1804 13-04-2014 14:35:00 14.9 C 7.9 g/m*3 14.9 C 4.8 km/h
1805 13-04-2014 14:40:00 14.9 C 8.03 g/m*3 14.9 C 3.2 km/h
1806 13-04-2014 14:45:00 15 C 7.95 g/m*3 15 C 4.8 km/h
1807 13-04-2014 14:50:00 14.9 C 7.77 g/m*3 14.9 C 3.2 km/h
1808 13-04-2014 14:55:00 14.7 C 7.81 g/m*3 14.7 C 1.6 km/h
1809 13-04-2014 15:00:00 14.5 C 7.96 g/m*3 14.5 C 6.4 km/h
1810 13-04-2014 15:05:00 14.5 C 7.84 g/m*3 14.5 C 11.3 km/h
1811 13-04-2014 15:10:00 14.5 C 7.84 g/m*3 14.5 C 6.4 km/h
1812 13-04-2014 15:15:00 14.5 C 7.84 g/m*3 14.5 C 4.8 km/h
1813 13-04-2014 15:20:00 14.9 C 8.16 g/m*3 14.9 C 11.3 km/h
1814 13-04-2014 15:25:00 15.1 C 8.26 g/m*3 15.1 C 11.3 km/h
1815 13-04-2014 15:30:00 15.1 C 8.13 g/m*3 15.1 C 9.7 km/h
1816 13-04-2014 15:35:00 15.2 C 8.05 g/m*3 15.2 C 8.1 km/h
1817 13-04-2014 15:40:00 15.2 C 8.05 g/m*3 15.2 C 11.3 km/h
1818 13-04-2014 15:45:00 15.2 C 7.92 g/m*3 15.2 C 16.1 km/h
1819 13-04-2014 15:50:00 15.2 C 7.92 g/m*3 15.2 C 17.7 km/h
1820 13-04-2014 15:55:00 14.9 C 7.65 g/m*3 14.9 C 17.7 km/h
1821 13-04-2014 16:00:00 14.8 C 7.85 g/m*3 14.8 C 6.4 km/h
1822 13-04-2014 16:05:00 14.7 C 7.81 g/m*3 14.7 C 6.4 km/h
1823 13-04-2014 16:10:00 14.6 C 7.76 g/m*3 14.6 C 9.7 km/h
1824 13-04-2014 16:15:00 14.6 C 7.76 g/m*3 14.6 C 9.7 km/h
1825 13-04-2014 16:20:00 14.6 C 7.88 g/m*3 14.6 C 11.3 km/h
Sensor: Nr:Datum:Temp:Abs-Feuchte:Windchill:Wind:
Aussen-T/F 1826 13-04-2014 16:25:00 15 C 8.33 g/m*3 15 C 6.4 km/h
1827 13-04-2014 16:30:00 15.2 C 8.05 g/m*3 15.2 C 12.9 km/h
1828 13-04-2014 16:35:00 15.3 C 8.23 g/m*3 15.3 C 8.1 km/h
1829 13-04-2014 16:40:00 15.3 C 7.97 g/m*3 15.3 C 11.3 km/h
1830 13-04-2014 16:45:00 15.2 C 7.92 g/m*3 15.2 C 8.1 km/h
1831 13-04-2014 16:50:00 15 C 7.69 g/m*3 15 C 11.3 km/h
1832 13-04-2014 16:55:00 14.9 C 7.65 g/m*3 14.9 C 8.1 km/h
1833 13-04-2014 17:00:00 14.9 C 7.65 g/m*3 14.9 C 8.1 km/h
1834 13-04-2014 17:05:00 14.9 C 7.52 g/m*3 14.9 C 11.3 km/h
1835 13-04-2014 17:10:00 14.9 C 7.52 g/m*3 14.9 C 9.7 km/h
1836 13-04-2014 17:15:00 14.9 C 7.39 g/m*3 14.9 C 11.3 km/h
1837 13-04-2014 17:20:00 14.9 C 7.39 g/m*3 14.9 C 8.1 km/h
1838 13-04-2014 17:25:00 14.9 C 7.39 g/m*3 14.9 C 9.7 km/h
1839 13-04-2014 17:30:00 14.9 C 7.39 g/m*3 14.9 C 11.3 km/h
1840 13-04-2014 17:35:00 14.9 C 7.39 g/m*3 14.9 C 6.4 km/h
1841 13-04-2014 17:40:00 15.1 C 7.35 g/m*3 15.1 C 9.7 km/h
1842 13-04-2014 17:45:00 15.3 C 7.18 g/m*3 15.3 C 9.7 km/h
1843 13-04-2014 17:50:00 15.3 C 7.05 g/m*3 15.3 C 12.9 km/h
1844 13-04-2014 17:55:00 15.3 C 6.92 g/m*3 15.3 C 12.9 km/h
1845 13-04-2014 18:00:00 15.1 C 7.1 g/m*3 15.1 C 12.9 km/h
1846 13-04-2014 18:05:00 15.1 C 7.22 g/m*3 15.1 C 9.7 km/h
1847 13-04-2014 18:10:00 15.1 C 7.22 g/m*3 15.1 C 8.1 km/h
1848 13-04-2014 18:15:00 15.2 C 7.01 g/m*3 15.2 C 17.7 km/h
1849 13-04-2014 18:20:00 15.5 C 7.14 g/m*3 15.5 C 6.4 km/h
1850 13-04-2014 18:25:00 15.8 C 6.87 g/m*3 15.8 C 8.1 km/h
Sensor: Nr:Datum:Temp:Abs-Feuchte:Windchill:Wind:
Aussen-T/F 1851 13-04-2014 18:30:00 15.8 C 7 g/m*3 15.8 C 8.1 km/h
1852 13-04-2014 18:35:00 15.3 C 6.79 g/m*3 15.3 C 12.9 km/h
1853 13-04-2014 18:40:00 15 C 7.05 g/m*3 15 C 6.4 km/h
1854 13-04-2014 18:45:00 14.6 C 6.88 g/m*3 14.6 C 9.7 km/h
1855 13-04-2014 18:50:00 14.4 C 7.05 g/m*3 14.4 C 9.7 km/h
1856 13-04-2014 18:55:00 14.3 C 7 g/m*3 14.3 C 6.4 km/h
1857 13-04-2014 19:00:00 14.2 C 6.84 g/m*3 14.2 C 9.7 km/h
1858 13-04-2014 19:05:00 14.1 C 6.8 g/m*3 14.1 C 11.3 km/h
1859 13-04-2014 19:10:00 14.1 C 6.8 g/m*3 14.1 C 8.1 km/h
1860 13-04-2014 19:15:00 14.1 C 6.8 g/m*3 14.1 C 9.7 km/h
1861 13-04-2014 19:20:00 13.9 C 6.71 g/m*3 13.9 C 6.4 km/h
1862 13-04-2014 19:25:00 13.9 C 7.07 g/m*3 13.9 C 14.5 km/h
1863 13-04-2014 19:30:00 13.8 C 7.15 g/m*3 13.8 C 9.7 km/h
1864 13-04-2014 19:35:00 13.8 C 7.15 g/m*3 13.8 C 9.7 km/h
1865 13-04-2014 19:40:00 13.7 C 7.1 g/m*3 13.7 C 4.8 km/h
1866 13-04-2014 19:45:00 13.7 C 7.1 g/m*3 13.7 C 4.8 km/h
1867 13-04-2014 19:50:00 13.5 C 7.02 g/m*3 13.5 C 3.2 km/h
1868 13-04-2014 19:55:00 13.3 C 7.16 g/m*3 13.3 C 11.3 km/h
1869 13-04-2014 20:00:00 13.3 C 7.05 g/m*3 13.3 C 4.8 km/h
1870 13-04-2014 20:05:00 13.3 C 7.16 g/m*3 13.3 C 8.1 km/h
1871 13-04-2014 20:10:00 13.2 C 7.12 g/m*3 13.2 C 3.2 km/h
1872 13-04-2014 20:15:00 13.2 C 7.35 g/m*3 13.2 C 3.2 km/h
1873 13-04-2014 20:20:00 13.1 C 7.42 g/m*3 13.1 C 3.2 km/h
1874 13-04-2014 20:25:00 13.1 C 7.42 g/m*3 13.1 C 3.2 km/h
1875 13-04-2014 20:30:00 13.1 C 7.42 g/m*3 13.1 C 1.6 km/h
Sensor: Nr:Datum:Temp:Abs-Feuchte:Windchill:Wind:
Aussen-T/F 1876 13-04-2014 20:35:00 12.8 C 7.28 g/m*3 12.8 C 4.8 km/h
1877 13-04-2014 20:40:00 12.8 C 7.28 g/m*3 12.8 C 3.2 km/h
1878 13-04-2014 20:45:00 12.8 C 7.28 g/m*3 12.8 C 3.2 km/h
1879 13-04-2014 20:50:00 12.7 C 7.35 g/m*3 12.7 C 3.2 km/h
1880 13-04-2014 20:55:00 12.6 C 7.3 g/m*3 12.6 C 1.6 km/h
1881 13-04-2014 21:00:00 12.5 C 7.48 g/m*3 12.5 C 1.6 km/h
1882 13-04-2014 21:05:00 12.3 C 7.28 g/m*3 12.3 C 1.6 km/h
1883 13-04-2014 21:10:00 12.3 C 7.38 g/m*3 12.3 C 3.2 km/h
1884 13-04-2014 21:15:00 12.2 C 7.23 g/m*3 12.2 C 1.6 km/h
1885 13-04-2014 21:20:00 12.2 C 7.34 g/m*3 12.2 C 1.6 km/h
1886 13-04-2014 21:25:00 12.1 C 7.4 g/m*3 12.1 C 1.6 km/h
1887 13-04-2014 21:30:00 11.9 C 7.52 g/m*3 11.9 C 3.2 km/h
1888 13-04-2014 21:35:00 11.8 C 7.37 g/m*3 11.8 C 1.6 km/h
1889 13-04-2014 21:40:00 11.7 C 7.32 g/m*3 11.7 C 1.6 km/h
1890 13-04-2014 21:45:00 11.7 C 7.32 g/m*3 11.7 C 1.6 km/h
1891 13-04-2014 21:50:00 11.6 C 7.28 g/m*3 11.6 C 3.2 km/h
1892 13-04-2014 21:55:00 11.5 C 7.33 g/m*3 11.5 C 1.6 km/h
1893 13-04-2014 22:00:00 11.4 C 7.39 g/m*3 11.4 C 4.8 km/h
1894 13-04-2014 22:05:00 11.3 C 7.24 g/m*3 11.3 C 3.2 km/h
1895 13-04-2014 22:10:00 11.3 C 7.34 g/m*3 11.3 C 4.8 km/h
1896 13-04-2014 22:15:00 11.3 C 7.24 g/m*3 11.3 C 3.2 km/h
1897 13-04-2014 22:20:00 11.3 C 7.14 g/m*3 11.3 C 1.6 km/h
1898 13-04-2014 22:25:00 11.3 C 7.14 g/m*3 11.3 C 3.2 km/h
1899 13-04-2014 22:30:00 11.3 C 7.14 g/m*3 11.3 C 4.8 km/h
1900 13-04-2014 22:35:00 11.2 C 7.1 g/m*3 11.2 C 1.6 km/h
Sensor: Nr:Datum:Temp:Abs-Feuchte:Windchill:Wind:
Aussen-T/F 1901 13-04-2014 22:40:00 11.1 C 7.25 g/m*3 11.1 C 3.2 km/h
1902 13-04-2014 22:45:00 10.8 C 7.22 g/m*3 10.8 C 3.2 km/h
1903 13-04-2014 22:50:00 10.6 C 7.12 g/m*3 10.6 C 4.8 km/h
1904 13-04-2014 22:55:00 10.4 C 7.04 g/m*3 10.4 C 4.8 km/h
1905 13-04-2014 23:00:00 10.2 C 7.04 g/m*3 10.2 C 1.6 km/h
1906 13-04-2014 23:05:00 10.1 C 7.19 g/m*3 10.1 C 3.2 km/h
1907 13-04-2014 23:10:00 9.9 C 7.1 g/m*3 9.9 C 3.2 km/h
1908 13-04-2014 23:15:00 9.8 C 7.05 g/m*3 9.8 C 4.8 km/h
1909 13-04-2014 23:20:00 9.8 C 7.05 g/m*3 9.8 C 3.2 km/h
1910 13-04-2014 23:25:00 9.7 C 7.01 g/m*3 9.7 C 3.2 km/h
1911 13-04-2014 23:30:00 9.8 C 6.96 g/m*3 9.8 C 4.8 km/h
1912 13-04-2014 23:35:00 9.8 C 6.96 g/m*3 9.8 C 4.8 km/h
1913 13-04-2014 23:40:00 9.7 C 7.01 g/m*3 9.7 C 0 km/h
1914 13-04-2014 23:45:00 9.6 C 6.96 g/m*3 9.6 C 1.6 km/h
1915 13-04-2014 23:50:00 9.4 C 6.96 g/m*3 9.4 C 4.8 km/h
1916 13-04-2014 23:55:00 9.3 C 7.01 g/m*3 9.3 C 1.6 km/h
1917 14-04-2014 00:00:00 9.1 C 7.01 g/m*3 9.1 C 1.6 km/h
1918 14-04-2014 00:05:00 9 C 6.88 g/m*3 9 C 1.6 km/h
1919 14-04-2014 00:10:00 8.9 C 6.83 g/m*3 8.9 C 3.2 km/h
1920 14-04-2014 00:15:00 8.9 C 6.92 g/m*3 8.9 C 3.2 km/h
1921 14-04-2014 00:20:00 8.8 C 6.88 g/m*3 8.8 C 4.8 km/h
1922 14-04-2014 00:25:00 8.7 C 6.92 g/m*3 8.7 C 0 km/h
1923 14-04-2014 00:30:00 8.6 C 6.87 g/m*3 7.75 C 6.4 km/h
1924 14-04-2014 00:35:00 8.6 C 6.87 g/m*3 7.75 C 6.4 km/h
1925 14-04-2014 00:40:00 8.7 C 6.92 g/m*3 8.7 C 1.6 km/h
Sensor: Nr:Datum:Temp:Abs-Feuchte:Windchill:Wind:
Aussen-T/F 1926 14-04-2014 00:45:00 8.9 C 6.92 g/m*3 8.1 C 6.4 km/h
1927 14-04-2014 00:50:00 9 C 6.96 g/m*3 9 C 3.2 km/h
1928 14-04-2014 00:55:00 9.1 C 7.01 g/m*3 9.1 C 0 km/h
1929 14-04-2014 01:00:00 9.1 C 6.92 g/m*3 9.1 C 4.8 km/h
1930 14-04-2014 01:05:00 9.2 C 6.97 g/m*3 8.05 C 8.1 km/h
1931 14-04-2014 01:10:00 9.2 C 6.97 g/m*3 9.2 C 3.2 km/h
1932 14-04-2014 01:15:00 9.1 C 6.92 g/m*3 9.1 C 4.8 km/h
1933 14-04-2014 01:20:00 9.1 C 7.01 g/m*3 9.1 C 0 km/h
1934 14-04-2014 01:25:00 9.1 C 7.01 g/m*3 9.1 C 3.2 km/h
1935 14-04-2014 01:30:00 9.2 C 6.97 g/m*3 8.45 C 6.4 km/h
1936 14-04-2014 01:35:00 9.4 C 6.96 g/m*3 8.68 C 6.4 km/h
1937 14-04-2014 01:40:00 9.5 C 6.92 g/m*3 9.5 C 4.8 km/h
1938 14-04-2014 01:45:00 9.6 C 6.96 g/m*3 8.91 C 6.4 km/h
1939 14-04-2014 01:50:00 9.6 C 6.96 g/m*3 8.91 C 6.4 km/h
1940 14-04-2014 01:55:00 9.6 C 6.96 g/m*3 8.52 C 8.1 km/h
1941 14-04-2014 02:00:00 9.5 C 7.01 g/m*3 9.5 C 4.8 km/h
1942 14-04-2014 02:05:00 9.5 C 7.01 g/m*3 9.5 C 4.8 km/h
1943 14-04-2014 02:10:00 9.4 C 6.96 g/m*3 9.4 C 4.8 km/h
1944 14-04-2014 02:15:00 9.4 C 6.96 g/m*3 9.4 C 3.2 km/h
1945 14-04-2014 02:20:00 9.3 C 7.01 g/m*3 9.3 C 1.6 km/h
1946 14-04-2014 02:25:00 9 C 6.96 g/m*3 9 C 1.6 km/h
1947 14-04-2014 02:30:00 8.7 C 6.92 g/m*3 8.7 C 0 km/h
1948 14-04-2014 02:35:00 8.4 C 6.79 g/m*3 8.4 C 0 km/h
1949 14-04-2014 02:40:00 8.2 C 6.78 g/m*3 8.2 C 3.2 km/h
1950 14-04-2014 02:45:00 8.2 C 6.87 g/m*3 8.2 C 4.8 km/h
Sensor: Nr:Datum:Temp:Abs-Feuchte:Windchill:Wind:
Aussen-T/F 1951 14-04-2014 02:50:00 8.2 C 6.87 g/m*3 8.2 C 3.2 km/h
1952 14-04-2014 02:55:00 8.1 C 6.82 g/m*3 8.1 C 0 km/h
1953 14-04-2014 03:00:00 7.9 C 6.82 g/m*3 7.9 C 0 km/h
1954 14-04-2014 03:05:00 7.7 C 6.73 g/m*3 7.7 C 1.6 km/h
1955 14-04-2014 03:10:00 7.5 C 6.72 g/m*3 7.5 C 1.6 km/h
1956 14-04-2014 03:15:00 7.4 C 6.68 g/m*3 7.4 C 1.6 km/h
1957 14-04-2014 03:20:00 7.2 C 6.67 g/m*3 7.2 C 0 km/h
1958 14-04-2014 03:25:00 7.2 C 6.67 g/m*3 7.2 C 0 km/h
1959 14-04-2014 03:30:00 7.1 C 6.63 g/m*3 7.1 C 4.8 km/h
1960 14-04-2014 03:35:00 7.1 C 6.71 g/m*3 6.02 C 6.4 km/h
1961 14-04-2014 03:40:00 7.2 C 6.75 g/m*3 5.35 C 9.7 km/h
1962 14-04-2014 03:45:00 7.3 C 6.79 g/m*3 5.47 C 9.7 km/h
1963 14-04-2014 03:50:00 7.4 C 6.76 g/m*3 5.93 C 8.1 km/h
1964 14-04-2014 03:55:00 7.5 C 6.72 g/m*3 5.14 C 12.9 km/h
1965 14-04-2014 04:00:00 7.5 C 6.72 g/m*3 6.05 C 8.1 km/h
1966 14-04-2014 04:05:00 7.5 C 6.72 g/m*3 5.7 C 9.7 km/h
1967 14-04-2014 04:10:00 7.6 C 6.77 g/m*3 5.82 C 9.7 km/h
1968 14-04-2014 04:15:00 7.7 C 6.81 g/m*3 6.28 C 8.1 km/h
1969 14-04-2014 04:20:00 7.7 C 6.73 g/m*3 5.65 C 11.3 km/h
1970 14-04-2014 04:25:00 7.7 C 6.73 g/m*3 5.65 C 11.3 km/h
1971 14-04-2014 04:30:00 7.6 C 6.69 g/m*3 6.6 C 6.4 km/h
1972 14-04-2014 04:35:00 7.5 C 6.72 g/m*3 5.41 C 11.3 km/h
1973 14-04-2014 04:40:00 7.4 C 6.68 g/m*3 5.58 C 9.7 km/h
1974 14-04-2014 04:45:00 7.4 C 6.68 g/m*3 6.37 C 6.4 km/h
1975 14-04-2014 04:50:00 7.6 C 6.77 g/m*3 5.53 C 11.3 km/h
Sensor: Nr:Datum:Temp:Abs-Feuchte:Windchill:Wind:
Aussen-T/F 1976 14-04-2014 04:55:00 7.7 C 6.81 g/m*3 5.65 C 11.3 km/h
1977 14-04-2014 05:00:00 7.8 C 6.77 g/m*3 6.4 C 8.1 km/h
1978 14-04-2014 05:05:00 7.8 C 6.77 g/m*3 6.06 C 9.7 km/h
1979 14-04-2014 05:10:00 7.8 C 6.77 g/m*3 5.77 C 11.3 km/h
1980 14-04-2014 05:15:00 7.8 C 6.77 g/m*3 6.4 C 8.1 km/h
1981 14-04-2014 05:20:00 7.8 C 6.77 g/m*3 6.06 C 9.7 km/h
1982 14-04-2014 05:25:00 7.8 C 6.77 g/m*3 6.4 C 8.1 km/h
1983 14-04-2014 05:30:00 7.8 C 6.77 g/m*3 6.4 C 8.1 km/h
1984 14-04-2014 05:35:00 7.8 C 6.77 g/m*3 6.4 C 8.1 km/h
1985 14-04-2014 05:40:00 7.9 C 6.82 g/m*3 6.18 C 9.7 km/h
1986 14-04-2014 05:45:00 8 C 6.78 g/m*3 6.3 C 9.7 km/h
1987 14-04-2014 05:50:00 8.1 C 6.82 g/m*3 5.64 C 14.5 km/h
1988 14-04-2014 05:55:00 8.1 C 6.82 g/m*3 6.75 C 8.1 km/h
1989 14-04-2014 06:00:00 8.2 C 6.87 g/m*3 6.54 C 9.7 km/h
1990 14-04-2014 06:05:00 8.3 C 6.83 g/m*3 6.66 C 9.7 km/h
1991 14-04-2014 06:10:00 8.3 C 6.83 g/m*3 6.66 C 9.7 km/h
1992 14-04-2014 06:15:00 8.3 C 6.83 g/m*3 6.12 C 12.9 km/h
1993 14-04-2014 06:20:00 8.4 C 6.87 g/m*3 7.52 C 6.4 km/h
1994 14-04-2014 06:25:00 8.4 C 6.87 g/m*3 6.78 C 9.7 km/h
1995 14-04-2014 06:30:00 8.5 C 6.92 g/m*3 7.64 C 6.4 km/h
1996 14-04-2014 06:35:00 8.5 C 6.92 g/m*3 7.64 C 6.4 km/h
1997 14-04-2014 06:40:00 8.5 C 6.92 g/m*3 7.22 C 8.1 km/h
1998 14-04-2014 06:45:00 8.6 C 6.96 g/m*3 7.34 C 8.1 km/h
1999 14-04-2014 06:50:00 8.6 C 6.96 g/m*3 7.75 C 6.4 km/h
2000 14-04-2014 06:55:00 8.6 C 6.96 g/m*3 8.6 C 4.8 km/h
Sensor: Nr:Datum:Temp:Abs-Feuchte:Windchill:Wind:
Aussen-T/F 2001 14-04-2014 07:00:00 8.6 C 6.96 g/m*3 8.6 C 4.8 km/h
2002 14-04-2014 07:05:00 8.5 C 6.92 g/m*3 6.9 C 9.7 km/h
2003 14-04-2014 07:10:00 8.5 C 6.92 g/m*3 8.5 C 4.8 km/h
2004 14-04-2014 07:15:00 8.6 C 6.96 g/m*3 7.34 C 8.1 km/h
2005 14-04-2014 07:20:00 8.6 C 6.96 g/m*3 8.6 C 3.2 km/h
2006 14-04-2014 07:25:00 8.6 C 6.96 g/m*3 7.34 C 8.1 km/h
2007 14-04-2014 07:30:00 8.6 C 6.96 g/m*3 7.75 C 6.4 km/h
2008 14-04-2014 07:35:00 8.6 C 6.96 g/m*3 8.6 C 4.8 km/h
2009 14-04-2014 07:40:00 8.6 C 6.96 g/m*3 7.34 C 8.1 km/h
2010 14-04-2014 07:45:00 8.7 C 7.01 g/m*3 8.7 C 3.2 km/h
2011 14-04-2014 07:50:00 8.7 C 7.01 g/m*3 7.46 C 8.1 km/h
2012 14-04-2014 07:55:00 8.7 C 7.09 g/m*3 7.46 C 8.1 km/h
2013 14-04-2014 08:00:00 8.7 C 7.09 g/m*3 7.13 C 9.7 km/h
2014 14-04-2014 08:05:00 8.7 C 7.09 g/m*3 6.85 C 11.3 km/h
2015 14-04-2014 08:10:00 8.7 C 7.09 g/m*3 7.46 C 8.1 km/h
2016 14-04-2014 08:15:00 8.7 C 7.09 g/m*3 7.87 C 6.4 km/h
2017 14-04-2014 08:20:00 8.8 C 7.14 g/m*3 7.58 C 8.1 km/h
2018 14-04-2014 08:25:00 8.8 C 7.14 g/m*3 7.58 C 8.1 km/h
2019 14-04-2014 08:30:00 8.9 C 7.1 g/m*3 7.37 C 9.7 km/h
2020 14-04-2014 08:35:00 8.9 C 7.18 g/m*3 7.09 C 11.3 km/h
2021 14-04-2014 08:40:00 8.9 C 7.18 g/m*3 8.1 C 6.4 km/h
2022 14-04-2014 08:45:00 8.9 C 7.18 g/m*3 7.69 C 8.1 km/h
2023 14-04-2014 08:50:00 9 C 7.05 g/m*3 7.49 C 9.7 km/h
2024 14-04-2014 08:55:00 9.2 C 6.97 g/m*3 7.73 C 9.7 km/h
2025 14-04-2014 09:00:00 9.4 C 6.96 g/m*3 8.28 C 8.1 km/h
Sensor: Nr:Datum:Temp:Abs-Feuchte:Windchill:Wind:
Aussen-T/F 2026 14-04-2014 09:05:00 9.5 C 7.1 g/m*3 8.4 C 8.1 km/h
2027 14-04-2014 09:10:00 9.4 C 7.42 g/m*3 9.4 C 3.2 km/h
2028 14-04-2014 09:15:00 9.4 C 7.42 g/m*3 9.4 C 3.2 km/h
2029 14-04-2014 09:20:00 9.5 C 7.46 g/m*3 9.5 C 3.2 km/h
2030 14-04-2014 09:25:00 9.6 C 7.42 g/m*3 9.6 C 3.2 km/h
2031 14-04-2014 09:30:00 9.7 C 6.82 g/m*3 7.41 C 16.1 km/h
2032 14-04-2014 09:35:00 9.9 C 6.82 g/m*3 8.3 C 11.3 km/h
2033 14-04-2014 09:40:00 10.2 C 6.85 g/m*3 8.43 C 12.9 km/h
2034 14-04-2014 09:45:00 10.3 C 6.9 g/m*3 9.04 C 9.7 km/h
2035 14-04-2014 09:50:00 10.4 C 6.55 g/m*3 8.67 C 12.9 km/h
2036 14-04-2014 09:55:00 10.6 C 6.73 g/m*3 9.14 C 11.3 km/h
2037 14-04-2014 10:00:00 10.7 C 6.78 g/m*3 8.84 C 14.5 km/h
2038 14-04-2014 10:05:00 10.8 C 6.42 g/m*3 7.79 C 27.4 km/h
2039 14-04-2014 10:10:00 10.9 C 6.56 g/m*3 8.9 C 16.1 km/h
2040 14-04-2014 10:15:00 11 C 6.21 g/m*3 9.4 C 12.9 km/h
2041 14-04-2014 10:20:00 11.1 C 6.45 g/m*3 11.1 C 19.3 km/h
2042 14-04-2014 10:25:00 11 C 6.51 g/m*3 9.21 C 14.5 km/h
2043 14-04-2014 10:30:00 10.7 C 6.78 g/m*3 8.65 C 16.1 km/h
2044 14-04-2014 10:35:00 10.4 C 6.84 g/m*3 7.8 C 20.9 km/h
2045 14-04-2014 10:40:00 10.1 C 6.81 g/m*3 7.57 C 19.3 km/h
2046 14-04-2014 10:45:00 9.8 C 6.87 g/m*3 8.75 C 8.1 km/h
2047 14-04-2014 10:50:00 9.8 C 6.77 g/m*3 7.36 C 17.7 km/h
2048 14-04-2014 10:55:00 9.6 C 6.78 g/m*3 7.7 C 12.9 km/h
2049 14-04-2014 11:00:00 9.4 C 6.87 g/m*3 8.28 C 8.1 km/h
2050 14-04-2014 11:05:00 9.3 C 6.92 g/m*3 7.85 C 9.7 km/h
Sensor: Nr:Datum:Temp:Abs-Feuchte:Windchill:Wind:
Aussen-T/F 2051 14-04-2014 11:10:00 9.2 C 6.79 g/m*3 8.45 C 6.4 km/h
2052 14-04-2014 11:15:00 9.3 C 7.01 g/m*3 9.3 C 1.6 km/h
2053 14-04-2014 11:20:00 9.4 C 7.05 g/m*3 8.68 C 6.4 km/h
2054 14-04-2014 11:25:00 9.9 C 6.91 g/m*3 8.56 C 9.7 km/h
2055 14-04-2014 11:30:00 10.4 C 6.84 g/m*3 8.9 C 11.3 km/h
2056 14-04-2014 11:35:00 10.7 C 7.17 g/m*3 8.84 C 14.5 km/h
2057 14-04-2014 11:40:00 10.7 C 6.97 g/m*3 9.04 C 12.9 km/h
2058 14-04-2014 11:45:00 10.6 C 6.64 g/m*3 7.78 C 24.1 km/h
2059 14-04-2014 11:50:00 10.3 C 6.8 g/m*3 8.78 C 11.3 km/h
2060 14-04-2014 11:55:00 10.1 C 6.81 g/m*3 8.54 C 11.3 km/h
2061 14-04-2014 12:00:00 10.1 C 6.81 g/m*3 8.54 C 11.3 km/h
2062 14-04-2014 12:05:00 10.2 C 6.85 g/m*3 8.43 C 12.9 km/h
2063 14-04-2014 12:10:00 10.7 C 6.38 g/m*3 8.65 C 16.1 km/h
2064 14-04-2014 12:15:00 11.2 C 6.49 g/m*3 11.2 C 14.5 km/h
2065 14-04-2014 12:20:00 11.6 C 6.24 g/m*3 11.6 C 16.1 km/h
2066 14-04-2014 12:25:00 11.7 C 6.07 g/m*3 11.7 C 19.3 km/h
2067 14-04-2014 12:30:00 11.7 C 6.28 g/m*3 11.7 C 17.7 km/h
2068 14-04-2014 12:35:00 11.8 C 6.31 g/m*3 11.8 C 17.7 km/h
2069 14-04-2014 12:40:00 11.9 C 6.25 g/m*3 11.9 C 11.3 km/h
2070 14-04-2014 12:45:00 12 C 6.18 g/m*3 12 C 25.7 km/h
2071 14-04-2014 12:50:00 12 C 6.07 g/m*3 12 C 22.5 km/h
2072 14-04-2014 12:55:00 11.9 C 5.93 g/m*3 11.9 C 11.3 km/h
2073 14-04-2014 13:00:00 11.9 C 6.14 g/m*3 11.9 C 11.3 km/h
2074 14-04-2014 13:05:00 12.1 C 6.01 g/m*3 12.1 C 19.3 km/h
2075 14-04-2014 13:10:00 12.4 C 6.01 g/m*3 12.4 C 16.1 km/h
Sensor: Nr:Datum:Temp:Abs-Feuchte:Windchill:Wind:
Aussen-T/F 2076 14-04-2014 13:15:00 12.5 C 6.05 g/m*3 12.5 C 22.5 km/h
2077 14-04-2014 13:20:00 12.6 C 5.97 g/m*3 12.6 C 12.9 km/h
2078 14-04-2014 13:25:00 12.7 C 6.23 g/m*3 12.7 C 17.7 km/h
2079 14-04-2014 13:30:00 13 C 6.24 g/m*3 13 C 11.3 km/h
2080 14-04-2014 13:35:00 13.4 C 6.28 g/m*3 13.4 C 12.9 km/h
2081 14-04-2014 13:40:00 13.6 C 6.12 g/m*3 13.6 C 14.5 km/h
2082 14-04-2014 13:45:00 13.2 C 6.09 g/m*3 13.2 C 24.1 km/h
2083 14-04-2014 13:50:00 13.2 C 5.86 g/m*3 13.2 C 20.9 km/h
2084 14-04-2014 13:55:00 13.4 C 5.81 g/m*3 13.4 C 20.9 km/h
2085 14-04-2014 14:00:00 13.5 C 5.73 g/m*3 13.5 C 22.5 km/h
2086 14-04-2014 14:05:00 13.7 C 5.8 g/m*3 13.7 C 20.9 km/h
2087 14-04-2014 14:10:00 13.8 C 5.84 g/m*3 13.8 C 22.5 km/h
2088 14-04-2014 14:15:00 13.9 C 6.11 g/m*3 13.9 C 19.3 km/h
2089 14-04-2014 14:20:00 14.2 C 5.62 g/m*3 14.2 C 24.1 km/h
2090 14-04-2014 14:25:00 13.8 C 5.72 g/m*3 13.8 C 19.3 km/h
2091 14-04-2014 14:30:00 13.4 C 5.7 g/m*3 13.4 C 29 km/h
2092 14-04-2014 14:35:00 12.7 C 6.23 g/m*3 12.7 C 45 km/h
2093 14-04-2014 14:40:00 12.3 C 6.08 g/m*3 12.3 C 16.1 km/h
2094 14-04-2014 14:45:00 12.7 C 6.46 g/m*3 12.7 C 8.1 km/h
2095 14-04-2014 14:50:00 13.3 C 6.35 g/m*3 13.3 C 16.1 km/h
2096 14-04-2014 14:55:00 13.4 C 6.16 g/m*3 13.4 C 16.1 km/h
2097 14-04-2014 15:00:00 14.3 C 6.63 g/m*3 14.3 C 16.1 km/h
2098 14-04-2014 15:05:00 14.3 C 6.14 g/m*3 14.3 C 17.7 km/h
2099 14-04-2014 15:10:00 13.8 C 5.84 g/m*3 13.8 C 22.5 km/h
2100 14-04-2014 15:15:00 13.8 C 5.72 g/m*3 13.8 C 27.4 km/h
Sensor: Nr:Datum:Temp:Abs-Feuchte:Windchill:Wind:
Aussen-T/F 2101 14-04-2014 15:20:00 14.1 C 5.58 g/m*3 14.1 C 16.1 km/h
2102 14-04-2014 15:25:00 14 C 5.79 g/m*3 14 C 33.8 km/h
2103 14-04-2014 15:30:00 13.6 C 5.88 g/m*3 13.6 C 24.1 km/h
2104 14-04-2014 15:35:00 12.7 C 6.01 g/m*3 12.7 C 29 km/h
2105 14-04-2014 15:40:00 11.9 C 5.61 g/m*3 11.9 C 27.4 km/h
2106 14-04-2014 15:45:00 11.7 C 5.96 g/m*3 11.7 C 19.3 km/h
2107 14-04-2014 15:50:00 11.8 C 6 g/m*3 11.8 C 25.7 km/h
2108 14-04-2014 15:55:00 12.5 C 6.27 g/m*3 12.5 C 14.5 km/h
2109 14-04-2014 16:00:00 12.8 C 6.38 g/m*3 12.8 C 19.3 km/h
2110 14-04-2014 16:05:00 13.2 C 6.54 g/m*3 13.2 C 16.1 km/h
2111 14-04-2014 16:10:00 13.2 C 6.32 g/m*3 13.2 C 27.4 km/h
2112 14-04-2014 16:15:00 12.8 C 6.16 g/m*3 12.8 C 19.3 km/h
2113 14-04-2014 16:20:00 13 C 6.69 g/m*3 13 C 16.1 km/h
2114 14-04-2014 16:25:00 13.5 C 6.43 g/m*3 13.5 C 17.7 km/h
2115 14-04-2014 16:30:00 13.9 C 6.59 g/m*3 13.9 C 14.5 km/h
2116 14-04-2014 16:35:00 13.6 C 6.36 g/m*3 13.6 C 22.5 km/h
2117 14-04-2014 16:40:00 12.6 C 6.31 g/m*3 12.6 C 27.4 km/h
2118 14-04-2014 16:45:00 11.8 C 6.31 g/m*3 11.8 C 17.7 km/h
2119 14-04-2014 16:50:00 11.9 C 6.25 g/m*3 11.9 C 19.3 km/h
2120 14-04-2014 16:55:00 12.4 C 6.45 g/m*3 12.4 C 11.3 km/h
2121 14-04-2014 17:00:00 12.8 C 6.27 g/m*3 12.8 C 16.1 km/h
2122 14-04-2014 17:05:00 13.1 C 6.62 g/m*3 13.1 C 17.7 km/h
2123 14-04-2014 17:10:00 13.2 C 5.97 g/m*3 13.2 C 20.9 km/h
2124 14-04-2014 17:15:00 13.1 C 6.05 g/m*3 13.1 C 22.5 km/h
2125 14-04-2014 17:20:00 13.3 C 6.24 g/m*3 13.3 C 12.9 km/h
Sensor: Nr:Datum:Temp:Abs-Feuchte:Windchill:Wind:
Aussen-T/F 2126 14-04-2014 17:25:00 13.6 C 6.12 g/m*3 13.6 C 19.3 km/h
2127 14-04-2014 17:30:00 13.7 C 6.28 g/m*3 13.7 C 17.7 km/h
2128 14-04-2014 17:35:00 13.9 C 6.11 g/m*3 13.9 C 20.9 km/h
2129 14-04-2014 17:40:00 13.9 C 5.87 g/m*3 13.9 C 17.7 km/h
2130 14-04-2014 17:45:00 13.4 C 5.7 g/m*3 13.4 C 19.3 km/h
2131 14-04-2014 17:50:00 12.9 C 5.75 g/m*3 12.9 C 16.1 km/h
2132 14-04-2014 17:55:00 12.9 C 5.64 g/m*3 12.9 C 22.5 km/h
2133 14-04-2014 18:00:00 12.6 C 5.75 g/m*3 12.6 C 24.1 km/h
2134 14-04-2014 18:05:00 12.7 C 5.79 g/m*3 12.7 C 16.1 km/h
2135 14-04-2014 18:10:00 13.1 C 5.93 g/m*3 13.1 C 22.5 km/h
2136 14-04-2014 18:15:00 13.3 C 6.01 g/m*3 13.3 C 20.9 km/h
2137 14-04-2014 18:20:00 13.3 C 5.66 g/m*3 13.3 C 25.7 km/h
2138 14-04-2014 18:25:00 13.2 C 5.86 g/m*3 13.2 C 14.5 km/h
2139 14-04-2014 18:30:00 12.9 C 5.75 g/m*3 12.9 C 16.1 km/h
2140 14-04-2014 18:35:00 12.8 C 5.49 g/m*3 12.8 C 20.9 km/h
2141 14-04-2014 18:40:00 12.6 C 5.75 g/m*3 12.6 C 22.5 km/h
2142 14-04-2014 18:45:00 12.2 C 5.61 g/m*3 12.2 C 19.3 km/h
2143 14-04-2014 18:50:00 12.2 C 5.61 g/m*3 12.2 C 9.7 km/h
2144 14-04-2014 18:55:00 12.3 C 5.86 g/m*3 12.3 C 12.9 km/h
2145 14-04-2014 19:00:00 12.6 C 5.53 g/m*3 12.6 C 19.3 km/h
2146 14-04-2014 19:05:00 12.5 C 5.39 g/m*3 12.5 C 22.5 km/h
2147 14-04-2014 19:10:00 12.4 C 5.35 g/m*3 12.4 C 14.5 km/h
2148 14-04-2014 19:15:00 12.4 C 5.03 g/m*3 12.4 C 35.4 km/h
2149 14-04-2014 19:20:00 12.1 C 4.83 g/m*3 12.1 C 16.1 km/h
2150 14-04-2014 19:25:00 11.9 C 4.98 g/m*3 11.9 C 19.3 km/h
Sensor: Nr:Datum:Temp:Abs-Feuchte:Windchill:Wind:
Aussen-T/F 2151 14-04-2014 19:30:00 11.7 C 5.02 g/m*3 11.7 C 24.1 km/h
2152 14-04-2014 19:35:00 11.3 C 5.3 g/m*3 11.3 C 20.9 km/h
2153 14-04-2014 19:40:00 11.2 C 5.47 g/m*3 11.2 C 17.7 km/h
2154 14-04-2014 19:45:00 10.7 C 6.09 g/m*3 8.18 C 20.9 km/h
2155 14-04-2014 19:50:00 10.3 C 6.03 g/m*3 8.34 C 14.5 km/h
2156 14-04-2014 19:55:00 10.1 C 6.05 g/m*3 8.54 C 11.3 km/h
2157 14-04-2014 20:00:00 9.8 C 6.03 g/m*3 8.75 C 8.1 km/h
2158 14-04-2014 20:05:00 9.5 C 6.01 g/m*3 7.82 C 11.3 km/h
2159 14-04-2014 20:10:00 9.3 C 6.02 g/m*3 7.58 C 11.3 km/h
2160 14-04-2014 20:15:00 9.3 C 6.29 g/m*3 5.98 C 25.7 km/h
2161 14-04-2014 20:20:00 8.3 C 6.49 g/m*3 4.2 C 32.2 km/h
2162 14-04-2014 20:25:00 7.7 C 6.41 g/m*3 4.93 C 16.1 km/h
2163 14-04-2014 20:30:00 7.3 C 6.4 g/m*3 5.16 C 11.3 km/h
2164 14-04-2014 20:35:00 7.3 C 6.4 g/m*3 6.25 C 6.4 km/h
2165 14-04-2014 20:40:00 6.8 C 6.35 g/m*3 6.8 C 4.8 km/h
2166 14-04-2014 20:45:00 6.8 C 6.35 g/m*3 6.8 C 3.2 km/h
2167 14-04-2014 20:50:00 6.8 C 6.42 g/m*3 6.8 C 4.8 km/h
2168 14-04-2014 20:55:00 6.7 C 6.31 g/m*3 6.7 C 1.6 km/h
2169 14-04-2014 21:00:00 6.7 C 6.31 g/m*3 6.7 C 4.8 km/h
2170 14-04-2014 21:05:00 6.6 C 6.34 g/m*3 4.63 C 9.7 km/h
2171 14-04-2014 21:10:00 6.6 C 6.34 g/m*3 5.44 C 6.4 km/h
2172 14-04-2014 21:15:00 6.6 C 6.42 g/m*3 6.6 C 4.8 km/h
2173 14-04-2014 21:20:00 6.6 C 6.34 g/m*3 6.6 C 3.2 km/h
2174 14-04-2014 21:25:00 6.6 C 6.34 g/m*3 6.6 C 3.2 km/h
2175 14-04-2014 21:30:00 6.6 C 6.34 g/m*3 6.6 C 1.6 km/h
Sensor: Nr:Datum:Temp:Abs-Feuchte:Windchill:Wind:
Aussen-T/F 2176 14-04-2014 21:35:00 6.6 C 6.34 g/m*3 3.36 C 17.7 km/h
2177 14-04-2014 21:55:00 6.4 C 6.26 g/m*3 4.39 C 9.7 km/h
2178 14-04-2014 22:00:00 6.3 C 6.22 g/m*3 5.1 C 6.4 km/h
2179 14-04-2014 22:05:00 6.2 C 6.18 g/m*3 6.2 C 3.2 km/h
2180 14-04-2014 22:10:00 6.1 C 6.21 g/m*3 6.1 C 4.8 km/h
2181 14-04-2014 22:15:00 5.9 C 6.13 g/m*3 5.9 C 3.2 km/h
2182 14-04-2014 22:20:00 5.7 C 6.12 g/m*3 4.4 C 6.4 km/h
2183 14-04-2014 22:25:00 5.7 C 6.12 g/m*3 5.7 C 4.8 km/h
2184 14-04-2014 22:30:00 5.7 C 6.05 g/m*3 4.4 C 6.4 km/h
2185 14-04-2014 22:35:00 5.7 C 6.05 g/m*3 3.56 C 9.7 km/h
2186 14-04-2014 22:40:00 5.8 C 5.95 g/m*3 3.68 C 9.7 km/h
2187 14-04-2014 22:45:00 5.9 C 5.91 g/m*3 4.63 C 6.4 km/h
2188 14-04-2014 22:50:00 5.9 C 5.91 g/m*3 4.63 C 6.4 km/h
2189 14-04-2014 22:55:00 5.9 C 6.06 g/m*3 5.9 C 3.2 km/h
2190 14-04-2014 23:00:00 5.8 C 6.16 g/m*3 5.8 C 1.6 km/h
2191 14-04-2014 23:05:00 5.8 C 6.16 g/m*3 5.8 C 1.6 km/h
2192 14-04-2014 23:10:00 5.8 C 6.16 g/m*3 5.8 C 1.6 km/h
2193 14-04-2014 23:15:00 5.7 C 6.12 g/m*3 5.7 C 4.8 km/h
2194 14-04-2014 23:20:00 5.7 C 6.12 g/m*3 5.7 C 1.6 km/h
2195 14-04-2014 23:25:00 5.6 C 6.15 g/m*3 5.6 C 1.6 km/h
2196 14-04-2014 23:30:00 5.5 C 6.11 g/m*3 5.5 C 1.6 km/h
2197 14-04-2014 23:35:00 5.4 C 6.14 g/m*3 5.4 C 1.6 km/h
2198 14-04-2014 23:40:00 5.4 C 6.14 g/m*3 5.4 C 4.8 km/h
2199 14-04-2014 23:45:00 5.4 C 6.14 g/m*3 5.4 C 3.2 km/h
2200 14-04-2014 23:50:00 5.5 C 6.18 g/m*3 5.5 C 0 km/h
Sensor: Nr:Datum:Temp:Abs-Feuchte:Windchill:Wind:
Aussen-T/F 2201 14-04-2014 23:55:00 5.6 C 6.22 g/m*3 5.6 C 3.2 km/h
2202 15-04-2014 00:00:00 5.8 C 6.3 g/m*3 5.8 C 4.8 km/h
2203 15-04-2014 00:05:00 5.9 C 6.27 g/m*3 5.9 C 3.2 km/h
2204 15-04-2014 00:10:00 6.1 C 6.36 g/m*3 6.1 C 3.2 km/h
2205 15-04-2014 00:15:00 6.2 C 6.32 g/m*3 4.98 C 6.4 km/h
2206 15-04-2014 00:20:00 6.3 C 6.29 g/m*3 3.96 C 11.3 km/h
2207 15-04-2014 00:25:00 6.3 C 6.29 g/m*3 3.96 C 11.3 km/h
2208 15-04-2014 00:30:00 6.3 C 6.22 g/m*3 6.3 C 4.8 km/h
2209 15-04-2014 00:35:00 6.2 C 6.1 g/m*3 4.52 C 8.1 km/h
2210 15-04-2014 00:40:00 6.2 C 6.1 g/m*3 4.52 C 8.1 km/h
2211 15-04-2014 00:45:00 6.1 C 6.06 g/m*3 4.86 C 6.4 km/h
2212 15-04-2014 00:50:00 6 C 5.88 g/m*3 6 C 3.2 km/h
2213 15-04-2014 00:55:00 6 C 5.95 g/m*3 6 C 1.6 km/h
2214 15-04-2014 01:00:00 5.9 C 5.91 g/m*3 4.63 C 6.4 km/h
2215 15-04-2014 01:05:00 5.9 C 5.98 g/m*3 4.63 C 6.4 km/h
2216 15-04-2014 01:10:00 5.9 C 5.98 g/m*3 5.9 C 3.2 km/h
2217 15-04-2014 01:15:00 5.9 C 6.06 g/m*3 5.9 C 3.2 km/h
2218 15-04-2014 01:20:00 5.7 C 5.98 g/m*3 5.7 C 3.2 km/h
2219 15-04-2014 01:25:00 5.6 C 6.01 g/m*3 5.6 C 3.2 km/h
2220 15-04-2014 01:30:00 5.4 C 5.93 g/m*3 5.4 C 4.8 km/h
2221 15-04-2014 01:35:00 5.5 C 5.97 g/m*3 3.7 C 8.1 km/h
2222 15-04-2014 01:40:00 5.5 C 5.97 g/m*3 3.32 C 9.7 km/h
2223 15-04-2014 01:45:00 5.5 C 5.9 g/m*3 3.7 C 8.1 km/h
2224 15-04-2014 01:50:00 5.6 C 5.87 g/m*3 3.44 C 9.7 km/h
2225 15-04-2014 01:55:00 5.5 C 5.83 g/m*3 3.32 C 9.7 km/h
Sensor: Nr:Datum:Temp:Abs-Feuchte:Windchill:Wind:
Aussen-T/F 2226 15-04-2014 02:00:00 5.4 C 5.79 g/m*3 4.06 C 6.4 km/h
2227 15-04-2014 02:05:00 5.4 C 5.79 g/m*3 3.2 C 9.7 km/h
2228 15-04-2014 02:10:00 5.3 C 5.75 g/m*3 3.46 C 8.1 km/h
2229 15-04-2014 02:15:00 5.3 C 5.82 g/m*3 5.3 C 3.2 km/h
2230 15-04-2014 02:20:00 5.2 C 5.78 g/m*3 5.2 C 4.8 km/h
2231 15-04-2014 02:25:00 5 C 5.78 g/m*3 5 C 3.2 km/h
2232 15-04-2014 02:30:00 4.9 C 5.74 g/m*3 4.9 C 4.8 km/h
2233 15-04-2014 02:35:00 4.8 C 5.7 g/m*3 4.8 C 3.2 km/h
2234 15-04-2014 02:40:00 4.8 C 5.7 g/m*3 4.8 C 3.2 km/h
2235 15-04-2014 02:45:00 4.7 C 5.66 g/m*3 4.7 C 4.8 km/h
2236 15-04-2014 02:50:00 4.7 C 5.66 g/m*3 4.7 C 4.8 km/h
2237 15-04-2014 02:55:00 4.8 C 5.77 g/m*3 4.8 C 3.2 km/h
2238 15-04-2014 03:00:00 4.7 C 5.73 g/m*3 4.7 C 0 km/h
2239 15-04-2014 03:05:00 4.7 C 5.73 g/m*3 4.7 C 0 km/h
2240 15-04-2014 03:10:00 4.8 C 5.83 g/m*3 4.8 C 3.2 km/h
2241 15-04-2014 03:15:00 4.8 C 5.83 g/m*3 4.8 C 3.2 km/h
2242 15-04-2014 03:20:00 4.8 C 5.77 g/m*3 4.8 C 3.2 km/h
2243 15-04-2014 03:25:00 4.7 C 5.66 g/m*3 4.7 C 3.2 km/h
2244 15-04-2014 03:30:00 4.6 C 5.69 g/m*3 4.6 C 3.2 km/h
2245 15-04-2014 03:35:00 4.6 C 5.69 g/m*3 4.6 C 1.6 km/h
2246 15-04-2014 03:55:00 4.1 C 5.57 g/m*3 4.1 C 0 km/h
2247 15-04-2014 04:00:00 4.1 C 5.63 g/m*3 4.1 C 0 km/h
2248 15-04-2014 04:05:00 4.1 C 5.63 g/m*3 2.55 C 6.4 km/h
2249 15-04-2014 04:10:00 4.2 C 5.67 g/m*3 4.2 C 3.2 km/h
2250 15-04-2014 04:15:00 4.1 C 5.63 g/m*3 4.1 C 3.2 km/h
Sensor: Nr:Datum:Temp:Abs-Feuchte:Windchill:Wind:
Aussen-T/F 2251 15-04-2014 04:20:00 4.1 C 5.63 g/m*3 4.1 C 3.2 km/h
2252 15-04-2014 04:25:00 4.1 C 5.63 g/m*3 4.1 C 3.2 km/h
2253 15-04-2014 04:30:00 4.1 C 5.63 g/m*3 4.1 C 1.6 km/h
2254 15-04-2014 04:35:00 4 C 5.59 g/m*3 4 C 0 km/h
2255 15-04-2014 04:40:00 3.9 C 5.56 g/m*3 3.9 C 3.2 km/h
2256 15-04-2014 04:45:00 3.9 C 5.56 g/m*3 3.9 C 1.6 km/h
2257 15-04-2014 04:50:00 3.9 C 5.62 g/m*3 3.9 C 4.8 km/h
2258 15-04-2014 04:55:00 4 C 5.59 g/m*3 4 C 3.2 km/h
2259 15-04-2014 05:00:00 3.9 C 5.62 g/m*3 3.9 C 3.2 km/h
2260 15-04-2014 05:05:00 3.9 C 5.62 g/m*3 3.9 C 3.2 km/h
2261 15-04-2014 05:10:00 3.9 C 5.62 g/m*3 3.9 C 4.8 km/h
2262 15-04-2014 05:15:00 3.9 C 5.62 g/m*3 2.32 C 6.4 km/h
2263 15-04-2014 05:20:00 3.9 C 5.62 g/m*3 3.9 C 3.2 km/h
2264 15-04-2014 05:25:00 4 C 5.66 g/m*3 1.93 C 8.1 km/h
2265 15-04-2014 05:30:00 3.9 C 5.62 g/m*3 3.9 C 4.8 km/h
2266 15-04-2014 05:35:00 3.9 C 5.56 g/m*3 2.32 C 6.4 km/h
2267 15-04-2014 05:40:00 3.9 C 5.62 g/m*3 3.9 C 1.6 km/h
2268 15-04-2014 05:45:00 3.9 C 5.62 g/m*3 3.9 C 3.2 km/h
2269 15-04-2014 05:50:00 3.9 C 5.62 g/m*3 3.9 C 3.2 km/h
2270 15-04-2014 05:55:00 4 C 5.66 g/m*3 4 C 3.2 km/h
2271 15-04-2014 06:00:00 4.1 C 5.7 g/m*3 4.1 C 3.2 km/h
2272 15-04-2014 06:05:00 4.1 C 5.7 g/m*3 4.1 C 1.6 km/h
2273 15-04-2014 06:10:00 4.2 C 5.73 g/m*3 4.2 C 3.2 km/h
2274 15-04-2014 06:15:00 4.2 C 5.73 g/m*3 4.2 C 3.2 km/h
2275 15-04-2014 06:20:00 4.2 C 5.73 g/m*3 4.2 C 1.6 km/h
Sensor: Nr:Datum:Temp:Abs-Feuchte:Windchill:Wind:
Aussen-T/F 2276 15-04-2014 06:25:00 4.2 C 5.73 g/m*3 4.2 C 0 km/h
2277 15-04-2014 06:30:00 4.2 C 5.73 g/m*3 4.2 C 4.8 km/h
2278 15-04-2014 06:35:00 4.2 C 5.67 g/m*3 2.17 C 8.1 km/h
2279 15-04-2014 06:40:00 4.2 C 5.67 g/m*3 4.2 C 1.6 km/h
2280 15-04-2014 06:45:00 4.1 C 5.63 g/m*3 4.1 C 0 km/h
2281 15-04-2014 06:50:00 3.9 C 5.62 g/m*3 3.9 C 1.6 km/h
2282 15-04-2014 06:55:00 3.9 C 5.62 g/m*3 3.9 C 1.6 km/h
2283 15-04-2014 07:00:00 3.9 C 5.62 g/m*3 3.9 C 3.2 km/h
2284 15-04-2014 07:05:00 4 C 5.66 g/m*3 2.44 C 6.4 km/h
2285 15-04-2014 07:10:00 4 C 5.66 g/m*3 4 C 1.6 km/h
2286 15-04-2014 07:15:00 3.9 C 5.62 g/m*3 3.9 C 4.8 km/h
2287 15-04-2014 07:20:00 3.9 C 5.62 g/m*3 3.9 C 3.2 km/h
2288 15-04-2014 07:25:00 3.9 C 5.62 g/m*3 1.82 C 8.1 km/h
2289 15-04-2014 07:30:00 3.9 C 5.62 g/m*3 3.9 C 3.2 km/h
2290 15-04-2014 07:35:00 4.1 C 5.7 g/m*3 4.1 C 1.6 km/h
2291 15-04-2014 07:40:00 4.1 C 5.7 g/m*3 4.1 C 3.2 km/h
2292 15-04-2014 07:45:00 4.1 C 5.7 g/m*3 1.31 C 11.3 km/h
2293 15-04-2014 07:50:00 4.1 C 5.7 g/m*3 4.1 C 4.8 km/h
2294 15-04-2014 07:55:00 4.3 C 5.71 g/m*3 2.29 C 8.1 km/h
2295 15-04-2014 08:00:00 4.3 C 5.71 g/m*3 4.3 C 4.8 km/h
2296 15-04-2014 08:55:00 5.5 C 5.97 g/m*3 2.44 C 14.5 km/h
2297 15-04-2014 09:00:00 5.7 C 6.05 g/m*3 2.69 C 14.5 km/h
2298 15-04-2014 09:05:00 5.8 C 6.02 g/m*3 3.07 C 12.9 km/h
2299 15-04-2014 09:10:00 5.9 C 5.98 g/m*3 2.48 C 17.7 km/h
2300 15-04-2014 09:15:00 6.1 C 6.06 g/m*3 4.4 C 8.1 km/h
Sensor: Nr:Datum:Temp:Abs-Feuchte:Windchill:Wind:
Aussen-T/F 2301 15-04-2014 09:20:00 6.1 C 6.06 g/m*3 4.4 C 8.1 km/h
2302 15-04-2014 09:25:00 6.2 C 6.1 g/m*3 4.15 C 9.7 km/h
2303 15-04-2014 09:30:00 6.3 C 6.07 g/m*3 3.43 C 14.5 km/h
2304 15-04-2014 09:35:00 6.3 C 6.07 g/m*3 3.68 C 12.9 km/h
2305 15-04-2014 09:40:00 6.3 C 6 g/m*3 4.27 C 9.7 km/h
2306 15-04-2014 09:45:00 6.4 C 5.89 g/m*3 4.08 C 11.3 km/h
2307 15-04-2014 09:50:00 6.4 C 5.89 g/m*3 4.39 C 9.7 km/h
2308 15-04-2014 09:55:00 6.6 C 5.89 g/m*3 4.63 C 9.7 km/h
2309 15-04-2014 10:00:00 6.6 C 5.89 g/m*3 4.63 C 9.7 km/h
2310 15-04-2014 10:05:00 6.7 C 5.93 g/m*3 4.44 C 11.3 km/h
2311 15-04-2014 10:10:00 6.9 C 6.08 g/m*3 4.68 C 11.3 km/h
2312 15-04-2014 10:15:00 7 C 5.97 g/m*3 5.11 C 9.7 km/h
2313 15-04-2014 10:20:00 7.1 C 5.93 g/m*3 4.65 C 12.9 km/h
2314 15-04-2014 10:25:00 7.2 C 6.04 g/m*3 5.04 C 11.3 km/h
2315 15-04-2014 10:30:00 7.4 C 5.88 g/m*3 5.58 C 9.7 km/h
2316 15-04-2014 10:35:00 7.5 C 5.76 g/m*3 5.14 C 12.9 km/h
2317 15-04-2014 10:40:00 7.5 C 5.76 g/m*3 5.41 C 11.3 km/h
2318 15-04-2014 10:45:00 7.4 C 5.49 g/m*3 5.28 C 11.3 km/h
2319 15-04-2014 10:50:00 7.4 C 5.49 g/m*3 5.58 C 9.7 km/h
2320 15-04-2014 10:55:00 7.3 C 5.61 g/m*3 4.9 C 12.9 km/h
2321 15-04-2014 11:00:00 7.2 C 5.49 g/m*3 5.04 C 11.3 km/h
2322 15-04-2014 11:05:00 6.9 C 5.39 g/m*3 5.34 C 8.1 km/h
2323 15-04-2014 11:10:00 6.8 C 5.58 g/m*3 4.56 C 11.3 km/h
2324 15-04-2014 11:15:00 6.8 C 5.66 g/m*3 5.22 C 8.1 km/h
2325 15-04-2014 11:20:00 6.8 C 5.66 g/m*3 4.56 C 11.3 km/h
Sensor: Nr:Datum:Temp:Abs-Feuchte:Windchill:Wind:
Aussen-T/F 2326 15-04-2014 11:25:00 7 C 5.66 g/m*3 5.46 C 8.1 km/h
2327 15-04-2014 11:30:00 7.1 C 5.77 g/m*3 5.58 C 8.1 km/h
2328 15-04-2014 11:35:00 7.2 C 5.81 g/m*3 5.04 C 11.3 km/h
2329 15-04-2014 11:40:00 7.6 C 5.88 g/m*3 5.02 C 14.5 km/h
2330 15-04-2014 11:45:00 7.7 C 5.68 g/m*3 5.38 C 12.9 km/h
2331 15-04-2014 11:50:00 7.6 C 5.32 g/m*3 5.82 C 9.7 km/h
2332 15-04-2014 11:55:00 7.4 C 5.17 g/m*3 4.78 C 14.5 km/h
2333 15-04-2014 12:00:00 7.4 C 5.25 g/m*3 5.93 C 8.1 km/h
2334 15-04-2014 12:05:00 7.4 C 5.25 g/m*3 5.93 C 8.1 km/h
2335 15-04-2014 12:10:00 7.5 C 5.28 g/m*3 6.48 C 6.4 km/h
2336 15-04-2014 12:15:00 7.7 C 5.43 g/m*3 7.7 C 4.8 km/h
2337 15-04-2014 12:20:00 8 C 5.7 g/m*3 6.64 C 8.1 km/h
2338 15-04-2014 12:25:00 8.3 C 5.39 g/m*3 5.89 C 14.5 km/h
2339 15-04-2014 12:30:00 8.4 C 5.85 g/m*3 7.11 C 8.1 km/h
2340 15-04-2014 12:35:00 8.4 C 5.85 g/m*3 7.11 C 8.1 km/h
2341 15-04-2014 12:40:00 8.5 C 5.29 g/m*3 5.92 C 16.1 km/h
2342 15-04-2014 12:45:00 8.2 C 5.28 g/m*3 5.18 C 19.3 km/h
2343 15-04-2014 12:50:00 8.1 C 5.16 g/m*3 5.87 C 12.9 km/h
2344 15-04-2014 12:55:00 8 C 5.13 g/m*3 6.01 C 11.3 km/h
2345 15-04-2014 13:00:00 8.2 C 5.28 g/m*3 6.25 C 11.3 km/h
2346 15-04-2014 13:05:00 8.8 C 5.57 g/m*3 6.97 C 11.3 km/h
2347 15-04-2014 13:10:00 9.3 C 5.48 g/m*3 7.33 C 12.9 km/h
2348 15-04-2014 13:15:00 9.4 C 4.97 g/m*3 8.28 C 8.1 km/h
2349 15-04-2014 13:20:00 9.4 C 5.06 g/m*3 7.7 C 11.3 km/h
2350 15-04-2014 13:25:00 9.4 C 5.52 g/m*3 8.68 C 6.4 km/h
Sensor: Nr:Datum:Temp:Abs-Feuchte:Windchill:Wind:
Aussen-T/F 2351 15-04-2014 13:30:00 9.4 C 5.25 g/m*3 7.97 C 9.7 km/h
2352 15-04-2014 13:35:00 9.6 C 5.31 g/m*3 8.91 C 6.4 km/h
2353 15-04-2014 13:40:00 9.6 C 5.4 g/m*3 7.7 C 12.9 km/h
2354 15-04-2014 13:45:00 9.3 C 5.3 g/m*3 7.85 C 9.7 km/h
2355 15-04-2014 13:50:00 9.1 C 5.41 g/m*3 7.93 C 8.1 km/h
2356 15-04-2014 13:55:00 8.9 C 5.17 g/m*3 6.85 C 12.9 km/h
2357 15-04-2014 14:00:00 8.9 C 5.26 g/m*3 7.09 C 11.3 km/h
2358 15-04-2014 14:05:00 9.2 C 5.18 g/m*3 6.99 C 14.5 km/h
2359 15-04-2014 14:10:00 9.6 C 5.5 g/m*3 8.21 C 9.7 km/h
2360 15-04-2014 14:15:00 10.2 C 5.42 g/m*3 9.6 C 6.4 km/h
2361 15-04-2014 14:20:00 10.3 C 5.46 g/m*3 8.78 C 11.3 km/h
2362 15-04-2014 14:25:00 9.9 C 5.32 g/m*3 8.3 C 11.3 km/h
2363 15-04-2014 14:30:00 9.4 C 5.06 g/m*3 7.46 C 12.9 km/h
2364 15-04-2014 14:35:00 9.1 C 5.23 g/m*3 7.61 C 9.7 km/h
2365 15-04-2014 14:40:00 8.9 C 4.99 g/m*3 7.09 C 11.3 km/h
2366 15-04-2014 14:45:00 8.9 C 5.26 g/m*3 7.69 C 8.1 km/h
2367 15-04-2014 14:50:00 9.1 C 5.23 g/m*3 7.61 C 9.7 km/h
2368 15-04-2014 14:55:00 9.3 C 5.21 g/m*3 6.73 C 17.7 km/h
2369 15-04-2014 15:00:00 9.4 C 5.06 g/m*3 7.24 C 14.5 km/h
2370 15-04-2014 15:05:00 9.6 C 5.31 g/m*3 8.21 C 9.7 km/h
2371 15-04-2014 15:10:00 9.8 C 5.2 g/m*3 7.54 C 16.1 km/h
2372 15-04-2014 15:15:00 9.7 C 5.16 g/m*3 8.63 C 8.1 km/h
2373 15-04-2014 15:20:00 9.6 C 5.04 g/m*3 7.48 C 14.5 km/h
2374 15-04-2014 15:25:00 9.4 C 5.16 g/m*3 7.24 C 14.5 km/h
2375 15-04-2014 15:30:00 9.4 C 5.16 g/m*3 8.28 C 8.1 km/h
Sensor: Nr:Datum:Temp:Abs-Feuchte:Windchill:Wind:
Aussen-T/F 2376 15-04-2014 15:35:00 9.4 C 5.34 g/m*3 7.7 C 11.3 km/h
2377 15-04-2014 15:40:00 9.3 C 5.3 g/m*3 7.58 C 11.3 km/h
2378 15-04-2014 15:45:00 9.3 C 5.12 g/m*3 7.85 C 9.7 km/h
2379 15-04-2014 15:50:00 9.2 C 5.09 g/m*3 7.73 C 9.7 km/h
2380 15-04-2014 15:55:00 9.2 C 5.09 g/m*3 8.05 C 8.1 km/h
2381 15-04-2014 16:00:00 9.3 C 5.3 g/m*3 8.16 C 8.1 km/h
2382 15-04-2014 16:05:00 9.4 C 5.34 g/m*3 8.28 C 8.1 km/h
2383 15-04-2014 16:10:00 9.4 C 5.25 g/m*3 8.68 C 6.4 km/h
2384 15-04-2014 16:15:00 9.4 C 5.25 g/m*3 8.68 C 6.4 km/h
2385 15-04-2014 16:20:00 9.7 C 5.35 g/m*3 8.33 C 9.7 km/h
2386 15-04-2014 16:25:00 9.7 C 5.35 g/m*3 8.06 C 11.3 km/h
2387 15-04-2014 16:30:00 9.6 C 5.13 g/m*3 8.91 C 6.4 km/h
2388 15-04-2014 16:35:00 9.6 C 5.13 g/m*3 9.6 C 4.8 km/h
2389 15-04-2014 16:40:00 9.5 C 5.19 g/m*3 8.4 C 8.1 km/h
2390 15-04-2014 16:45:00 9.5 C 5.19 g/m*3 8.4 C 8.1 km/h
2391 15-04-2014 16:50:00 9.8 C 5.01 g/m*3 7.73 C 14.5 km/h
2392 15-04-2014 16:55:00 9.8 C 5.1 g/m*3 7.94 C 12.9 km/h
2393 15-04-2014 17:00:00 9.8 C 5.29 g/m*3 8.45 C 9.7 km/h
2394 15-04-2014 17:05:00 9.9 C 5.23 g/m*3 7.66 C 16.1 km/h
2395 15-04-2014 17:10:00 10.1 C 5.39 g/m*3 8.54 C 11.3 km/h
2396 15-04-2014 17:15:00 10.1 C 5.11 g/m*3 7.28 C 22.5 km/h
2397 15-04-2014 17:20:00 10 C 5.17 g/m*3 8.68 C 9.7 km/h
2398 15-04-2014 17:25:00 10.1 C 5.11 g/m*3 8.31 C 12.9 km/h
2399 15-04-2014 17:30:00 10.1 C 5.2 g/m*3 8.31 C 12.9 km/h
2400 15-04-2014 17:35:00 10.2 C 5.33 g/m*3 8.66 C 11.3 km/h
Sensor: Nr:Datum:Temp:Abs-Feuchte:Windchill:Wind:
Aussen-T/F 2401 15-04-2014 17:40:00 10.2 C 5.23 g/m*3 8.92 C 9.7 km/h
2402 15-04-2014 17:45:00 10.2 C 5.14 g/m*3 9.22 C 8.1 km/h
2403 15-04-2014 17:50:00 10.2 C 5.23 g/m*3 8.03 C 16.1 km/h
2404 15-04-2014 17:55:00 10.2 C 5.14 g/m*3 8.03 C 16.1 km/h
2405 15-04-2014 18:00:00 10.3 C 5.17 g/m*3 7.82 C 19.3 km/h
2406 15-04-2014 18:05:00 10.2 C 5.33 g/m*3 8.66 C 11.3 km/h
2407 15-04-2014 18:10:00 10.1 C 5.39 g/m*3 8.31 C 12.9 km/h
2408 15-04-2014 18:15:00 10.4 C 5.4 g/m*3 8.9 C 11.3 km/h
2409 15-04-2014 18:20:00 10.6 C 5.56 g/m*3 9.4 C 9.7 km/h
2410 15-04-2014 18:25:00 11.2 C 5.68 g/m*3 11.2 C 8.1 km/h
2411 15-04-2014 18:30:00 11.1 C 5.34 g/m*3 11.1 C 12.9 km/h
2412 15-04-2014 18:35:00 11.1 C 5.34 g/m*3 11.1 C 12.9 km/h
2413 15-04-2014 18:55:00 10.1 C 9.46 g/m*3 8.8 C 9.7 km/h
2414 15-04-2014 19:00:00 10 C 9.4 g/m*3 10 C 4.8 km/h
2415 15-04-2014 19:05:00 10 C 9.4 g/m*3 8.99 C 8.1 km/h
2416 15-04-2014 19:10:00 10 C 9.4 g/m*3 10 C 4.8 km/h
2417 15-04-2014 19:15:00 9.7 C 9.22 g/m*3 8.33 C 9.7 km/h
2418 15-04-2014 19:20:00 9.7 C 9.22 g/m*3 9.02 C 6.4 km/h
2419 15-04-2014 19:25:00 9.6 C 5.31 g/m*3 8.52 C 8.1 km/h
2420 15-04-2014 19:30:00 9.5 C 5.37 g/m*3 9.5 C 4.8 km/h
2421 15-04-2014 19:35:00 9.5 C 5.46 g/m*3 9.5 C 3.2 km/h
2422 15-04-2014 19:40:00 9.5 C 5.37 g/m*3 9.5 C 3.2 km/h
2423 15-04-2014 19:45:00 9.4 C 5.34 g/m*3 9.4 C 3.2 km/h
2424 15-04-2014 19:50:00 9.4 C 5.52 g/m*3 9.4 C 0 km/h
2425 15-04-2014 19:55:00 9.4 C 5.52 g/m*3 9.4 C 4.8 km/h
Sensor: Nr:Datum:Temp:Abs-Feuchte:Windchill:Wind:
Aussen-T/F 2426 15-04-2014 20:00:00 9.1 C 5.41 g/m*3 7.93 C 8.1 km/h
2427 15-04-2014 20:05:00 9.1 C 5.23 g/m*3 7.93 C 8.1 km/h
2428 15-04-2014 20:10:00 9.1 C 5.23 g/m*3 9.1 C 3.2 km/h
2429 15-04-2014 20:15:00 9.1 C 5.32 g/m*3 9.1 C 3.2 km/h
2430 15-04-2014 20:20:00 9.1 C 5.32 g/m*3 9.1 C 4.8 km/h
2431 15-04-2014 20:25:00 9.1 C 5.59 g/m*3 9.1 C 0 km/h
2432 15-04-2014 20:30:00 9 C 5.55 g/m*3 8.21 C 6.4 km/h
2433 15-04-2014 20:35:00 9 C 5.55 g/m*3 9 C 3.2 km/h
2434 15-04-2014 20:40:00 8.8 C 5.48 g/m*3 8.8 C 0 km/h
2435 15-04-2014 20:45:00 8.8 C 5.48 g/m*3 8.8 C 1.6 km/h
2436 16-04-2014 11:50:00 9.6 C 5.95 g/m*3 8.21 C 9.7 km/h
2437 16-04-2014 11:55:00 10 C 6.01 g/m*3 10 C 3.2 km/h
2438 16-04-2014 12:00:00 10.1 C 5.86 g/m*3 10.1 C 3.2 km/h
2439 16-04-2014 12:05:00 10.3 C 5.94 g/m*3 9.72 C 6.4 km/h
2440 16-04-2014 12:10:00 10.4 C 5.59 g/m*3 9.46 C 8.1 km/h
2441 16-04-2014 12:15:00 10.6 C 5.56 g/m*3 10.6 C 4.8 km/h
2442 16-04-2014 12:20:00 10.7 C 5.5 g/m*3 8.84 C 14.5 km/h
2443 16-04-2014 12:25:00 10.8 C 5.24 g/m*3 9.64 C 9.7 km/h
2444 16-04-2014 12:30:00 11.1 C 5.74 g/m*3 11.1 C 6.4 km/h
2445 16-04-2014 12:35:00 11.7 C 5.33 g/m*3 11.7 C 8.1 km/h
2446 16-04-2014 12:40:00 12 C 5.54 g/m*3 12 C 11.3 km/h
2447 16-04-2014 12:45:00 12.3 C 5.21 g/m*3 12.3 C 8.1 km/h
2448 16-04-2014 12:50:00 12.7 C 5.57 g/m*3 12.7 C 12.9 km/h
2449 16-04-2014 12:55:00 12.9 C 5.52 g/m*3 12.9 C 12.9 km/h
2450 16-04-2014 13:00:00 13.2 C 5.51 g/m*3 13.2 C 16.1 km/h
Sensor: Nr:Datum:Temp:Abs-Feuchte:Windchill:Wind:
Aussen-T/F 2451 16-04-2014 13:05:00 13.4 C 5.7 g/m*3 13.4 C 8.1 km/h
2452 16-04-2014 13:10:00 13.5 C 5.38 g/m*3 13.5 C 11.3 km/h
2453 16-04-2014 13:15:00 13.6 C 5.41 g/m*3 13.6 C 11.3 km/h
2454 16-04-2014 13:20:00 13.6 C 5.77 g/m*3 13.6 C 11.3 km/h
2455 16-04-2014 13:25:00 13.8 C 5.72 g/m*3 13.8 C 8.1 km/h
2456 16-04-2014 13:30:00 14 C 5.67 g/m*3 14 C 11.3 km/h
2457 16-04-2014 13:35:00 14.2 C 5.25 g/m*3 14.2 C 6.4 km/h
2458 16-04-2014 13:40:00 14.3 C 5.41 g/m*3 14.3 C 8.1 km/h
2459 16-04-2014 13:45:00 14.2 C 5.49 g/m*3 14.2 C 6.4 km/h
2460 16-04-2014 13:50:00 14.4 C 5.69 g/m*3 14.4 C 9.7 km/h
2461 16-04-2014 13:55:00 14.6 C 5.26 g/m*3 14.6 C 6.4 km/h
2462 16-04-2014 14:00:00 14.6 C 5.13 g/m*3 14.6 C 4.8 km/h
2463 16-04-2014 14:05:00 14.6 C 5.88 g/m*3 14.6 C 6.4 km/h
2464 16-04-2014 14:10:00 14.8 C 5.7 g/m*3 14.8 C 9.7 km/h
2465 16-04-2014 14:15:00 14.9 C 5.1 g/m*3 14.9 C 12.9 km/h
2466 16-04-2014 14:20:00 15.1 C 5.68 g/m*3 15.1 C 8.1 km/h
2467 16-04-2014 14:25:00 15.3 C 5.62 g/m*3 15.3 C 11.3 km/h
2468 16-04-2014 14:30:00 15.5 C 5.42 g/m*3 15.5 C 8.1 km/h
2469 16-04-2014 14:35:00 15.4 C 5.78 g/m*3 15.4 C 11.3 km/h
2470 16-04-2014 14:40:00 15.3 C 5.35 g/m*3 15.3 C 9.7 km/h
2471 16-04-2014 14:45:00 15.4 C 5.26 g/m*3 15.4 C 9.7 km/h
2472 16-04-2014 14:50:00 15.2 C 5.19 g/m*3 15.2 C 19.3 km/h
2473 16-04-2014 14:55:00 15.2 C 5.32 g/m*3 15.2 C 11.3 km/h
2474 16-04-2014 15:00:00 15.4 C 5.52 g/m*3 15.4 C 11.3 km/h
2475 16-04-2014 15:05:00 15.7 C 5.62 g/m*3 15.7 C 11.3 km/h
Sensor: Nr:Datum:Temp:Abs-Feuchte:Windchill:Wind:
Aussen-T/F 2476 16-04-2014 15:10:00 15.7 C 5.35 g/m*3 15.7 C 9.7 km/h
2477 16-04-2014 15:15:00 15.6 C 5.19 g/m*3 15.6 C 6.4 km/h
2478 16-04-2014 15:20:00 15.6 C 5.05 g/m*3 15.6 C 6.4 km/h
2479 16-04-2014 15:25:00 15.9 C 5.42 g/m*3 15.9 C 9.7 km/h
2480 16-04-2014 15:30:00 16 C 5.45 g/m*3 16 C 9.7 km/h
2481 16-04-2014 15:35:00 16.1 C 5.89 g/m*3 16.1 C 9.7 km/h
2482 16-04-2014 15:40:00 16.3 C 5.55 g/m*3 16.3 C 9.7 km/h
2483 16-04-2014 15:45:00 16.2 C 5.38 g/m*3 16.2 C 9.7 km/h
2484 16-04-2014 15:50:00 16.1 C 5.21 g/m*3 16.1 C 12.9 km/h
2485 16-04-2014 15:55:00 16.2 C 5.93 g/m*3 16.2 C 4.8 km/h
2486 16-04-2014 16:00:00 16.3 C 5.27 g/m*3 16.3 C 11.3 km/h
2487 16-04-2014 16:05:00 16.6 C 5.51 g/m*3 16.6 C 8.1 km/h
2488 16-04-2014 16:10:00 16.9 C 5.75 g/m*3 16.9 C 11.3 km/h
2489 16-04-2014 16:15:00 16.8 C 5.15 g/m*3 16.8 C 11.3 km/h
2490 16-04-2014 16:20:00 16.9 C 5.47 g/m*3 16.9 C 12.9 km/h
2491 16-04-2014 16:25:00 16.9 C 5.32 g/m*3 16.9 C 12.9 km/h
2492 16-04-2014 16:30:00 16.9 C 5.32 g/m*3 16.9 C 6.4 km/h
2493 16-04-2014 16:35:00 16.9 C 5.18 g/m*3 16.9 C 9.7 km/h
2494 16-04-2014 16:40:00 16.7 C 5.12 g/m*3 16.7 C 6.4 km/h
2495 16-04-2014 16:45:00 16.4 C 5.16 g/m*3 16.4 C 12.9 km/h
2496 16-04-2014 16:50:00 16.4 C 5.02 g/m*3 16.4 C 8.1 km/h
2497 16-04-2014 16:55:00 16.6 C 5.23 g/m*3 16.6 C 6.4 km/h
2498 16-04-2014 17:00:00 16.6 C 5.51 g/m*3 16.6 C 12.9 km/h
2499 16-04-2014 17:05:00 16.8 C 5.29 g/m*3 16.8 C 9.7 km/h
2500 16-04-2014 17:10:00 17 C 5.5 g/m*3 17 C 8.1 km/h
Sensor: Nr:Datum:Temp:Abs-Feuchte:Windchill:Wind:
Aussen-T/F 2501 16-04-2014 17:15:00 16.9 C 5.18 g/m*3 16.9 C 14.5 km/h
2502 16-04-2014 17:20:00 16.8 C 5 g/m*3 16.8 C 14.5 km/h
2503 16-04-2014 17:25:00 16.8 C 5.29 g/m*3 16.8 C 8.1 km/h
2504 16-04-2014 17:30:00 16.9 C 5.32 g/m*3 16.9 C 11.3 km/h
2505 16-04-2014 17:35:00 16.9 C 5.32 g/m*3 16.9 C 16.1 km/h
2506 16-04-2014 17:40:00 16.8 C 5.43 g/m*3 16.8 C 9.7 km/h
2507 16-04-2014 17:45:00 16.9 C 5.03 g/m*3 16.9 C 11.3 km/h
2508 16-04-2014 17:50:00 16.7 C 4.97 g/m*3 16.7 C 8.1 km/h
2509 16-04-2014 17:55:00 16.7 C 5.26 g/m*3 16.7 C 9.7 km/h
2510 16-04-2014 18:00:00 16.7 C 5.4 g/m*3 16.7 C 12.9 km/h
2511 16-04-2014 18:05:00 16.7 C 5.12 g/m*3 16.7 C 11.3 km/h
2512 16-04-2014 18:10:00 16.7 C 5.26 g/m*3 16.7 C 8.1 km/h
2513 16-04-2014 18:15:00 16.8 C 5.15 g/m*3 16.8 C 9.7 km/h
2514 16-04-2014 18:20:00 16.9 C 5.47 g/m*3 16.9 C 6.4 km/h
2515 16-04-2014 18:25:00 16.8 C 5.29 g/m*3 16.8 C 8.1 km/h
2516 16-04-2014 18:30:00 16.6 C 5.09 g/m*3 16.6 C 9.7 km/h
2517 16-04-2014 18:35:00 16.5 C 5.06 g/m*3 16.5 C 6.4 km/h
2518 16-04-2014 18:40:00 16.6 C 4.94 g/m*3 16.6 C 8.1 km/h
2519 16-04-2014 18:45:00 16.5 C 5.2 g/m*3 16.5 C 11.3 km/h
2520 16-04-2014 18:50:00 16.4 C 5.02 g/m*3 16.4 C 9.7 km/h
2521 16-04-2014 18:55:00 16.5 C 4.91 g/m*3 16.5 C 6.4 km/h
2522 16-04-2014 19:00:00 16.7 C 5.26 g/m*3 16.7 C 6.4 km/h
2523 16-04-2014 19:05:00 16.6 C 5.23 g/m*3 16.6 C 6.4 km/h
2524 16-04-2014 19:10:00 16.3 C 5.27 g/m*3 16.3 C 6.4 km/h
2525 16-04-2014 19:15:00 16.1 C 5.21 g/m*3 16.1 C 8.1 km/h
Sensor: Nr:Datum:Temp:Abs-Feuchte:Windchill:Wind:
Aussen-T/F 2526 16-04-2014 19:20:00 16 C 5.31 g/m*3 16 C 9.7 km/h
2527 16-04-2014 19:25:00 16 C 5.04 g/m*3 16 C 9.7 km/h
2528 16-04-2014 19:30:00 15.8 C 5.12 g/m*3 15.8 C 11.3 km/h
2529 16-04-2014 19:35:00 15.5 C 5.02 g/m*3 15.5 C 8.1 km/h
2530 16-04-2014 19:40:00 15.3 C 5.09 g/m*3 15.3 C 4.8 km/h
2531 16-04-2014 19:45:00 15.1 C 5.16 g/m*3 15.1 C 3.2 km/h
2532 16-04-2014 19:50:00 14.9 C 5.23 g/m*3 14.9 C 3.2 km/h
2533 16-04-2014 19:55:00 14.7 C 5.54 g/m*3 14.7 C 3.2 km/h
2534 16-04-2014 20:00:00 14.3 C 5.77 g/m*3 14.3 C 0 km/h
2535 16-04-2014 20:05:00 13.5 C 5.85 g/m*3 13.5 C 3.2 km/h
2536 16-04-2014 20:10:00 12.6 C 5.86 g/m*3 12.6 C 3.2 km/h
2537 16-04-2014 20:15:00 11.8 C 5.79 g/m*3 11.8 C 4.8 km/h
2538 16-04-2014 20:20:00 11.3 C 5.81 g/m*3 11.3 C 3.2 km/h
2539 16-04-2014 20:25:00 10.9 C 5.57 g/m*3 10.9 C 4.8 km/h
2540 16-04-2014 20:30:00 10.6 C 5.56 g/m*3 10.6 C 3.2 km/h
2541 16-04-2014 20:35:00 10.3 C 5.55 g/m*3 10.3 C 4.8 km/h
2542 16-04-2014 20:40:00 10 C 5.64 g/m*3 10 C 4.8 km/h
2543 16-04-2014 20:45:00 9.7 C 5.53 g/m*3 9.02 C 6.4 km/h
2544 16-04-2014 20:50:00 9.4 C 5.43 g/m*3 9.4 C 4.8 km/h
2545 16-04-2014 20:55:00 9.2 C 5.45 g/m*3 9.2 C 4.8 km/h
2546 16-04-2014 21:00:00 9.1 C 5.5 g/m*3 8.33 C 6.4 km/h
2547 16-04-2014 21:05:00 8.9 C 5.43 g/m*3 8.9 C 4.8 km/h
2548 16-04-2014 21:10:00 8.8 C 5.48 g/m*3 8.8 C 4.8 km/h
2549 16-04-2014 21:15:00 8.8 C 5.57 g/m*3 8.8 C 4.8 km/h
2550 16-04-2014 21:20:00 8.7 C 5.53 g/m*3 7.87 C 6.4 km/h
Sensor: Nr:Datum:Temp:Abs-Feuchte:Windchill:Wind:
Aussen-T/F 2551 16-04-2014 21:25:00 8.6 C 5.41 g/m*3 8.6 C 4.8 km/h
2552 16-04-2014 21:30:00 8.5 C 5.38 g/m*3 8.5 C 4.8 km/h
2553 16-04-2014 21:35:00 8.4 C 5.43 g/m*3 8.4 C 4.8 km/h
2554 16-04-2014 21:40:00 8.3 C 5.39 g/m*3 8.3 C 4.8 km/h
2555 16-04-2014 21:45:00 8.2 C 5.36 g/m*3 8.2 C 4.8 km/h
2556 16-04-2014 21:50:00 8.2 C 5.36 g/m*3 8.2 C 4.8 km/h
2557 16-04-2014 21:55:00 8.1 C 5.41 g/m*3 8.1 C 4.8 km/h
2558 16-04-2014 22:00:00 8.1 C 5.41 g/m*3 8.1 C 4.8 km/h
2559 16-04-2014 22:05:00 8 C 5.37 g/m*3 8 C 4.8 km/h
2560 16-04-2014 22:10:00 7.9 C 5.34 g/m*3 7.9 C 4.8 km/h
2561 16-04-2014 22:15:00 7.8 C 5.47 g/m*3 7.8 C 4.8 km/h
2562 16-04-2014 22:20:00 7.8 C 5.55 g/m*3 7.8 C 4.8 km/h
2563 16-04-2014 22:25:00 7.7 C 5.35 g/m*3 7.7 C 4.8 km/h
2564 16-04-2014 22:30:00 7.7 C 5.43 g/m*3 7.7 C 4.8 km/h
2565 16-04-2014 22:35:00 7.6 C 5.48 g/m*3 7.6 C 3.2 km/h
2566 16-04-2014 22:40:00 7.6 C 5.48 g/m*3 7.6 C 4.8 km/h
2567 16-04-2014 22:45:00 7.4 C 5.41 g/m*3 7.4 C 4.8 km/h
2568 16-04-2014 22:50:00 7.3 C 5.45 g/m*3 7.3 C 4.8 km/h
2569 16-04-2014 22:55:00 7.2 C 5.65 g/m*3 7.2 C 4.8 km/h
2570 16-04-2014 23:00:00 7.2 C 5.42 g/m*3 7.2 C 4.8 km/h
2571 16-04-2014 23:05:00 7.1 C 5.54 g/m*3 7.1 C 3.2 km/h
2572 16-04-2014 23:10:00 6.9 C 5.47 g/m*3 6.9 C 4.8 km/h
2573 16-04-2014 23:15:00 6.9 C 5.47 g/m*3 6.9 C 3.2 km/h
2574 16-04-2014 23:20:00 6.8 C 5.43 g/m*3 6.8 C 3.2 km/h
2575 16-04-2014 23:25:00 6.7 C 5.39 g/m*3 6.7 C 3.2 km/h
Sensor: Nr:Datum:Temp:Abs-Feuchte:Windchill:Wind:
Aussen-T/F 2576 16-04-2014 23:30:00 6.7 C 5.39 g/m*3 6.7 C 1.6 km/h
2577 16-04-2014 23:35:00 6.6 C 5.36 g/m*3 6.6 C 3.2 km/h
2578 16-04-2014 23:40:00 6.6 C 5.51 g/m*3 6.6 C 1.6 km/h
2579 16-04-2014 23:45:00 6.5 C 5.47 g/m*3 6.5 C 0 km/h
2580 16-04-2014 23:50:00 6.4 C 5.36 g/m*3 6.4 C 1.6 km/h
2581 16-04-2014 23:55:00 6.3 C 5.4 g/m*3 6.3 C 0 km/h
2582 17-04-2014 00:00:00 6.2 C 5.37 g/m*3 6.2 C 0 km/h
2583 17-04-2014 00:05:00 6.1 C 5.33 g/m*3 6.1 C 0 km/h
2584 17-04-2014 00:10:00 5.9 C 5.26 g/m*3 5.9 C 0 km/h
2585 17-04-2014 00:15:00 5.8 C 5.3 g/m*3 5.8 C 0 km/h
2586 17-04-2014 00:20:00 5.8 C 5.37 g/m*3 5.8 C 0 km/h
2587 17-04-2014 00:25:00 5.7 C 5.41 g/m*3 5.7 C 0 km/h
2588 17-04-2014 00:30:00 5.6 C 5.37 g/m*3 5.6 C 0 km/h
2589 17-04-2014 00:35:00 5.5 C 5.34 g/m*3 5.5 C 0 km/h
2590 17-04-2014 00:40:00 5.4 C 5.37 g/m*3 5.4 C 0 km/h
2591 17-04-2014 00:45:00 5.3 C 5.34 g/m*3 5.3 C 0 km/h
2592 17-04-2014 00:50:00 5.3 C 5.27 g/m*3 5.3 C 0 km/h
2593 17-04-2014 00:55:00 5.2 C 5.23 g/m*3 5.2 C 0 km/h
2594 17-04-2014 01:00:00 5.2 C 5.3 g/m*3 5.2 C 0 km/h
2595 17-04-2014 01:05:00 5.2 C 5.37 g/m*3 5.2 C 0 km/h
2596 17-04-2014 01:10:00 5.1 C 5.27 g/m*3 5.1 C 0 km/h
2597 17-04-2014 01:15:00 5 C 5.3 g/m*3 5 C 0 km/h
2598 17-04-2014 01:20:00 4.9 C 5.27 g/m*3 4.9 C 0 km/h
2599 17-04-2014 01:25:00 4.9 C 5.27 g/m*3 4.9 C 0 km/h
2600 17-04-2014 01:30:00 4.8 C 5.23 g/m*3 4.8 C 0 km/h
Sensor: Nr:Datum:Temp:Abs-Feuchte:Windchill:Wind:
Aussen-T/F 2601 17-04-2014 01:35:00 4.8 C 5.23 g/m*3 4.8 C 0 km/h
2602 17-04-2014 01:40:00 4.7 C 5.26 g/m*3 4.7 C 0 km/h
2603 17-04-2014 01:45:00 4.6 C 5.23 g/m*3 4.6 C 0 km/h
2604 17-04-2014 01:50:00 4.6 C 5.29 g/m*3 4.6 C 0 km/h
2605 17-04-2014 01:55:00 4.5 C 5.26 g/m*3 4.5 C 0 km/h
2606 17-04-2014 02:00:00 4.4 C 5.16 g/m*3 4.4 C 0 km/h
2607 17-04-2014 02:05:00 4.3 C 5.12 g/m*3 4.3 C 0 km/h
2608 17-04-2014 02:10:00 4.3 C 5.19 g/m*3 4.3 C 0 km/h
2609 17-04-2014 02:15:00 4.3 C 5.19 g/m*3 4.3 C 0 km/h
2610 17-04-2014 02:20:00 4.2 C 5.22 g/m*3 4.2 C 0 km/h
2611 17-04-2014 02:25:00 4.2 C 5.22 g/m*3 4.2 C 0 km/h
2612 17-04-2014 02:30:00 4.1 C 5.18 g/m*3 4.1 C 0 km/h
2613 17-04-2014 02:35:00 4 C 5.15 g/m*3 4 C 0 km/h
2614 17-04-2014 02:40:00 3.9 C 5.18 g/m*3 3.9 C 0 km/h
2615 17-04-2014 02:45:00 3.8 C 5.14 g/m*3 3.8 C 0 km/h
2616 17-04-2014 02:50:00 3.8 C 5.14 g/m*3 3.8 C 1.6 km/h
2617 17-04-2014 02:55:00 3.7 C 5.17 g/m*3 3.7 C 3.2 km/h
2618 17-04-2014 03:00:00 3.7 C 5.23 g/m*3 3.7 C 3.2 km/h
2619 17-04-2014 03:05:00 3.6 C 5.2 g/m*3 3.6 C 1.6 km/h
2620 17-04-2014 03:10:00 3.6 C 5.32 g/m*3 3.6 C 0 km/h
2621 17-04-2014 03:15:00 3.6 C 5.32 g/m*3 3.6 C 0 km/h
2622 17-04-2014 03:20:00 3.5 C 5.29 g/m*3 3.5 C 0 km/h
2623 17-04-2014 03:25:00 3.4 C 5.25 g/m*3 3.4 C 0 km/h
2624 17-04-2014 03:30:00 3.3 C 5.22 g/m*3 3.3 C 0 km/h
2625 17-04-2014 03:35:00 3.3 C 5.22 g/m*3 3.3 C 0 km/h
Sensor: Nr:Datum:Temp:Abs-Feuchte:Windchill:Wind:
Aussen-T/F 2626 17-04-2014 03:40:00 3.3 C 5.22 g/m*3 3.3 C 0 km/h
2627 17-04-2014 03:45:00 3.2 C 5.18 g/m*3 3.2 C 0 km/h
2628 17-04-2014 03:50:00 3.2 C 5.24 g/m*3 3.2 C 0 km/h
2629 17-04-2014 03:55:00 3.1 C 5.21 g/m*3 3.1 C 0 km/h
2630 17-04-2014 04:00:00 3 C 5.17 g/m*3 3 C 0 km/h
2631 17-04-2014 04:05:00 2.9 C 5.14 g/m*3 2.9 C 0 km/h
2632 17-04-2014 04:10:00 2.8 C 5.1 g/m*3 2.8 C 0 km/h
2633 17-04-2014 04:15:00 2.8 C 5.1 g/m*3 2.8 C 0 km/h
2634 17-04-2014 04:20:00 2.7 C 5.07 g/m*3 2.7 C 0 km/h
2635 17-04-2014 04:25:00 2.7 C 5.07 g/m*3 2.7 C 0 km/h
2636 17-04-2014 04:30:00 2.6 C 5.03 g/m*3 2.6 C 0 km/h
2637 17-04-2014 04:35:00 2.5 C 5 g/m*3 2.5 C 0 km/h
2638 17-04-2014 04:40:00 2.4 C 4.97 g/m*3 2.4 C 0 km/h
2639 17-04-2014 04:45:00 2.3 C 4.99 g/m*3 2.3 C 0 km/h
2640 17-04-2014 04:50:00 2.3 C 4.99 g/m*3 2.3 C 0 km/h
2641 17-04-2014 04:55:00 2.3 C 5.05 g/m*3 2.3 C 0 km/h
2642 17-04-2014 05:00:00 2.2 C 4.96 g/m*3 2.2 C 0 km/h
2643 17-04-2014 05:05:00 2.1 C 4.92 g/m*3 2.1 C 0 km/h
2644 17-04-2014 05:10:00 2.1 C 4.92 g/m*3 2.1 C 0 km/h
2645 17-04-2014 05:15:00 1.9 C 4.91 g/m*3 1.9 C 0 km/h
2646 17-04-2014 05:20:00 1.9 C 4.91 g/m*3 1.9 C 0 km/h
2647 17-04-2014 05:25:00 1.8 C 4.88 g/m*3 1.8 C 0 km/h
2648 17-04-2014 05:30:00 1.8 C 4.93 g/m*3 1.8 C 0 km/h
2649 17-04-2014 05:35:00 1.8 C 4.93 g/m*3 1.8 C 1.6 km/h
2650 17-04-2014 05:40:00 1.8 C 4.93 g/m*3 1.8 C 0 km/h
Sensor: Nr:Datum:Temp:Abs-Feuchte:Windchill:Wind:
Aussen-T/F 2651 17-04-2014 05:45:00 1.8 C 4.93 g/m*3 1.8 C 0 km/h
2652 17-04-2014 05:50:00 1.7 C 4.9 g/m*3 1.7 C 0 km/h
2653 17-04-2014 05:55:00 1.7 C 4.9 g/m*3 1.7 C 0 km/h
2654 17-04-2014 06:00:00 1.7 C 4.95 g/m*3 1.7 C 0 km/h
2655 17-04-2014 06:05:00 1.7 C 4.95 g/m*3 1.7 C 0 km/h
2656 17-04-2014 06:10:00 1.7 C 4.95 g/m*3 1.7 C 0 km/h
2657 17-04-2014 06:15:00 1.6 C 4.92 g/m*3 1.6 C 0 km/h
2658 17-04-2014 06:20:00 1.6 C 4.92 g/m*3 1.6 C 0 km/h
2659 17-04-2014 06:25:00 1.5 C 4.89 g/m*3 1.5 C 0 km/h
2660 17-04-2014 06:30:00 1.5 C 4.89 g/m*3 1.5 C 0 km/h
2661 17-04-2014 06:35:00 1.4 C 4.85 g/m*3 1.4 C 0 km/h
2662 17-04-2014 06:40:00 1.4 C 4.85 g/m*3 1.4 C 0 km/h
2663 17-04-2014 06:45:00 1.3 C 4.82 g/m*3 1.3 C 0 km/h
2664 17-04-2014 06:50:00 1.3 C 4.82 g/m*3 1.3 C 0 km/h
2665 17-04-2014 06:55:00 1.3 C 4.82 g/m*3 1.3 C 0 km/h
2666 17-04-2014 07:00:00 1.3 C 4.82 g/m*3 1.3 C 0 km/h
2667 17-04-2014 07:05:00 1.3 C 4.87 g/m*3 1.3 C 0 km/h
2668 17-04-2014 07:10:00 1.3 C 4.87 g/m*3 1.3 C 0 km/h
2669 17-04-2014 07:15:00 1.3 C 4.87 g/m*3 1.3 C 0 km/h
2670 17-04-2014 07:20:00 1.3 C 4.87 g/m*3 1.3 C 0 km/h
2671 17-04-2014 07:25:00 1.3 C 4.87 g/m*3 1.3 C 0 km/h
2672 17-04-2014 07:30:00 1.4 C 4.91 g/m*3 1.4 C 0 km/h
2673 17-04-2014 07:35:00 1.4 C 4.91 g/m*3 1.4 C 0 km/h
2674 17-04-2014 07:40:00 1.4 C 4.91 g/m*3 1.4 C 0 km/h
2675 17-04-2014 07:45:00 1.5 C 4.94 g/m*3 1.5 C 0 km/h
Sensor: Nr:Datum:Temp:Abs-Feuchte:Windchill:Wind:
Aussen-T/F 2676 17-04-2014 07:50:00 1.6 C 4.97 g/m*3 1.6 C 0 km/h
2677 17-04-2014 07:55:00 1.6 C 4.97 g/m*3 1.6 C 0 km/h
2678 17-04-2014 08:00:00 1.6 C 4.97 g/m*3 1.6 C 0 km/h
2679 17-04-2014 08:05:00 1.7 C 5.01 g/m*3 1.7 C 0 km/h
2680 17-04-2014 08:10:00 1.7 C 5.01 g/m*3 1.7 C 0 km/h
2681 17-04-2014 08:15:00 1.8 C 5.04 g/m*3 1.8 C 0 km/h
2682 17-04-2014 08:20:00 1.9 C 5.08 g/m*3 1.9 C 0 km/h
2683 17-04-2014 08:25:00 1.9 C 5.08 g/m*3 1.9 C 0 km/h
2684 17-04-2014 08:30:00 2.1 C 5.15 g/m*3 2.1 C 0 km/h
2685 17-04-2014 08:35:00 2.2 C 5.18 g/m*3 2.2 C 0 km/h
2686 17-04-2014 08:40:00 2.4 C 5.25 g/m*3 2.4 C 0 km/h
2687 17-04-2014 08:45:00 2.5 C 5.23 g/m*3 2.5 C 0 km/h
2688 17-04-2014 08:50:00 2.7 C 5.3 g/m*3 2.7 C 0 km/h
2689 17-04-2014 08:55:00 2.8 C 5.34 g/m*3 2.8 C 0 km/h
2690 17-04-2014 09:00:00 2.9 C 5.37 g/m*3 2.9 C 0 km/h
2691 17-04-2014 09:05:00 3.1 C 5.45 g/m*3 3.1 C 1.6 km/h
2692 17-04-2014 09:10:00 3.3 C 5.46 g/m*3 3.3 C 0 km/h
2693 17-04-2014 09:15:00 3.6 C 5.51 g/m*3 3.6 C 0 km/h
2694 17-04-2014 09:20:00 3.8 C 5.52 g/m*3 3.8 C 0 km/h
2695 17-04-2014 09:25:00 4.1 C 5.57 g/m*3 4.1 C 0 km/h
2696 17-04-2014 09:30:00 4.3 C 5.64 g/m*3 4.3 C 0 km/h
2697 17-04-2014 09:35:00 4.5 C 5.65 g/m*3 4.5 C 1.6 km/h
2698 17-04-2014 09:40:00 4.8 C 5.7 g/m*3 4.8 C 0 km/h
2699 17-04-2014 09:45:00 5 C 5.71 g/m*3 5 C 0 km/h
2700 17-04-2014 09:50:00 5.3 C 5.82 g/m*3 5.3 C 0 km/h
Sensor: Nr:Datum:Temp:Abs-Feuchte:Windchill:Wind:
Aussen-T/F 2701 17-04-2014 09:55:00 5.5 C 5.83 g/m*3 5.5 C 0 km/h
2702 17-04-2014 10:00:00 5.7 C 5.91 g/m*3 5.7 C 1.6 km/h
2703 17-04-2014 10:05:00 5.9 C 5.98 g/m*3 5.9 C 1.6 km/h
2704 17-04-2014 10:10:00 6.2 C 5.96 g/m*3 6.2 C 1.6 km/h
2705 17-04-2014 10:15:00 6.5 C 6.07 g/m*3 6.5 C 0 km/h
2706 17-04-2014 10:20:00 6.8 C 6.12 g/m*3 6.8 C 0 km/h
2707 17-04-2014 10:25:00 6.9 C 6 g/m*3 6.9 C 0 km/h
2708 17-04-2014 10:30:00 7.2 C 6.2 g/m*3 7.2 C 0 km/h
2709 17-04-2014 10:35:00 7.4 C 6.12 g/m*3 7.4 C 0 km/h
2710 17-04-2014 10:40:00 7.6 C 6.2 g/m*3 7.6 C 0 km/h
2711 17-04-2014 10:45:00 7.8 C 6.37 g/m*3 7.8 C 0 km/h
2712 17-04-2014 10:50:00 8.1 C 6.24 g/m*3 8.1 C 1.6 km/h
2713 17-04-2014 10:55:00 8.4 C 6.11 g/m*3 8.4 C 0 km/h
2714 17-04-2014 11:00:00 8.6 C 6.27 g/m*3 8.6 C 0 km/h
2715 17-04-2014 11:05:00 8.8 C 6.09 g/m*3 8.8 C 0 km/h
2716 17-04-2014 11:10:00 9 C 5.91 g/m*3 9 C 0 km/h
2717 17-04-2014 11:15:00 9.4 C 5.97 g/m*3 9.4 C 3.2 km/h
2718 17-04-2014 11:20:00 9.8 C 6.03 g/m*3 9.8 C 3.2 km/h
2719 17-04-2014 11:25:00 10.2 C 6.09 g/m*3 9.22 C 8.1 km/h
2720 17-04-2014 11:30:00 10.8 C 5.83 g/m*3 9.93 C 8.1 km/h
2721 17-04-2014 11:35:00 11.4 C 5.75 g/m*3 11.4 C 4.8 km/h
2722 17-04-2014 11:40:00 11.7 C 5.86 g/m*3 11.7 C 8.1 km/h
2723 17-04-2014 11:45:00 11.9 C 5.51 g/m*3 11.9 C 4.8 km/h
2724 17-04-2014 11:50:00 12.3 C 5.75 g/m*3 12.3 C 8.1 km/h
2725 17-04-2014 11:55:00 12.4 C 5.57 g/m*3 12.4 C 9.7 km/h
Sensor: Nr:Datum:Temp:Abs-Feuchte:Windchill:Wind:
Aussen-T/F 2726 17-04-2014 12:00:00 12.6 C 5.53 g/m*3 12.6 C 11.3 km/h
2727 17-04-2014 12:05:00 12.9 C 5.41 g/m*3 12.9 C 4.8 km/h
2728 17-04-2014 12:10:00 12.9 C 5.18 g/m*3 12.9 C 12.9 km/h
2729 17-04-2014 12:15:00 13.1 C 5.71 g/m*3 13.1 C 4.8 km/h
2730 17-04-2014 12:20:00 13.5 C 5.38 g/m*3 13.5 C 6.4 km/h
2731 17-04-2014 12:25:00 13.6 C 5.65 g/m*3 13.6 C 6.4 km/h
2732 17-04-2014 12:30:00 13.8 C 5.6 g/m*3 13.8 C 8.1 km/h
2733 17-04-2014 12:35:00 14 C 5.67 g/m*3 14 C 11.3 km/h
2734 17-04-2014 12:40:00 14.3 C 5.77 g/m*3 14.3 C 6.4 km/h
2735 17-04-2014 12:45:00 14.3 C 5.41 g/m*3 14.3 C 8.1 km/h
2736 17-04-2014 12:50:00 14.3 C 5.28 g/m*3 14.3 C 6.4 km/h
2737 17-04-2014 12:55:00 14.7 C 5.41 g/m*3 14.7 C 8.1 km/h
2738 17-04-2014 13:00:00 15 C 5.51 g/m*3 15 C 8.1 km/h
2739 17-04-2014 13:05:00 15.3 C 5.35 g/m*3 15.3 C 6.4 km/h
2740 17-04-2014 13:10:00 15.3 C 5.22 g/m*3 15.3 C 8.1 km/h
2741 17-04-2014 13:15:00 15.3 C 5.22 g/m*3 15.3 C 8.1 km/h
2742 17-04-2014 13:20:00 15.4 C 5.39 g/m*3 15.4 C 11.3 km/h
2743 17-04-2014 13:25:00 15.6 C 5.45 g/m*3 15.6 C 11.3 km/h
2744 17-04-2014 13:30:00 15.6 C 5.05 g/m*3 15.6 C 8.1 km/h
2745 17-04-2014 13:35:00 15.7 C 5.22 g/m*3 15.7 C 8.1 km/h
2746 17-04-2014 13:40:00 15.8 C 5.25 g/m*3 15.8 C 9.7 km/h
2747 17-04-2014 13:45:00 15.9 C 5.01 g/m*3 15.9 C 9.7 km/h
2748 17-04-2014 13:50:00 15.7 C 5.22 g/m*3 15.7 C 6.4 km/h
2749 17-04-2014 13:55:00 15.8 C 4.85 g/m*3 15.8 C 8.1 km/h
2750 17-04-2014 14:00:00 15.9 C 5.42 g/m*3 15.9 C 6.4 km/h
Sensor: Nr:Datum:Temp:Abs-Feuchte:Windchill:Wind:
Aussen-T/F 2751 17-04-2014 14:05:00 16 C 5.45 g/m*3 16 C 6.4 km/h
2752 17-04-2014 14:10:00 16 C 5.18 g/m*3 16 C 6.4 km/h
2753 17-04-2014 14:15:00 15.9 C 5.01 g/m*3 15.9 C 6.4 km/h
2754 17-04-2014 14:20:00 16.1 C 5.35 g/m*3 16.1 C 8.1 km/h
2755 17-04-2014 14:25:00 16.2 C 5.38 g/m*3 16.2 C 4.8 km/h
2756 17-04-2014 14:30:00 16.1 C 5.07 g/m*3 16.1 C 4.8 km/h
2757 17-04-2014 14:35:00 16.3 C 5.83 g/m*3 16.3 C 6.4 km/h
2758 17-04-2014 14:40:00 16.5 C 5.34 g/m*3 16.5 C 8.1 km/h
2759 17-04-2014 14:45:00 16.4 C 4.75 g/m*3 16.4 C 9.7 km/h
2760 17-04-2014 14:50:00 16.3 C 5.27 g/m*3 16.3 C 4.8 km/h
2761 17-04-2014 14:55:00 16.2 C 5.1 g/m*3 16.2 C 4.8 km/h
2762 17-04-2014 15:00:00 16.5 C 5.06 g/m*3 16.5 C 6.4 km/h
2763 17-04-2014 15:05:00 16.6 C 4.94 g/m*3 16.6 C 8.1 km/h
2764 17-04-2014 15:10:00 16.5 C 5.2 g/m*3 16.5 C 6.4 km/h
2765 17-04-2014 15:15:00 16.5 C 5.62 g/m*3 16.5 C 11.3 km/h
2766 17-04-2014 15:20:00 16.7 C 5.54 g/m*3 16.7 C 3.2 km/h
2767 17-04-2014 15:25:00 16.8 C 5.72 g/m*3 16.8 C 4.8 km/h
2768 17-04-2014 15:30:00 16.8 C 5.15 g/m*3 16.8 C 4.8 km/h
2769 17-04-2014 15:35:00 16.9 C 5.47 g/m*3 16.9 C 4.8 km/h
2770 17-04-2014 15:40:00 17.2 C 5.56 g/m*3 17.2 C 6.4 km/h
2771 17-04-2014 15:45:00 17.7 C 6.04 g/m*3 17.7 C 6.4 km/h
2772 17-04-2014 15:50:00 17.8 C 5.46 g/m*3 17.8 C 3.2 km/h
2773 17-04-2014 15:55:00 17.8 C 5.16 g/m*3 17.8 C 8.1 km/h
2774 17-04-2014 16:00:00 18 C 6.14 g/m*3 18 C 6.4 km/h
2775 17-04-2014 16:05:00 18.2 C 5.44 g/m*3 18.2 C 6.4 km/h
Sensor: Nr:Datum:Temp:Abs-Feuchte:Windchill:Wind:
Aussen-T/F 2776 17-04-2014 16:10:00 18.6 C 6.05 g/m*3 18.6 C 4.8 km/h
2777 17-04-2014 16:15:00 18.6 C 5.89 g/m*3 18.6 C 8.1 km/h
2778 17-04-2014 16:20:00 18.6 C 5.41 g/m*3 18.6 C 6.4 km/h
2779 17-04-2014 16:25:00 18.8 C 5.31 g/m*3 18.8 C 8.1 km/h
2780 17-04-2014 16:30:00 18.9 C 5.51 g/m*3 18.9 C 11.3 km/h
2781 17-04-2014 16:35:00 18.9 C 5.51 g/m*3 18.9 C 14.5 km/h
2782 17-04-2014 16:40:00 19.2 C 5.61 g/m*3 19.2 C 12.9 km/h
2783 17-04-2014 16:45:00 19.1 C 4.75 g/m*3 19.1 C 11.3 km/h
2784 17-04-2014 16:50:00 19 C 4.89 g/m*3 19 C 16.1 km/h
2785 17-04-2014 16:55:00 19.2 C 5.11 g/m*3 19.2 C 16.1 km/h
2786 17-04-2014 17:00:00 19.4 C 5.17 g/m*3 19.4 C 8.1 km/h
2787 17-04-2014 17:05:00 19.4 C 5.17 g/m*3 19.4 C 9.7 km/h
2788 17-04-2014 17:10:00 19.6 C 5.23 g/m*3 19.6 C 9.7 km/h
2789 17-04-2014 17:15:00 19.4 C 5.17 g/m*3 19.4 C 12.9 km/h
2790 17-04-2014 17:20:00 19.4 C 5.34 g/m*3 19.4 C 12.9 km/h
2791 17-04-2014 17:25:00 19.4 C 5.17 g/m*3 19.4 C 14.5 km/h
2792 17-04-2014 17:30:00 19.5 C 5.03 g/m*3 19.5 C 8.1 km/h
2793 17-04-2014 17:35:00 19.5 C 5.54 g/m*3 19.5 C 9.7 km/h
2794 17-04-2014 17:40:00 19.5 C 5.2 g/m*3 19.5 C 8.1 km/h
2795 17-04-2014 17:45:00 19.6 C 5.06 g/m*3 19.6 C 8.1 km/h
2796 17-04-2014 17:50:00 19.4 C 5.17 g/m*3 19.4 C 6.4 km/h
2797 17-04-2014 17:55:00 19.6 C 5.23 g/m*3 19.6 C 9.7 km/h
2798 17-04-2014 18:00:00 19.6 C 5.57 g/m*3 19.6 C 6.4 km/h
2799 17-04-2014 18:05:00 19.6 C 5.57 g/m*3 19.6 C 8.1 km/h
2800 17-04-2014 18:10:00 19.7 C 4.92 g/m*3 19.7 C 11.3 km/h
Sensor: Nr:Datum:Temp:Abs-Feuchte:Windchill:Wind:
Aussen-T/F 2801 17-04-2014 18:15:00 19.7 C 5.26 g/m*3 19.7 C 1.6 km/h
2802 17-04-2014 18:20:00 19.7 C 5.6 g/m*3 19.7 C 3.2 km/h
2803 17-04-2014 18:25:00 19.6 C 5.06 g/m*3 19.6 C 8.1 km/h
2804 17-04-2014 18:30:00 19.5 C 5.2 g/m*3 19.5 C 4.8 km/h
2805 17-04-2014 18:35:00 19.5 C 5.2 g/m*3 19.5 C 6.4 km/h
2806 17-04-2014 18:40:00 19.5 C 5.37 g/m*3 19.5 C 4.8 km/h
2807 17-04-2014 18:45:00 19.4 C 6.01 g/m*3 19.4 C 3.2 km/h
2808 17-04-2014 18:50:00 19.3 C 5.47 g/m*3 19.3 C 1.6 km/h
2809 17-04-2014 18:55:00 19.4 C 5.67 g/m*3 19.4 C 0 km/h
2810 17-04-2014 19:00:00 19.3 C 5.47 g/m*3 19.3 C 1.6 km/h
2811 17-04-2014 19:05:00 19.3 C 5.64 g/m*3 19.3 C 4.8 km/h
2812 17-04-2014 19:10:00 19.2 C 5.94 g/m*3 19.2 C 4.8 km/h
2813 17-04-2014 19:15:00 18.7 C 6.08 g/m*3 18.7 C 4.8 km/h
2814 17-04-2014 19:20:00 17.9 C 6.57 g/m*3 17.9 C 1.6 km/h
2815 17-04-2014 19:25:00 16.9 C 6.33 g/m*3 16.9 C 0 km/h
2816 17-04-2014 19:30:00 16.1 C 6.58 g/m*3 16.1 C 1.6 km/h
2817 17-04-2014 19:35:00 15.3 C 6.53 g/m*3 15.3 C 3.2 km/h
2818 17-04-2014 19:40:00 14.7 C 6.55 g/m*3 14.7 C 4.8 km/h
2819 17-04-2014 19:45:00 14.2 C 6.59 g/m*3 14.2 C 4.8 km/h
2820 17-04-2014 19:50:00 13.8 C 6.43 g/m*3 13.8 C 4.8 km/h
2821 17-04-2014 19:55:00 13.6 C 6.59 g/m*3 13.6 C 4.8 km/h
2822 17-04-2014 20:00:00 13.3 C 6.59 g/m*3 13.3 C 4.8 km/h
2823 17-04-2014 20:05:00 13.1 C 6.39 g/m*3 13.1 C 4.8 km/h
2824 17-04-2014 20:10:00 12.9 C 6.31 g/m*3 12.9 C 3.2 km/h
2825 17-04-2014 20:15:00 12.8 C 6.27 g/m*3 12.8 C 4.8 km/h
Sensor: Nr:Datum:Temp:Abs-Feuchte:Windchill:Wind:
Aussen-T/F 2826 17-04-2014 20:20:00 12.7 C 6.23 g/m*3 12.7 C 4.8 km/h
2827 17-04-2014 20:25:00 12.6 C 6.31 g/m*3 12.6 C 4.8 km/h
2828 17-04-2014 20:30:00 12.5 C 6.27 g/m*3 12.5 C 3.2 km/h
2829 17-04-2014 20:35:00 12.4 C 6.23 g/m*3 12.4 C 3.2 km/h
2830 17-04-2014 20:40:00 12.3 C 6.3 g/m*3 12.3 C 3.2 km/h
2831 17-04-2014 20:45:00 12.2 C 6.26 g/m*3 12.2 C 3.2 km/h
2832 17-04-2014 20:50:00 12.2 C 6.37 g/m*3 12.2 C 1.6 km/h
2833 17-04-2014 20:55:00 12.2 C 6.26 g/m*3 12.2 C 0 km/h
2834 17-04-2014 21:00:00 12.1 C 6.33 g/m*3 12.1 C 0 km/h
2835 17-04-2014 21:05:00 12 C 6.29 g/m*3 12 C 1.6 km/h
2836 17-04-2014 21:10:00 12 C 6.29 g/m*3 12 C 1.6 km/h
2837 17-04-2014 21:15:00 12.1 C 5.9 g/m*3 12.1 C 1.6 km/h
2838 17-04-2014 21:20:00 12.3 C 6.19 g/m*3 12.3 C 1.6 km/h
2839 17-04-2014 21:25:00 12.4 C 5.9 g/m*3 12.4 C 4.8 km/h
2840 17-04-2014 21:30:00 12.6 C 5.86 g/m*3 12.6 C 1.6 km/h
2841 17-04-2014 21:35:00 12.6 C 5.86 g/m*3 12.6 C 1.6 km/h
2842 17-04-2014 21:40:00 12.7 C 5.68 g/m*3 12.7 C 3.2 km/h
2843 17-04-2014 21:45:00 12.8 C 5.94 g/m*3 12.8 C 4.8 km/h
2844 17-04-2014 21:50:00 12.9 C 5.64 g/m*3 12.9 C 3.2 km/h
2845 17-04-2014 21:55:00 13.1 C 5.71 g/m*3 13.1 C 6.4 km/h
2846 17-04-2014 22:00:00 13 C 5.78 g/m*3 13 C 1.6 km/h
2847 17-04-2014 22:05:00 12.9 C 5.86 g/m*3 12.9 C 3.2 km/h
2848 17-04-2014 22:10:00 12.8 C 5.6 g/m*3 12.8 C 6.4 km/h
2849 17-04-2014 22:15:00 12.9 C 5.75 g/m*3 12.9 C 3.2 km/h
2850 17-04-2014 22:20:00 12.9 C 5.64 g/m*3 12.9 C 1.6 km/h
Sensor: Nr:Datum:Temp:Abs-Feuchte:Windchill:Wind:
Aussen-T/F 2851 17-04-2014 22:25:00 12.9 C 5.64 g/m*3 12.9 C 3.2 km/h
2852 17-04-2014 22:30:00 13 C 5.56 g/m*3 13 C 1.6 km/h
2853 17-04-2014 22:35:00 13 C 5.9 g/m*3 13 C 4.8 km/h
2854 17-04-2014 22:40:00 12.9 C 5.75 g/m*3 12.9 C 4.8 km/h
2855 17-04-2014 22:45:00 12.9 C 5.64 g/m*3 12.9 C 1.6 km/h
2856 17-04-2014 22:50:00 12.9 C 5.75 g/m*3 12.9 C 3.2 km/h
2857 17-04-2014 22:55:00 12.9 C 5.64 g/m*3 12.9 C 3.2 km/h
2858 17-04-2014 23:00:00 12.9 C 5.75 g/m*3 12.9 C 3.2 km/h
2859 17-04-2014 23:05:00 12.8 C 5.6 g/m*3 12.8 C 6.4 km/h
2860 17-04-2014 23:10:00 12.8 C 6.05 g/m*3 12.8 C 4.8 km/h
2861 17-04-2014 23:15:00 12.7 C 5.79 g/m*3 12.7 C 1.6 km/h
2862 17-04-2014 23:20:00 12.6 C 6.08 g/m*3 12.6 C 3.2 km/h
2863 17-04-2014 23:25:00 12.6 C 5.97 g/m*3 12.6 C 3.2 km/h
2864 17-04-2014 23:30:00 12.5 C 5.61 g/m*3 12.5 C 3.2 km/h
2865 17-04-2014 23:35:00 12.7 C 6.23 g/m*3 12.7 C 1.6 km/h
2866 17-04-2014 23:40:00 12.5 C 6.27 g/m*3 12.5 C 1.6 km/h
2867 17-04-2014 23:45:00 12.3 C 6.19 g/m*3 12.3 C 1.6 km/h
2868 17-04-2014 23:50:00 12.2 C 6.37 g/m*3 12.2 C 0 km/h
2869 17-04-2014 23:55:00 12.1 C 6.43 g/m*3 12.1 C 0 km/h
2870 18-04-2014 00:00:00 11.9 C 6.46 g/m*3 11.9 C 1.6 km/h
2871 18-04-2014 00:05:00 11.8 C 6.21 g/m*3 11.8 C 0 km/h
2872 18-04-2014 00:10:00 11.7 C 6.28 g/m*3 11.7 C 1.6 km/h
2873 18-04-2014 00:15:00 11.7 C 6.28 g/m*3 11.7 C 1.6 km/h
2874 18-04-2014 00:20:00 11.7 C 6.48 g/m*3 11.7 C 3.2 km/h
2875 18-04-2014 00:25:00 11.6 C 6.03 g/m*3 11.6 C 4.8 km/h
Sensor: Nr:Datum:Temp:Abs-Feuchte:Windchill:Wind:
Aussen-T/F 2876 18-04-2014 00:30:00 11.7 C 6.38 g/m*3 11.7 C 3.2 km/h
2877 18-04-2014 00:35:00 11.7 C 6.28 g/m*3 11.7 C 3.2 km/h
2878 18-04-2014 00:40:00 11.8 C 6.21 g/m*3 11.8 C 8.1 km/h
2879 18-04-2014 00:45:00 11.8 C 6.31 g/m*3 11.8 C 3.2 km/h
2880 18-04-2014 00:50:00 11.8 C 5.89 g/m*3 11.8 C 3.2 km/h
2881 18-04-2014 00:55:00 12 C 6.39 g/m*3 12 C 3.2 km/h
2882 18-04-2014 01:00:00 11.9 C 6.67 g/m*3 11.9 C 4.8 km/h
2883 18-04-2014 01:05:00 11.9 C 6.67 g/m*3 11.9 C 1.6 km/h
2884 18-04-2014 01:10:00 12 C 6.29 g/m*3 12 C 8.1 km/h
2885 18-04-2014 01:15:00 12.2 C 6.69 g/m*3 12.2 C 4.8 km/h
2886 18-04-2014 01:20:00 12.1 C 6.76 g/m*3 12.1 C 4.8 km/h
2887 18-04-2014 01:25:00 11.9 C 7.52 g/m*3 11.9 C 1.6 km/h
2888 18-04-2014 01:30:00 11.4 C 7.8 g/m*3 11.4 C 3.2 km/h
2889 18-04-2014 01:35:00 10.9 C 7.86 g/m*3 10.04 C 8.1 km/h
2890 18-04-2014 01:40:00 10.6 C 7.91 g/m*3 9.69 C 8.1 km/h
2891 18-04-2014 01:45:00 10.3 C 7.66 g/m*3 9.72 C 6.4 km/h
2892 18-04-2014 01:50:00 10.6 C 7.61 g/m*3 10.6 C 3.2 km/h
2893 18-04-2014 01:55:00 10.8 C 7.31 g/m*3 10.29 C 6.4 km/h
2894 18-04-2014 02:00:00 10.8 C 7.71 g/m*3 10.8 C 3.2 km/h
2895 18-04-2014 02:05:00 10.7 C 7.86 g/m*3 10.7 C 4.8 km/h
2896 18-04-2014 02:10:00 10.4 C 7.71 g/m*3 10.4 C 4.8 km/h
2897 18-04-2014 02:15:00 10.3 C 7.76 g/m*3 10.3 C 0 km/h
2898 18-04-2014 02:20:00 10.3 C 7.76 g/m*3 10.3 C 4.8 km/h
2899 18-04-2014 02:25:00 10.2 C 7.42 g/m*3 9.6 C 6.4 km/h
2900 18-04-2014 02:30:00 10.6 C 7.03 g/m*3 10.6 C 4.8 km/h
Sensor: Nr:Datum:Temp:Abs-Feuchte:Windchill:Wind:
Aussen-T/F 2901 18-04-2014 02:35:00 11.1 C 7.05 g/m*3 11.1 C 6.4 km/h
2902 18-04-2014 02:40:00 11.4 C 6.88 g/m*3 11.4 C 9.7 km/h
2903 18-04-2014 02:45:00 11.7 C 7.01 g/m*3 11.7 C 9.7 km/h
2904 18-04-2014 02:50:00 11.9 C 6.99 g/m*3 11.9 C 11.3 km/h
2905 18-04-2014 02:55:00 12 C 7.03 g/m*3 12 C 12.9 km/h
2906 18-04-2014 03:00:00 12 C 7.14 g/m*3 12 C 9.7 km/h
2907 18-04-2014 03:05:00 11.9 C 7.2 g/m*3 11.9 C 6.4 km/h
2908 18-04-2014 03:10:00 11.9 C 7.31 g/m*3 11.9 C 11.3 km/h
2909 18-04-2014 03:15:00 11.8 C 7.37 g/m*3 11.8 C 12.9 km/h
2910 18-04-2014 03:20:00 11.7 C 7.43 g/m*3 11.7 C 6.4 km/h
2911 18-04-2014 03:25:00 11.7 C 7.53 g/m*3 11.7 C 9.7 km/h
2912 18-04-2014 03:30:00 11.6 C 7.59 g/m*3 11.6 C 8.1 km/h
2913 18-04-2014 03:35:00 11.4 C 7.49 g/m*3 11.4 C 14.5 km/h
2914 18-04-2014 03:40:00 11.3 C 7.55 g/m*3 11.3 C 14.5 km/h
2915 18-04-2014 03:45:00 11.2 C 7.6 g/m*3 11.2 C 12.9 km/h
2916 18-04-2014 03:50:00 11.1 C 7.55 g/m*3 11.1 C 8.1 km/h
2917 18-04-2014 03:55:00 11.1 C 7.66 g/m*3 11.1 C 14.5 km/h
2918 18-04-2014 04:00:00 10.9 C 7.66 g/m*3 9.51 C 11.3 km/h
2919 18-04-2014 04:05:00 10.8 C 7.71 g/m*3 9.16 C 12.9 km/h
2920 18-04-2014 04:10:00 10.7 C 7.76 g/m*3 9.52 C 9.7 km/h
2921 18-04-2014 04:15:00 10.6 C 7.71 g/m*3 9.14 C 11.3 km/h
2922 18-04-2014 04:20:00 10.4 C 7.71 g/m*3 8.28 C 16.1 km/h
2923 18-04-2014 04:25:00 10.2 C 7.71 g/m*3 8.92 C 9.7 km/h
2924 18-04-2014 04:30:00 10 C 7.71 g/m*3 7.98 C 14.5 km/h
2925 18-04-2014 04:35:00 9.8 C 7.7 g/m*3 9.14 C 6.4 km/h
Sensor: Nr:Datum:Temp:Abs-Feuchte:Windchill:Wind:
Aussen-T/F 2926 18-04-2014 04:40:00 9.7 C 7.65 g/m*3 7.82 C 12.9 km/h
2927 18-04-2014 04:45:00 9.6 C 7.69 g/m*3 8.21 C 9.7 km/h
2928 18-04-2014 04:50:00 9.5 C 7.74 g/m*3 9.5 C 3.2 km/h
2929 18-04-2014 04:55:00 9.4 C 7.69 g/m*3 7.97 C 9.7 km/h
2930 18-04-2014 05:00:00 9.2 C 7.59 g/m*3 6.99 C 14.5 km/h
2931 18-04-2014 05:05:00 9.1 C 7.54 g/m*3 7.61 C 9.7 km/h
2932 18-04-2014 05:10:00 9 C 7.58 g/m*3 8.21 C 6.4 km/h
2933 18-04-2014 05:15:00 8.9 C 7.53 g/m*3 7.69 C 8.1 km/h
2934 18-04-2014 05:20:00 8.8 C 7.49 g/m*3 7.25 C 9.7 km/h
2935 18-04-2014 05:25:00 8.8 C 7.49 g/m*3 8.8 C 4.8 km/h
2936 18-04-2014 05:30:00 8.8 C 7.57 g/m*3 8.8 C 4.8 km/h
2937 18-04-2014 05:35:00 8.7 C 7.52 g/m*3 8.7 C 4.8 km/h
2938 18-04-2014 05:40:00 8.7 C 7.52 g/m*3 7.46 C 8.1 km/h
2939 18-04-2014 05:45:00 8.6 C 7.56 g/m*3 7.75 C 6.4 km/h
2940 18-04-2014 05:50:00 8.6 C 7.56 g/m*3 7.34 C 8.1 km/h
2941 18-04-2014 05:55:00 8.5 C 7.51 g/m*3 8.5 C 4.8 km/h
2942 18-04-2014 06:00:00 8.4 C 7.47 g/m*3 8.4 C 3.2 km/h
2943 18-04-2014 06:05:00 8.4 C 7.38 g/m*3 7.52 C 6.4 km/h
2944 18-04-2014 06:10:00 8.4 C 7.38 g/m*3 6.49 C 11.3 km/h
2945 18-04-2014 06:15:00 8.4 C 7.47 g/m*3 7.52 C 6.4 km/h
2946 18-04-2014 06:20:00 8.4 C 7.47 g/m*3 7.52 C 6.4 km/h
2947 18-04-2014 06:25:00 8.4 C 7.47 g/m*3 7.52 C 6.4 km/h
2948 18-04-2014 06:30:00 8.4 C 7.47 g/m*3 7.52 C 6.4 km/h
2949 18-04-2014 06:35:00 8.4 C 7.47 g/m*3 6.01 C 14.5 km/h
2950 18-04-2014 06:40:00 8.4 C 7.47 g/m*3 6.78 C 9.7 km/h
Sensor: Nr:Datum:Temp:Abs-Feuchte:Windchill:Wind:
Aussen-T/F 2951 18-04-2014 06:45:00 8.4 C 7.38 g/m*3 7.11 C 8.1 km/h
2952 18-04-2014 06:50:00 8.4 C 7.38 g/m*3 6.78 C 9.7 km/h
2953 18-04-2014 06:55:00 8.4 C 7.38 g/m*3 7.52 C 6.4 km/h
2954 18-04-2014 07:00:00 8.4 C 7.38 g/m*3 7.52 C 6.4 km/h
2955 18-04-2014 07:05:00 8.4 C 7.3 g/m*3 7.52 C 6.4 km/h
2956 18-04-2014 07:10:00 8.3 C 7.25 g/m*3 6.12 C 12.9 km/h
2957 18-04-2014 07:15:00 8.3 C 7.16 g/m*3 6.99 C 8.1 km/h
2958 18-04-2014 07:20:00 8.3 C 7.16 g/m*3 6.37 C 11.3 km/h
2959 18-04-2014 07:25:00 8.3 C 7.16 g/m*3 7.41 C 6.4 km/h
2960 18-04-2014 07:30:00 8.3 C 7.16 g/m*3 7.41 C 6.4 km/h
2961 18-04-2014 07:35:00 8.3 C 7.16 g/m*3 7.41 C 6.4 km/h
2962 18-04-2014 07:40:00 8.4 C 7.21 g/m*3 7.11 C 8.1 km/h
2963 18-04-2014 07:45:00 8.5 C 7.26 g/m*3 6.9 C 9.7 km/h
2964 18-04-2014 07:50:00 8.6 C 7.05 g/m*3 6.48 C 12.9 km/h
2965 18-04-2014 07:55:00 8.5 C 7 g/m*3 6.9 C 9.7 km/h
2966 18-04-2014 08:00:00 8.4 C 6.96 g/m*3 7.52 C 6.4 km/h
2967 18-04-2014 08:05:00 8.4 C 6.87 g/m*3 7.11 C 8.1 km/h
2968 18-04-2014 08:10:00 8.4 C 6.87 g/m*3 6.78 C 9.7 km/h
2969 18-04-2014 08:15:00 8.4 C 6.87 g/m*3 6.24 C 12.9 km/h
2970 18-04-2014 08:20:00 8.3 C 6.83 g/m*3 6.66 C 9.7 km/h
2971 18-04-2014 08:25:00 8.3 C 6.74 g/m*3 5.68 C 16.1 km/h
2972 18-04-2014 08:30:00 8.3 C 6.74 g/m*3 5.68 C 16.1 km/h
2973 18-04-2014 08:35:00 8.5 C 6.83 g/m*3 6.61 C 11.3 km/h
2974 18-04-2014 08:40:00 8.7 C 6.92 g/m*3 6.38 C 14.5 km/h
2975 18-04-2014 08:45:00 8.9 C 6.92 g/m*3 7.37 C 9.7 km/h
Sensor: Nr:Datum:Temp:Abs-Feuchte:Windchill:Wind:
Aussen-T/F 2976 18-04-2014 08:50:00 9 C 6.88 g/m*3 6.75 C 14.5 km/h
2977 18-04-2014 08:55:00 8.9 C 6.83 g/m*3 6.42 C 16.1 km/h
2978 18-04-2014 09:00:00 8.9 C 6.83 g/m*3 6.85 C 12.9 km/h
2979 18-04-2014 09:05:00 8.8 C 6.79 g/m*3 6.5 C 14.5 km/h
2980 18-04-2014 09:10:00 9 C 6.26 g/m*3 6.54 C 16.1 km/h
2981 18-04-2014 09:15:00 9 C 6.17 g/m*3 6.03 C 20.9 km/h
2982 18-04-2014 09:20:00 9 C 6.35 g/m*3 7.49 C 9.7 km/h
2983 18-04-2014 09:25:00 9 C 6.17 g/m*3 6.54 C 16.1 km/h
2984 18-04-2014 09:30:00 9 C 6.17 g/m*3 6.54 C 16.1 km/h
2985 18-04-2014 09:35:00 9.1 C 6.21 g/m*3 6.87 C 14.5 km/h
2986 18-04-2014 09:40:00 9.2 C 6.34 g/m*3 7.46 C 11.3 km/h
2987 18-04-2014 09:45:00 9.2 C 6.34 g/m*3 7.21 C 12.9 km/h
2988 18-04-2014 09:50:00 9.3 C 6.38 g/m*3 6.73 C 17.7 km/h
2989 18-04-2014 09:55:00 9.2 C 6.34 g/m*3 7.21 C 12.9 km/h
2990 18-04-2014 10:00:00 9.1 C 6.12 g/m*3 6.87 C 14.5 km/h
2991 18-04-2014 10:05:00 9.3 C 6.38 g/m*3 6.92 C 16.1 km/h
2992 18-04-2014 10:10:00 9.3 C 6.02 g/m*3 6.92 C 16.1 km/h
2993 18-04-2014 10:15:00 9.5 C 6.1 g/m*3 6.98 C 17.7 km/h
2994 18-04-2014 10:20:00 9.6 C 6.23 g/m*3 7.48 C 14.5 km/h
2995 18-04-2014 10:25:00 9.6 C 6.14 g/m*3 6.5 C 24.1 km/h
2996 18-04-2014 10:30:00 9.4 C 6.42 g/m*3 6.86 C 17.7 km/h
2997 18-04-2014 10:35:00 9 C 6.44 g/m*3 7.21 C 11.3 km/h
2998 18-04-2014 10:40:00 8.8 C 6.53 g/m*3 6.97 C 11.3 km/h
2999 18-04-2014 10:45:00 8.9 C 6.57 g/m*3 7.37 C 9.7 km/h
3000 18-04-2014 10:50:00 9.1 C 6.65 g/m*3 7.61 C 9.7 km/h
Sensor: Nr:Datum:Temp:Abs-Feuchte:Windchill:Wind:
Aussen-T/F 3001 18-04-2014 10:55:00 9.1 C 6.65 g/m*3 8.33 C 6.4 km/h
3002 18-04-2014 11:00:00 9.2 C 6.52 g/m*3 7.21 C 12.9 km/h
3003 18-04-2014 11:05:00 9.4 C 6.6 g/m*3 7.04 C 16.1 km/h
3004 18-04-2014 11:10:00 9.5 C 6.64 g/m*3 8.4 C 8.1 km/h
3005 18-04-2014 11:15:00 9.6 C 6.6 g/m*3 8.21 C 9.7 km/h
3006 18-04-2014 11:20:00 9.7 C 6.55 g/m*3 8.63 C 8.1 km/h
3007 18-04-2014 11:25:00 9.8 C 6.49 g/m*3 8.45 C 9.7 km/h
3008 18-04-2014 11:30:00 9.9 C 6.54 g/m*3 7.32 C 19.3 km/h
3009 18-04-2014 11:35:00 10 C 6.48 g/m*3 7.98 C 14.5 km/h
3010 18-04-2014 11:40:00 9.8 C 6.49 g/m*3 7.36 C 17.7 km/h
3011 18-04-2014 11:45:00 9.4 C 6.42 g/m*3 7.46 C 12.9 km/h
3012 18-04-2014 11:50:00 8.9 C 6.57 g/m*3 7.09 C 11.3 km/h
3013 18-04-2014 11:55:00 8.7 C 6.57 g/m*3 7.87 C 6.4 km/h
3014 18-04-2014 12:00:00 8.7 C 6.57 g/m*3 7.13 C 9.7 km/h
3015 18-04-2014 12:05:00 8.9 C 6.75 g/m*3 8.1 C 6.4 km/h
3016 18-04-2014 12:10:00 9.3 C 6.74 g/m*3 7.58 C 11.3 km/h
3017 18-04-2014 12:15:00 9.6 C 6.41 g/m*3 7.29 C 16.1 km/h
3018 18-04-2014 12:20:00 9.8 C 6.49 g/m*3 7.73 C 14.5 km/h
3019 18-04-2014 12:25:00 9.7 C 6.55 g/m*3 7.82 C 12.9 km/h
3020 18-04-2014 12:30:00 9.7 C 6.45 g/m*3 6.77 C 22.5 km/h
3021 18-04-2014 12:35:00 10.2 C 6.95 g/m*3 8.22 C 14.5 km/h
3022 18-04-2014 12:40:00 10.7 C 6.68 g/m*3 8.84 C 14.5 km/h
3023 18-04-2014 12:45:00 10.9 C 6.56 g/m*3 9.08 C 14.5 km/h
3024 18-04-2014 12:50:00 11.2 C 6.49 g/m*3 11.2 C 12.9 km/h
3025 18-04-2014 12:55:00 11.4 C 6.77 g/m*3 11.4 C 11.3 km/h
Sensor: Nr:Datum:Temp:Abs-Feuchte:Windchill:Wind:
Aussen-T/F 3026 18-04-2014 13:00:00 11.5 C 6.4 g/m*3 11.5 C 16.1 km/h
3027 18-04-2014 13:05:00 11.9 C 6.25 g/m*3 11.9 C 14.5 km/h
3028 18-04-2014 13:10:00 12.2 C 6.37 g/m*3 12.2 C 16.1 km/h
3029 18-04-2014 13:15:00 12.5 C 6.16 g/m*3 12.5 C 14.5 km/h
3030 18-04-2014 13:20:00 12.5 C 6.05 g/m*3 12.5 C 17.7 km/h
3031 18-04-2014 13:25:00 12.2 C 5.94 g/m*3 12.2 C 14.5 km/h
3032 18-04-2014 13:30:00 12.1 C 6.33 g/m*3 12.1 C 14.5 km/h
3033 18-04-2014 13:35:00 12.3 C 6.08 g/m*3 12.3 C 11.3 km/h
3034 18-04-2014 13:40:00 12.4 C 6.12 g/m*3 12.4 C 9.7 km/h
3035 18-04-2014 13:45:00 12.8 C 5.94 g/m*3 12.8 C 17.7 km/h
3036 18-04-2014 13:50:00 12.9 C 5.97 g/m*3 12.9 C 14.5 km/h
3037 18-04-2014 13:55:00 13.2 C 5.97 g/m*3 13.2 C 19.3 km/h
3038 18-04-2014 14:00:00 13.2 C 5.51 g/m*3 13.2 C 22.5 km/h
3039 18-04-2014 14:05:00 12.9 C 5.75 g/m*3 12.9 C 12.9 km/h
3040 18-04-2014 14:10:00 13.1 C 5.82 g/m*3 13.1 C 16.1 km/h
3041 18-04-2014 14:15:00 13.3 C 5.66 g/m*3 13.3 C 11.3 km/h
3042 18-04-2014 14:20:00 13.3 C 5.78 g/m*3 13.3 C 9.7 km/h
3043 18-04-2014 14:25:00 13.6 C 5.41 g/m*3 13.6 C 12.9 km/h
3044 18-04-2014 14:30:00 13.4 C 5.58 g/m*3 13.4 C 14.5 km/h
3045 18-04-2014 14:35:00 13.4 C 5.81 g/m*3 13.4 C 16.1 km/h
3046 18-04-2014 14:40:00 13.2 C 5.4 g/m*3 13.2 C 14.5 km/h
3047 18-04-2014 14:45:00 13.1 C 5.48 g/m*3 13.1 C 14.5 km/h
3048 18-04-2014 14:50:00 13.6 C 5.77 g/m*3 13.6 C 22.5 km/h
3049 18-04-2014 14:55:00 13.8 C 5.48 g/m*3 13.8 C 11.3 km/h
3050 18-04-2014 15:00:00 14.2 C 5.62 g/m*3 14.2 C 16.1 km/h
Sensor: Nr:Datum:Temp:Abs-Feuchte:Windchill:Wind:
Aussen-T/F 3051 18-04-2014 15:05:00 13.7 C 4.97 g/m*3 13.7 C 16.1 km/h
3052 18-04-2014 15:10:00 13.3 C 5.08 g/m*3 13.3 C 20.9 km/h
3053 18-04-2014 15:15:00 13.3 C 5.43 g/m*3 13.3 C 16.1 km/h
3054 18-04-2014 15:20:00 13.4 C 5.23 g/m*3 13.4 C 19.3 km/h
3055 18-04-2014 15:25:00 13.2 C 5.17 g/m*3 13.2 C 20.9 km/h
3056 18-04-2014 15:30:00 13.4 C 5.11 g/m*3 13.4 C 17.7 km/h
3057 18-04-2014 15:35:00 13.9 C 5.27 g/m*3 13.9 C 11.3 km/h
3058 18-04-2014 15:40:00 14.3 C 5.16 g/m*3 14.3 C 19.3 km/h
3059 18-04-2014 15:45:00 13.7 C 4.5 g/m*3 13.7 C 17.7 km/h
3060 18-04-2014 15:50:00 13.3 C 4.62 g/m*3 13.3 C 16.1 km/h
3061 18-04-2014 15:55:00 13.5 C 4.91 g/m*3 13.5 C 20.9 km/h
3062 18-04-2014 16:00:00 14.1 C 4.98 g/m*3 14.1 C 19.3 km/h
3063 18-04-2014 16:05:00 14.1 C 5.1 g/m*3 14.1 C 14.5 km/h
3064 18-04-2014 16:10:00 14.3 C 4.91 g/m*3 14.3 C 14.5 km/h
3065 18-04-2014 16:15:00 14.6 C 4.88 g/m*3 14.6 C 20.9 km/h
3066 18-04-2014 16:20:00 14.8 C 4.94 g/m*3 14.8 C 16.1 km/h
3067 18-04-2014 16:25:00 14.8 C 4.69 g/m*3 14.8 C 17.7 km/h
3068 18-04-2014 16:30:00 14.8 C 4.69 g/m*3 14.8 C 16.1 km/h
3069 18-04-2014 16:35:00 14.8 C 4.56 g/m*3 14.8 C 19.3 km/h
3070 18-04-2014 16:40:00 14.7 C 4.53 g/m*3 14.7 C 20.9 km/h
3071 18-04-2014 16:45:00 14.7 C 4.78 g/m*3 14.7 C 12.9 km/h
3072 18-04-2014 16:50:00 14.4 C 4.7 g/m*3 14.4 C 16.1 km/h
3073 18-04-2014 16:55:00 14.5 C 5.1 g/m*3 14.5 C 19.3 km/h
3074 18-04-2014 17:00:00 14.6 C 4.88 g/m*3 14.6 C 20.9 km/h
3075 18-04-2014 17:05:00 14.1 C 4.98 g/m*3 14.1 C 16.1 km/h
Sensor: Nr:Datum:Temp:Abs-Feuchte:Windchill:Wind:
Aussen-T/F 3076 18-04-2014 17:10:00 14.2 C 5.01 g/m*3 14.2 C 12.9 km/h
3077 18-04-2014 17:15:00 14.3 C 5.16 g/m*3 14.3 C 11.3 km/h
3078 18-04-2014 17:20:00 14.5 C 4.85 g/m*3 14.5 C 19.3 km/h
3079 18-04-2014 17:25:00 14.4 C 4.82 g/m*3 14.4 C 22.5 km/h
3080 18-04-2014 17:30:00 14.3 C 4.79 g/m*3 14.3 C 19.3 km/h
3081 18-04-2014 17:35:00 14.4 C 4.7 g/m*3 14.4 C 17.7 km/h
3082 18-04-2014 17:40:00 14.2 C 4.64 g/m*3 14.2 C 17.7 km/h
3083 18-04-2014 17:45:00 13.4 C 4.77 g/m*3 13.4 C 16.1 km/h
3084 18-04-2014 17:50:00 13.4 C 4.77 g/m*3 13.4 C 14.5 km/h
3085 18-04-2014 17:55:00 13.8 C 4.89 g/m*3 13.8 C 17.7 km/h
3086 18-04-2014 18:00:00 13.9 C 4.92 g/m*3 13.9 C 16.1 km/h
3087 18-04-2014 18:05:00 14 C 4.82 g/m*3 14 C 12.9 km/h
3088 18-04-2014 18:10:00 13.9 C 4.92 g/m*3 13.9 C 19.3 km/h
3089 18-04-2014 18:15:00 13.8 C 5 g/m*3 13.8 C 24.1 km/h
3090 18-04-2014 18:20:00 13.7 C 4.97 g/m*3 13.7 C 16.1 km/h
3091 18-04-2014 18:25:00 13.9 C 5.04 g/m*3 13.9 C 12.9 km/h
3092 18-04-2014 18:30:00 13.7 C 4.74 g/m*3 13.7 C 17.7 km/h
3093 18-04-2014 18:35:00 13.7 C 4.86 g/m*3 13.7 C 12.9 km/h
3094 18-04-2014 18:40:00 13.9 C 4.92 g/m*3 13.9 C 12.9 km/h
3095 18-04-2014 18:45:00 14.1 C 4.98 g/m*3 14.1 C 12.9 km/h
3096 18-04-2014 18:50:00 14.2 C 4.88 g/m*3 14.2 C 12.9 km/h
3097 18-04-2014 18:55:00 14.1 C 4.73 g/m*3 14.1 C 8.1 km/h
3098 18-04-2014 19:00:00 13.9 C 4.8 g/m*3 13.9 C 11.3 km/h
3099 18-04-2014 19:05:00 13.8 C 4.77 g/m*3 13.8 C 9.7 km/h
3100 18-04-2014 19:10:00 13.7 C 4.86 g/m*3 13.7 C 17.7 km/h
Sensor: Nr:Datum:Temp:Abs-Feuchte:Windchill:Wind:
Aussen-T/F 3101 18-04-2014 19:15:00 13.7 C 4.97 g/m*3 13.7 C 11.3 km/h
3102 18-04-2014 19:20:00 13.7 C 4.74 g/m*3 13.7 C 9.7 km/h
3103 18-04-2014 19:25:00 13.6 C 4.59 g/m*3 13.6 C 11.3 km/h
3104 18-04-2014 19:30:00 13.3 C 4.74 g/m*3 13.3 C 6.4 km/h
3105 18-04-2014 19:35:00 13.2 C 4.71 g/m*3 13.2 C 8.1 km/h
3106 18-04-2014 19:40:00 12.9 C 4.85 g/m*3 12.9 C 6.4 km/h
3107 18-04-2014 19:45:00 12.5 C 4.84 g/m*3 12.5 C 8.1 km/h
3108 18-04-2014 19:50:00 12.2 C 4.86 g/m*3 12.2 C 6.4 km/h
3109 18-04-2014 19:55:00 11.8 C 4.84 g/m*3 11.8 C 8.1 km/h
3110 18-04-2014 20:00:00 11.6 C 4.78 g/m*3 11.6 C 11.3 km/h
3111 18-04-2014 20:05:00 11.4 C 4.93 g/m*3 11.4 C 4.8 km/h
3112 18-04-2014 20:10:00 11.2 C 5.17 g/m*3 11.2 C 0 km/h
3113 18-04-2014 20:15:00 10.7 C 5.21 g/m*3 10.7 C 3.2 km/h
3114 18-04-2014 20:20:00 10.4 C 5.01 g/m*3 10.4 C 4.8 km/h
3115 18-04-2014 20:25:00 10.3 C 5.17 g/m*3 10.3 C 0 km/h
3116 18-04-2014 20:30:00 10.1 C 5.2 g/m*3 10.1 C 0 km/h
3117 18-04-2014 20:35:00 9.8 C 5.29 g/m*3 9.8 C 0 km/h
3118 18-04-2014 20:40:00 9.6 C 5.4 g/m*3 9.6 C 0 km/h
3119 18-04-2014 20:45:00 9.3 C 5.39 g/m*3 9.3 C 1.6 km/h
3120 18-04-2014 20:50:00 9.2 C 5.45 g/m*3 9.2 C 0 km/h
3121 18-04-2014 20:55:00 9 C 5.47 g/m*3 9 C 1.6 km/h
3122 18-04-2014 21:00:00 8.8 C 5.48 g/m*3 8.8 C 0 km/h
3123 18-04-2014 21:05:00 8.8 C 5.57 g/m*3 8.8 C 1.6 km/h
3124 18-04-2014 21:10:00 8.7 C 5.62 g/m*3 8.7 C 0 km/h
3125 18-04-2014 21:15:00 8.7 C 5.62 g/m*3 8.7 C 0 km/h
Sensor: Nr:Datum:Temp:Abs-Feuchte:Windchill:Wind:
Aussen-T/F 3126 18-04-2014 21:20:00 8.7 C 5.62 g/m*3 8.7 C 0 km/h
3127 18-04-2014 21:25:00 8.7 C 5.62 g/m*3 8.7 C 0 km/h
3128 18-04-2014 21:30:00 8.7 C 5.71 g/m*3 8.7 C 0 km/h
3129 18-04-2014 21:35:00 8.7 C 5.71 g/m*3 8.7 C 1.6 km/h
3130 18-04-2014 21:40:00 8.6 C 5.67 g/m*3 8.6 C 4.8 km/h
3131 18-04-2014 21:45:00 8.6 C 5.76 g/m*3 8.6 C 1.6 km/h
3132 18-04-2014 21:50:00 8.8 C 5.66 g/m*3 8.8 C 4.8 km/h
3133 18-04-2014 21:55:00 8.9 C 5.69 g/m*3 8.9 C 3.2 km/h
3134 18-04-2014 22:00:00 9 C 5.73 g/m*3 9 C 3.2 km/h
3135 18-04-2014 22:05:00 9 C 5.82 g/m*3 9 C 3.2 km/h
3136 18-04-2014 22:10:00 8.9 C 5.78 g/m*3 8.9 C 1.6 km/h
3137 18-04-2014 22:15:00 8.7 C 5.88 g/m*3 8.7 C 0 km/h
3138 18-04-2014 22:20:00 8.3 C 5.82 g/m*3 8.3 C 4.8 km/h
3139 18-04-2014 22:25:00 8.2 C 5.86 g/m*3 8.2 C 0 km/h
3140 18-04-2014 22:30:00 8 C 5.87 g/m*3 8 C 0 km/h
3141 18-04-2014 22:35:00 7.9 C 5.91 g/m*3 7.9 C 1.6 km/h
3142 18-04-2014 22:40:00 7.8 C 5.88 g/m*3 7.8 C 0 km/h
3143 18-04-2014 22:45:00 7.7 C 5.92 g/m*3 7.7 C 3.2 km/h
3144 18-04-2014 22:50:00 7.6 C 5.88 g/m*3 7.6 C 1.6 km/h
3145 18-04-2014 22:55:00 7.4 C 5.81 g/m*3 7.4 C 3.2 km/h
3146 18-04-2014 23:00:00 7.3 C 5.85 g/m*3 7.3 C 3.2 km/h
3147 18-04-2014 23:05:00 7.3 C 5.85 g/m*3 7.3 C 3.2 km/h
3148 18-04-2014 23:10:00 7.2 C 5.89 g/m*3 7.2 C 3.2 km/h
3149 18-04-2014 23:15:00 7.1 C 5.85 g/m*3 7.1 C 3.2 km/h
3150 18-04-2014 23:20:00 7.1 C 5.93 g/m*3 7.1 C 1.6 km/h
Sensor: Nr:Datum:Temp:Abs-Feuchte:Windchill:Wind:
Aussen-T/F 3151 18-04-2014 23:25:00 7.2 C 6.04 g/m*3 7.2 C 0 km/h
3152 18-04-2014 23:30:00 7.3 C 6 g/m*3 7.3 C 0 km/h
3153 18-04-2014 23:35:00 7.4 C 6.04 g/m*3 7.4 C 0 km/h
3154 18-04-2014 23:40:00 7.4 C 6.04 g/m*3 7.4 C 0 km/h
3155 18-04-2014 23:45:00 7.6 C 6.2 g/m*3 7.6 C 1.6 km/h
3156 18-04-2014 23:50:00 7.6 C 6.2 g/m*3 7.6 C 0 km/h
3157 18-04-2014 23:55:00 7.7 C 6.24 g/m*3 7.7 C 0 km/h
3158 19-04-2014 00:00:00 7.7 C 6.16 g/m*3 7.7 C 0 km/h
3159 19-04-2014 00:05:00 7.7 C 6.16 g/m*3 7.7 C 0 km/h
3160 19-04-2014 00:10:00 7.8 C 6.2 g/m*3 7.8 C 0 km/h
3161 19-04-2014 00:15:00 7.8 C 6.2 g/m*3 7.8 C 0 km/h
3162 19-04-2014 00:20:00 7.8 C 6.2 g/m*3 7.8 C 0 km/h
3163 19-04-2014 00:25:00 7.8 C 6.2 g/m*3 7.8 C 0 km/h
3164 19-04-2014 00:30:00 7.7 C 6.16 g/m*3 7.7 C 0 km/h
3165 19-04-2014 00:35:00 7.7 C 6.16 g/m*3 7.7 C 0 km/h
3166 19-04-2014 00:40:00 7.7 C 6.16 g/m*3 7.7 C 0 km/h
3167 19-04-2014 00:45:00 7.7 C 6.24 g/m*3 7.7 C 0 km/h
3168 19-04-2014 00:50:00 7.7 C 6.24 g/m*3 7.7 C 0 km/h
3169 19-04-2014 00:55:00 7.6 C 6.2 g/m*3 7.6 C 0 km/h
3170 19-04-2014 01:00:00 7.6 C 6.2 g/m*3 7.6 C 0 km/h
3171 19-04-2014 01:05:00 7.4 C 6.2 g/m*3 7.4 C 0 km/h
3172 19-04-2014 01:10:00 7.3 C 6.16 g/m*3 7.3 C 0 km/h
3173 19-04-2014 01:15:00 7.2 C 6.12 g/m*3 7.2 C 0 km/h
3174 19-04-2014 01:20:00 7.1 C 6.08 g/m*3 7.1 C 0 km/h
3175 19-04-2014 01:25:00 6.9 C 6.08 g/m*3 6.9 C 1.6 km/h
Sensor: Nr:Datum:Temp:Abs-Feuchte:Windchill:Wind:
Aussen-T/F 3176 19-04-2014 01:30:00 6.8 C 6.04 g/m*3 6.8 C 0 km/h
3177 19-04-2014 01:35:00 6.6 C 6.04 g/m*3 6.6 C 1.6 km/h
3178 19-04-2014 01:40:00 6.4 C 5.96 g/m*3 6.4 C 1.6 km/h
3179 19-04-2014 01:45:00 6.3 C 6 g/m*3 6.3 C 1.6 km/h
3180 19-04-2014 01:50:00 6.2 C 5.96 g/m*3 6.2 C 3.2 km/h
3181 19-04-2014 01:55:00 6.1 C 5.99 g/m*3 6.1 C 3.2 km/h
3182 19-04-2014 02:00:00 6 C 5.95 g/m*3 6 C 1.6 km/h
3183 19-04-2014 02:05:00 6 C 6.02 g/m*3 6 C 3.2 km/h
3184 19-04-2014 02:10:00 5.9 C 5.91 g/m*3 5.9 C 1.6 km/h
3185 19-04-2014 02:15:00 5.9 C 5.91 g/m*3 5.9 C 1.6 km/h
3186 19-04-2014 02:20:00 5.9 C 5.98 g/m*3 5.9 C 3.2 km/h
3187 19-04-2014 02:25:00 5.8 C 5.95 g/m*3 5.8 C 1.6 km/h
3188 19-04-2014 02:30:00 5.8 C 5.95 g/m*3 5.8 C 1.6 km/h
3189 19-04-2014 02:35:00 5.8 C 5.95 g/m*3 5.8 C 3.2 km/h
3190 19-04-2014 02:40:00 5.8 C 5.95 g/m*3 5.8 C 3.2 km/h
3191 19-04-2014 02:45:00 5.8 C 5.95 g/m*3 5.8 C 3.2 km/h
3192 19-04-2014 02:50:00 5.7 C 5.91 g/m*3 5.7 C 1.6 km/h
3193 19-04-2014 02:55:00 5.6 C 5.94 g/m*3 5.6 C 0 km/h
3194 19-04-2014 03:00:00 5.4 C 5.86 g/m*3 5.4 C 0 km/h
3195 19-04-2014 03:05:00 5.3 C 5.89 g/m*3 5.3 C 1.6 km/h
3196 19-04-2014 03:10:00 5.3 C 5.89 g/m*3 5.3 C 1.6 km/h
3197 19-04-2014 03:15:00 5.3 C 5.89 g/m*3 5.3 C 1.6 km/h
3198 19-04-2014 03:20:00 5.2 C 5.85 g/m*3 5.2 C 3.2 km/h
3199 19-04-2014 03:25:00 5.2 C 5.85 g/m*3 5.2 C 1.6 km/h
3200 19-04-2014 03:30:00 5.1 C 5.81 g/m*3 5.1 C 1.6 km/h
Sensor: Nr:Datum:Temp:Abs-Feuchte:Windchill:Wind:
Aussen-T/F 3201 19-04-2014 03:35:00 5.1 C 5.88 g/m*3 5.1 C 1.6 km/h
3202 19-04-2014 03:40:00 4.9 C 5.81 g/m*3 4.9 C 3.2 km/h
3203 19-04-2014 03:45:00 4.9 C 5.81 g/m*3 4.9 C 1.6 km/h
3204 19-04-2014 03:50:00 4.9 C 5.87 g/m*3 4.9 C 0 km/h
3205 19-04-2014 03:55:00 5.1 C 5.95 g/m*3 5.1 C 0 km/h
3206 19-04-2014 04:00:00 5.2 C 5.99 g/m*3 5.2 C 0 km/h
3207 19-04-2014 04:05:00 5.3 C 6.03 g/m*3 5.3 C 0 km/h
3208 19-04-2014 04:10:00 5.4 C 6.07 g/m*3 5.4 C 1.6 km/h
3209 19-04-2014 04:15:00 5.4 C 6 g/m*3 5.4 C 0 km/h
3210 19-04-2014 04:20:00 5.4 C 6 g/m*3 5.4 C 0 km/h
3211 19-04-2014 04:25:00 5.4 C 6 g/m*3 5.4 C 0 km/h
3212 19-04-2014 04:30:00 5.3 C 5.96 g/m*3 5.3 C 0 km/h
3213 19-04-2014 04:35:00 5.2 C 5.92 g/m*3 5.2 C 0 km/h
3214 19-04-2014 04:40:00 5 C 5.84 g/m*3 5 C 0 km/h
3215 19-04-2014 04:45:00 4.9 C 5.81 g/m*3 4.9 C 0 km/h
3216 19-04-2014 04:50:00 4.8 C 5.77 g/m*3 4.8 C 1.6 km/h
3217 19-04-2014 04:55:00 4.7 C 5.8 g/m*3 4.7 C 1.6 km/h
3218 19-04-2014 05:00:00 4.6 C 5.76 g/m*3 4.6 C 1.6 km/h